<?xml version="1.0" encoding="UTF-8" standalone="no" ?><gpx xmlns="http://www.topografix.com/GPX/1/1" xmlns:gpxx="http://www.garmin.com/xmlschemas/GpxExtensions/v3" xmlns:wptx1="http://www.garmin.com/xmlschemas/WaypointExtension/v1" xmlns:gpxtpx="http://www.garmin.com/xmlschemas/TrackPointExtension/v1" creator="GuideVTT.com" version="1.1" xmlns:xsi="http://www.w3.org/2001/XMLSchema-instance" xsi:schemaLocation="http://www.topografix.com/GPX/1/1 http://www.topografix.com/GPX/1/1/gpx.xsd http://www.garmin.com/xmlschemas/GpxExtensions/v3 http://www8.garmin.com/xmlschemas/GpxExtensionsv3.xsd http://www.garmin.com/xmlschemas/WaypointExtension/v1 http://www8.garmin.com/xmlschemas/WaypointExtensionv1.xsd http://www.garmin.com/xmlschemas/TrackPointExtension/v1 http://www.garmin.com/xmlschemas/TrackPointExtensionv1.xsd">
<metadata><link href="http://www.garmin.com"><text>Garmin International</text></link><time>2013-06-22T15:13:50Z</time></metadata>
<trk><name>b5ne4454.gpx</name><extensions><gpxx:TrackExtension><gpxx:DisplayColor>Cyan</gpxx:DisplayColor></gpxx:TrackExtension></extensions><trkseg>
<trkpt lat="46.22385" lon="7.28289"><ele>502</ele><time>2021-05-23T13:44:54Z</time></trkpt>
<trkpt lat="46.22384" lon="7.28291"><ele>498</ele><time>2021-05-23T13:44:55Z</time></trkpt>
<trkpt lat="46.22385" lon="7.28291"><ele>496.8</ele><time>2021-05-23T13:44:58Z</time></trkpt>
<trkpt lat="46.22385" lon="7.28295"><ele>491.2</ele><time>2021-05-23T13:45:01Z</time></trkpt>
<trkpt lat="46.22387" lon="7.28298"><ele>498.2</ele><time>2021-05-23T13:45:05Z</time></trkpt>
<trkpt lat="46.22394" lon="7.28299"><ele>500.6</ele><time>2021-05-23T13:45:12Z</time></trkpt>
<trkpt lat="46.22395" lon="7.28297"><ele>499.6</ele><time>2021-05-23T13:45:13Z</time></trkpt>
<trkpt lat="46.22395" lon="7.28292"><ele>499.2</ele><time>2021-05-23T13:45:14Z</time></trkpt>
<trkpt lat="46.22395" lon="7.28284"><ele>498.2</ele><time>2021-05-23T13:45:18Z</time></trkpt>
<trkpt lat="46.22398" lon="7.2828"><ele>497.8</ele><time>2021-05-23T13:45:19Z</time></trkpt>
<trkpt lat="46.22415" lon="7.2827"><ele>495</ele><time>2021-05-23T13:45:28Z</time></trkpt>
<trkpt lat="46.22426" lon="7.28262"><ele>497</ele><time>2021-05-23T13:45:34Z</time></trkpt>
<trkpt lat="46.22429" lon="7.28261"><ele>497.2</ele><time>2021-05-23T13:45:36Z</time></trkpt>
<trkpt lat="46.22432" lon="7.28262"><ele>496.2</ele><time>2021-05-23T13:45:40Z</time></trkpt>
<trkpt lat="46.22441" lon="7.28302"><ele>490.6</ele><time>2021-05-23T13:45:53Z</time></trkpt>
<trkpt lat="46.22445" lon="7.28312"><ele>490.4</ele><time>2021-05-23T13:45:56Z</time></trkpt>
<trkpt lat="46.2245" lon="7.28325"><ele>490</ele><time>2021-05-23T13:46:00Z</time></trkpt>
<trkpt lat="46.22455" lon="7.28339"><ele>490</ele><time>2021-05-23T13:46:04Z</time></trkpt>
<trkpt lat="46.22463" lon="7.28365"><ele>490.6</ele><time>2021-05-23T13:46:13Z</time></trkpt>
<trkpt lat="46.22464" lon="7.28375"><ele>490.8</ele><time>2021-05-23T13:46:18Z</time></trkpt>
<trkpt lat="46.22465" lon="7.28377"><ele>490.8</ele><time>2021-05-23T13:46:19Z</time></trkpt>
<trkpt lat="46.22473" lon="7.28377"><ele>491.2</ele><time>2021-05-23T13:46:23Z</time></trkpt>
<trkpt lat="46.2249" lon="7.28365"><ele>491.4</ele><time>2021-05-23T13:46:30Z</time></trkpt>
<trkpt lat="46.22508" lon="7.28355"><ele>491.4</ele><time>2021-05-23T13:46:37Z</time></trkpt>
<trkpt lat="46.22525" lon="7.28346"><ele>491.6</ele><time>2021-05-23T13:46:44Z</time></trkpt>
<trkpt lat="46.22544" lon="7.28338"><ele>492.8</ele><time>2021-05-23T13:46:52Z</time></trkpt>
<trkpt lat="46.22562" lon="7.28337"><ele>494.4</ele><time>2021-05-23T13:47:00Z</time></trkpt>
<trkpt lat="46.22565" lon="7.28338"><ele>494.8</ele><time>2021-05-23T13:47:02Z</time></trkpt>
<trkpt lat="46.22566" lon="7.28338"><ele>495.2</ele><time>2021-05-23T13:47:04Z</time></trkpt>
<trkpt lat="46.22566" lon="7.28337"><ele>496.6</ele><time>2021-05-23T13:47:15Z</time></trkpt>
<trkpt lat="46.22569" lon="7.28337"><ele>496.6</ele><time>2021-05-23T13:47:18Z</time></trkpt>
<trkpt lat="46.2259" lon="7.28341"><ele>497.6</ele><time>2021-05-23T13:47:25Z</time></trkpt>
<trkpt lat="46.2261" lon="7.28347"><ele>499.6</ele><time>2021-05-23T13:47:32Z</time></trkpt>
<trkpt lat="46.2263" lon="7.28348"><ele>500.4</ele><time>2021-05-23T13:47:39Z</time></trkpt>
<trkpt lat="46.22648" lon="7.28341"><ele>501</ele><time>2021-05-23T13:47:46Z</time></trkpt>
<trkpt lat="46.22666" lon="7.28328"><ele>501.6</ele><time>2021-05-23T13:47:54Z</time></trkpt>
<trkpt lat="46.22672" lon="7.28321"><ele>502.2</ele><time>2021-05-23T13:47:57Z</time></trkpt>
<trkpt lat="46.22684" lon="7.28307"><ele>502.6</ele><time>2021-05-23T13:48:03Z</time></trkpt>
<trkpt lat="46.22693" lon="7.28294"><ele>502.6</ele><time>2021-05-23T13:48:10Z</time></trkpt>
<trkpt lat="46.22692" lon="7.28266"><ele>502.8</ele><time>2021-05-23T13:48:19Z</time></trkpt>
<trkpt lat="46.22689" lon="7.28238"><ele>502.6</ele><time>2021-05-23T13:48:26Z</time></trkpt>
<trkpt lat="46.22688" lon="7.28218"><ele>502.6</ele><time>2021-05-23T13:48:31Z</time></trkpt>
<trkpt lat="46.22698" lon="7.28202"><ele>503.4</ele><time>2021-05-23T13:48:39Z</time></trkpt>
<trkpt lat="46.22715" lon="7.28194"><ele>505.8</ele><time>2021-05-23T13:48:53Z</time></trkpt>
<trkpt lat="46.22733" lon="7.28202"><ele>506.8</ele><time>2021-05-23T13:49:07Z</time></trkpt>
<trkpt lat="46.22734" lon="7.28202"><ele>507</ele><time>2021-05-23T13:49:08Z</time></trkpt>
<trkpt lat="46.2274" lon="7.28193"><ele>508</ele><time>2021-05-23T13:49:13Z</time></trkpt>
<trkpt lat="46.22742" lon="7.28173"><ele>509.8</ele><time>2021-05-23T13:49:21Z</time></trkpt>
<trkpt lat="46.2275" lon="7.28151"><ele>511.4</ele><time>2021-05-23T13:49:30Z</time></trkpt>
<trkpt lat="46.22757" lon="7.28126"><ele>511.6</ele><time>2021-05-23T13:49:40Z</time></trkpt>
<trkpt lat="46.22762" lon="7.28102"><ele>513.4</ele><time>2021-05-23T13:49:49Z</time></trkpt>
<trkpt lat="46.22765" lon="7.28089"><ele>514.6</ele><time>2021-05-23T13:49:55Z</time></trkpt>
<trkpt lat="46.22773" lon="7.2806"><ele>516.8</ele><time>2021-05-23T13:50:10Z</time></trkpt>
<trkpt lat="46.22776" lon="7.28033"><ele>520</ele><time>2021-05-23T13:50:27Z</time></trkpt>
<trkpt lat="46.22774" lon="7.28018"><ele>522.2</ele><time>2021-05-23T13:50:38Z</time></trkpt>
<trkpt lat="46.22774" lon="7.28016"><ele>522.4</ele><time>2021-05-23T13:50:39Z</time></trkpt>
<trkpt lat="46.22772" lon="7.28004"><ele>523.8</ele><time>2021-05-23T13:50:48Z</time></trkpt>
<trkpt lat="46.22765" lon="7.2798"><ele>526.6</ele><time>2021-05-23T13:51:07Z</time></trkpt>
<trkpt lat="46.22768" lon="7.27963"><ele>528.4</ele><time>2021-05-23T13:51:20Z</time></trkpt>
<trkpt lat="46.22771" lon="7.27955"><ele>529.6</ele><time>2021-05-23T13:51:27Z</time></trkpt>
<trkpt lat="46.22777" lon="7.27938"><ele>532.4</ele><time>2021-05-23T13:51:41Z</time></trkpt>
<trkpt lat="46.22784" lon="7.27919"><ele>535.8</ele><time>2021-05-23T13:51:55Z</time></trkpt>
<trkpt lat="46.22792" lon="7.27895"><ele>539.6</ele><time>2021-05-23T13:52:12Z</time></trkpt>
<trkpt lat="46.22797" lon="7.27882"><ele>542</ele><time>2021-05-23T13:52:24Z</time></trkpt>
<trkpt lat="46.228" lon="7.27876"><ele>542.6</ele><time>2021-05-23T13:52:29Z</time></trkpt>
<trkpt lat="46.22806" lon="7.27851"><ele>545</ele><time>2021-05-23T13:52:47Z</time></trkpt>
<trkpt lat="46.22794" lon="7.27825"><ele>548</ele><time>2021-05-23T13:53:10Z</time></trkpt>
<trkpt lat="46.22783" lon="7.27803"><ele>551</ele><time>2021-05-23T13:53:28Z</time></trkpt>
<trkpt lat="46.22777" lon="7.27778"><ele>553.2</ele><time>2021-05-23T13:53:44Z</time></trkpt>
<trkpt lat="46.22776" lon="7.2777"><ele>553.8</ele><time>2021-05-23T13:53:48Z</time></trkpt>
<trkpt lat="46.22772" lon="7.27743"><ele>555</ele><time>2021-05-23T13:54:00Z</time></trkpt>
<trkpt lat="46.22762" lon="7.27719"><ele>556</ele><time>2021-05-23T13:54:11Z</time></trkpt>
<trkpt lat="46.22753" lon="7.27706"><ele>556.4</ele><time>2021-05-23T13:54:17Z</time></trkpt>
<trkpt lat="46.2274" lon="7.27686"><ele>556.6</ele><time>2021-05-23T13:54:25Z</time></trkpt>
<trkpt lat="46.22727" lon="7.27667"><ele>557</ele><time>2021-05-23T13:54:32Z</time></trkpt>
<trkpt lat="46.22713" lon="7.27646"><ele>556.4</ele><time>2021-05-23T13:54:38Z</time></trkpt>
<trkpt lat="46.22699" lon="7.27626"><ele>555.4</ele><time>2021-05-23T13:54:43Z</time></trkpt>
<trkpt lat="46.22685" lon="7.27605"><ele>553.8</ele><time>2021-05-23T13:54:47Z</time></trkpt>
<trkpt lat="46.22674" lon="7.27584"><ele>552.6</ele><time>2021-05-23T13:54:50Z</time></trkpt>
<trkpt lat="46.22666" lon="7.27558"><ele>551.2</ele><time>2021-05-23T13:54:53Z</time></trkpt>
<trkpt lat="46.22665" lon="7.27548"><ele>550.8</ele><time>2021-05-23T13:54:54Z</time></trkpt>
<trkpt lat="46.22662" lon="7.27539"><ele>550.4</ele><time>2021-05-23T13:54:55Z</time></trkpt>
<trkpt lat="46.22653" lon="7.27523"><ele>549.8</ele><time>2021-05-23T13:54:57Z</time></trkpt>
<trkpt lat="46.22639" lon="7.27501"><ele>549.2</ele><time>2021-05-23T13:55:00Z</time></trkpt>
<trkpt lat="46.22626" lon="7.27477"><ele>548.8</ele><time>2021-05-23T13:55:03Z</time></trkpt>
<trkpt lat="46.22613" lon="7.27453"><ele>548.6</ele><time>2021-05-23T13:55:06Z</time></trkpt>
<trkpt lat="46.22605" lon="7.27438"><ele>549</ele><time>2021-05-23T13:55:08Z</time></trkpt>
<trkpt lat="46.22598" lon="7.27409"><ele>550.2</ele><time>2021-05-23T13:55:12Z</time></trkpt>
<trkpt lat="46.22596" lon="7.27383"><ele>552.2</ele><time>2021-05-23T13:55:20Z</time></trkpt>
<trkpt lat="46.22596" lon="7.27379"><ele>552.4</ele><time>2021-05-23T13:55:22Z</time></trkpt>
<trkpt lat="46.22594" lon="7.27372"><ele>553.4</ele><time>2021-05-23T13:55:26Z</time></trkpt>
<trkpt lat="46.22585" lon="7.27348"><ele>556.4</ele><time>2021-05-23T13:55:40Z</time></trkpt>
<trkpt lat="46.22578" lon="7.27322"><ele>558</ele><time>2021-05-23T13:55:51Z</time></trkpt>
<trkpt lat="46.22578" lon="7.27294"><ele>559.6</ele><time>2021-05-23T13:56:00Z</time></trkpt>
<trkpt lat="46.22578" lon="7.27265"><ele>561.8</ele><time>2021-05-23T13:56:10Z</time></trkpt>
<trkpt lat="46.22578" lon="7.27243"><ele>562.6</ele><time>2021-05-23T13:56:17Z</time></trkpt>
<trkpt lat="46.22578" lon="7.27215"><ele>563</ele><time>2021-05-23T13:56:24Z</time></trkpt>
<trkpt lat="46.2258" lon="7.27188"><ele>563</ele><time>2021-05-23T13:56:30Z</time></trkpt>
<trkpt lat="46.22587" lon="7.27176"><ele>563.6</ele><time>2021-05-23T13:56:34Z</time></trkpt>
<trkpt lat="46.22611" lon="7.27188"><ele>567.4</ele><time>2021-05-23T13:56:50Z</time></trkpt>
<trkpt lat="46.22627" lon="7.27204"><ele>570</ele><time>2021-05-23T13:57:04Z</time></trkpt>
<trkpt lat="46.22638" lon="7.2722"><ele>572.4</ele><time>2021-05-23T13:57:16Z</time></trkpt>
<trkpt lat="46.22643" lon="7.27228"><ele>573.4</ele><time>2021-05-23T13:57:22Z</time></trkpt>
<trkpt lat="46.22655" lon="7.27248"><ele>575.4</ele><time>2021-05-23T13:57:36Z</time></trkpt>
<trkpt lat="46.22665" lon="7.27262"><ele>577.2</ele><time>2021-05-23T13:57:47Z</time></trkpt>
<trkpt lat="46.22681" lon="7.27271"><ele>580.6</ele><time>2021-05-23T13:58:02Z</time></trkpt>
<trkpt lat="46.22684" lon="7.27268"><ele>581.4</ele><time>2021-05-23T13:58:05Z</time></trkpt>
<trkpt lat="46.22677" lon="7.27242"><ele>582</ele><time>2021-05-23T13:58:17Z</time></trkpt>
<trkpt lat="46.22674" lon="7.27236"><ele>582.2</ele><time>2021-05-23T13:58:20Z</time></trkpt>
<trkpt lat="46.22671" lon="7.27226"><ele>582.4</ele><time>2021-05-23T13:58:25Z</time></trkpt>
<trkpt lat="46.22661" lon="7.27203"><ele>582.6</ele><time>2021-05-23T13:58:36Z</time></trkpt>
<trkpt lat="46.22655" lon="7.27191"><ele>582.8</ele><time>2021-05-23T13:58:42Z</time></trkpt>
<trkpt lat="46.22643" lon="7.27168"><ele>583.4</ele><time>2021-05-23T13:58:54Z</time></trkpt>
<trkpt lat="46.22633" lon="7.27151"><ele>584.4</ele><time>2021-05-23T13:59:05Z</time></trkpt>
<trkpt lat="46.2262" lon="7.27132"><ele>586</ele><time>2021-05-23T13:59:17Z</time></trkpt>
<trkpt lat="46.22608" lon="7.27113"><ele>587.6</ele><time>2021-05-23T13:59:29Z</time></trkpt>
<trkpt lat="46.22603" lon="7.27099"><ele>588.8</ele><time>2021-05-23T13:59:36Z</time></trkpt>
<trkpt lat="46.22599" lon="7.27085"><ele>589.6</ele><time>2021-05-23T13:59:43Z</time></trkpt>
<trkpt lat="46.22589" lon="7.27054"><ele>592</ele><time>2021-05-23T13:59:59Z</time></trkpt>
<trkpt lat="46.22578" lon="7.2703"><ele>593.8</ele><time>2021-05-23T14:00:12Z</time></trkpt>
<trkpt lat="46.22568" lon="7.27007"><ele>596</ele><time>2021-05-23T14:00:25Z</time></trkpt>
<trkpt lat="46.22558" lon="7.26984"><ele>597.8</ele><time>2021-05-23T14:00:39Z</time></trkpt>
<trkpt lat="46.22548" lon="7.2696"><ele>599.6</ele><time>2021-05-23T14:00:53Z</time></trkpt>
<trkpt lat="46.22538" lon="7.26938"><ele>601.2</ele><time>2021-05-23T14:01:06Z</time></trkpt>
<trkpt lat="46.22527" lon="7.26916"><ele>603</ele><time>2021-05-23T14:01:19Z</time></trkpt>
<trkpt lat="46.22515" lon="7.26883"><ele>605.4</ele><time>2021-05-23T14:01:34Z</time></trkpt>
<trkpt lat="46.22511" lon="7.26869"><ele>606.6</ele><time>2021-05-23T14:01:40Z</time></trkpt>
<trkpt lat="46.22502" lon="7.26844"><ele>608.8</ele><time>2021-05-23T14:01:51Z</time></trkpt>
<trkpt lat="46.22494" lon="7.2682"><ele>610.8</ele><time>2021-05-23T14:02:02Z</time></trkpt>
<trkpt lat="46.22485" lon="7.26797"><ele>612.4</ele><time>2021-05-23T14:02:13Z</time></trkpt>
<trkpt lat="46.22474" lon="7.26774"><ele>614</ele><time>2021-05-23T14:02:24Z</time></trkpt>
<trkpt lat="46.22459" lon="7.26745"><ele>616.4</ele><time>2021-05-23T14:02:39Z</time></trkpt>
<trkpt lat="46.22452" lon="7.26735"><ele>617.6</ele><time>2021-05-23T14:02:45Z</time></trkpt>
<trkpt lat="46.22437" lon="7.26717"><ele>619.2</ele><time>2021-05-23T14:02:56Z</time></trkpt>
<trkpt lat="46.22425" lon="7.26697"><ele>621</ele><time>2021-05-23T14:03:07Z</time></trkpt>
<trkpt lat="46.22416" lon="7.26673"><ele>621.6</ele><time>2021-05-23T14:03:17Z</time></trkpt>
<trkpt lat="46.22412" lon="7.26648"><ele>622.6</ele><time>2021-05-23T14:03:27Z</time></trkpt>
<trkpt lat="46.22413" lon="7.26641"><ele>623.2</ele><time>2021-05-23T14:03:31Z</time></trkpt>
<trkpt lat="46.22418" lon="7.26644"><ele>624.8</ele><time>2021-05-23T14:03:37Z</time></trkpt>
<trkpt lat="46.22427" lon="7.26646"><ele>626.8</ele><time>2021-05-23T14:03:46Z</time></trkpt>
<trkpt lat="46.22434" lon="7.26649"><ele>628.2</ele><time>2021-05-23T14:03:54Z</time></trkpt>
<trkpt lat="46.22452" lon="7.26657"><ele>632.6</ele><time>2021-05-23T14:04:16Z</time></trkpt>
<trkpt lat="46.22469" lon="7.26665"><ele>636.4</ele><time>2021-05-23T14:04:39Z</time></trkpt>
<trkpt lat="46.22475" lon="7.2667"><ele>637.8</ele><time>2021-05-23T14:04:47Z</time></trkpt>
<trkpt lat="46.2248" lon="7.26671"><ele>638.2</ele><time>2021-05-23T14:04:53Z</time></trkpt>
<trkpt lat="46.22488" lon="7.26656"><ele>639</ele><time>2021-05-23T14:05:06Z</time></trkpt>
<trkpt lat="46.22493" lon="7.26631"><ele>640</ele><time>2021-05-23T14:05:21Z</time></trkpt>
<trkpt lat="46.22495" lon="7.26619"><ele>640.8</ele><time>2021-05-23T14:05:28Z</time></trkpt>
<trkpt lat="46.22502" lon="7.2661"><ele>642</ele><time>2021-05-23T14:05:37Z</time></trkpt>
<trkpt lat="46.22504" lon="7.26608"><ele>642.2</ele><time>2021-05-23T14:05:39Z</time></trkpt>
<trkpt lat="46.22508" lon="7.26602"><ele>643.4</ele><time>2021-05-23T14:05:46Z</time></trkpt>
<trkpt lat="46.22508" lon="7.26601"><ele>643.6</ele><time>2021-05-23T14:05:47Z</time></trkpt>
<trkpt lat="46.22509" lon="7.26589"><ele>645.6</ele><time>2021-05-23T14:05:58Z</time></trkpt>
<trkpt lat="46.22502" lon="7.26573"><ele>648</ele><time>2021-05-23T14:06:13Z</time></trkpt>
<trkpt lat="46.22498" lon="7.26567"><ele>649.2</ele><time>2021-05-23T14:06:20Z</time></trkpt>
<trkpt lat="46.22484" lon="7.26549"><ele>652.6</ele><time>2021-05-23T14:06:41Z</time></trkpt>
<trkpt lat="46.22481" lon="7.26547"><ele>653</ele><time>2021-05-23T14:06:44Z</time></trkpt>
<trkpt lat="46.22483" lon="7.2653"><ele>656.6</ele><time>2021-05-23T14:07:07Z</time></trkpt>
<trkpt lat="46.22492" lon="7.26537"><ele>657.8</ele><time>2021-05-23T14:07:18Z</time></trkpt>
<trkpt lat="46.22506" lon="7.26526"><ele>658.6</ele><time>2021-05-23T14:07:40Z</time></trkpt>
<trkpt lat="46.2251" lon="7.2652"><ele>659</ele><time>2021-05-23T14:07:48Z</time></trkpt>
<trkpt lat="46.22513" lon="7.26509"><ele>660.2</ele><time>2021-05-23T14:07:58Z</time></trkpt>
<trkpt lat="46.22525" lon="7.2649"><ele>665</ele><time>2021-05-23T14:08:23Z</time></trkpt>
<trkpt lat="46.2253" lon="7.26472"><ele>668.8</ele><time>2021-05-23T14:08:44Z</time></trkpt>
<trkpt lat="46.22528" lon="7.26446"><ele>673.6</ele><time>2021-05-23T14:09:08Z</time></trkpt>
<trkpt lat="46.22529" lon="7.2643"><ele>677.8</ele><time>2021-05-23T14:09:32Z</time></trkpt>
<trkpt lat="46.22528" lon="7.26426"><ele>678</ele><time>2021-05-23T14:09:36Z</time></trkpt>
<trkpt lat="46.22522" lon="7.26411"><ele>680.4</ele><time>2021-05-23T14:09:51Z</time></trkpt>
<trkpt lat="46.22511" lon="7.2639"><ele>684.8</ele><time>2021-05-23T14:10:18Z</time></trkpt>
<trkpt lat="46.22509" lon="7.26383"><ele>686.4</ele><time>2021-05-23T14:10:27Z</time></trkpt>
<trkpt lat="46.22502" lon="7.26368"><ele>690.8</ele><time>2021-05-23T14:10:46Z</time></trkpt>
<trkpt lat="46.22492" lon="7.2635"><ele>693.8</ele><time>2021-05-23T14:11:07Z</time></trkpt>
<trkpt lat="46.22491" lon="7.26347"><ele>694.2</ele><time>2021-05-23T14:11:10Z</time></trkpt>
<trkpt lat="46.22494" lon="7.26343"><ele>694.6</ele><time>2021-05-23T14:11:14Z</time></trkpt>
<trkpt lat="46.22495" lon="7.26335"><ele>695</ele><time>2021-05-23T14:11:20Z</time></trkpt>
<trkpt lat="46.225" lon="7.26334"><ele>695.4</ele><time>2021-05-23T14:11:25Z</time></trkpt>
<trkpt lat="46.22514" lon="7.2632"><ele>698.8</ele><time>2021-05-23T14:11:47Z</time></trkpt>
<trkpt lat="46.22519" lon="7.26308"><ele>700.6</ele><time>2021-05-23T14:11:58Z</time></trkpt>
<trkpt lat="46.22523" lon="7.26312"><ele>700.8</ele><time>2021-05-23T14:12:03Z</time></trkpt>
<trkpt lat="46.22526" lon="7.26322"><ele>702.2</ele><time>2021-05-23T14:12:12Z</time></trkpt>
<trkpt lat="46.22529" lon="7.26327"><ele>703.4</ele><time>2021-05-23T14:12:17Z</time></trkpt>
<trkpt lat="46.22541" lon="7.2634"><ele>708.2</ele><time>2021-05-23T14:12:35Z</time></trkpt>
<trkpt lat="46.22545" lon="7.26343"><ele>709.2</ele><time>2021-05-23T14:12:39Z</time></trkpt>
<trkpt lat="46.2255" lon="7.26346"><ele>710.6</ele><time>2021-05-23T14:12:45Z</time></trkpt>
<trkpt lat="46.22552" lon="7.26345"><ele>711.8</ele><time>2021-05-23T14:12:49Z</time></trkpt>
<trkpt lat="46.22554" lon="7.2634"><ele>712.6</ele><time>2021-05-23T14:12:53Z</time></trkpt>
<trkpt lat="46.22553" lon="7.26334"><ele>713</ele><time>2021-05-23T14:12:59Z</time></trkpt>
<trkpt lat="46.22546" lon="7.2631"><ele>715.2</ele><time>2021-05-23T14:13:18Z</time></trkpt>
<trkpt lat="46.22544" lon="7.26278"><ele>718.2</ele><time>2021-05-23T14:13:39Z</time></trkpt>
<trkpt lat="46.2254" lon="7.26263"><ele>719.8</ele><time>2021-05-23T14:13:49Z</time></trkpt>
<trkpt lat="46.22538" lon="7.26253"><ele>720.6</ele><time>2021-05-23T14:13:56Z</time></trkpt>
<trkpt lat="46.22535" lon="7.26242"><ele>722.4</ele><time>2021-05-23T14:14:04Z</time></trkpt>
<trkpt lat="46.22528" lon="7.26232"><ele>724</ele><time>2021-05-23T14:14:14Z</time></trkpt>
<trkpt lat="46.22522" lon="7.26223"><ele>725</ele><time>2021-05-23T14:14:24Z</time></trkpt>
<trkpt lat="46.22521" lon="7.26221"><ele>725.2</ele><time>2021-05-23T14:14:26Z</time></trkpt>
<trkpt lat="46.22519" lon="7.2621"><ele>726.2</ele><time>2021-05-23T14:14:34Z</time></trkpt>
<trkpt lat="46.22537" lon="7.26222"><ele>729.2</ele><time>2021-05-23T14:14:53Z</time></trkpt>
<trkpt lat="46.2255" lon="7.2624"><ele>731.2</ele><time>2021-05-23T14:15:08Z</time></trkpt>
<trkpt lat="46.22563" lon="7.2626"><ele>733</ele><time>2021-05-23T14:15:23Z</time></trkpt>
<trkpt lat="46.22576" lon="7.2628"><ele>735.2</ele><time>2021-05-23T14:15:38Z</time></trkpt>
<trkpt lat="46.22591" lon="7.26295"><ele>737.2</ele><time>2021-05-23T14:15:54Z</time></trkpt>
<trkpt lat="46.22608" lon="7.263"><ele>738.8</ele><time>2021-05-23T14:16:07Z</time></trkpt>
<trkpt lat="46.22631" lon="7.26313"><ele>742.4</ele><time>2021-05-23T14:16:24Z</time></trkpt>
<trkpt lat="46.22643" lon="7.26332"><ele>743.8</ele><time>2021-05-23T14:16:38Z</time></trkpt>
<trkpt lat="46.22651" lon="7.26355"><ele>744.6</ele><time>2021-05-23T14:16:54Z</time></trkpt>
<trkpt lat="46.22652" lon="7.26356"><ele>744.8</ele><time>2021-05-23T14:16:55Z</time></trkpt>
<trkpt lat="46.22659" lon="7.26361"><ele>745.4</ele><time>2021-05-23T14:17:01Z</time></trkpt>
<trkpt lat="46.22663" lon="7.26364"><ele>745.8</ele><time>2021-05-23T14:17:05Z</time></trkpt>
<trkpt lat="46.22673" lon="7.26367"><ele>747.4</ele><time>2021-05-23T14:17:15Z</time></trkpt>
<trkpt lat="46.22676" lon="7.26367"><ele>747.6</ele><time>2021-05-23T14:17:18Z</time></trkpt>
<trkpt lat="46.22694" lon="7.26373"><ele>750</ele><time>2021-05-23T14:17:33Z</time></trkpt>
<trkpt lat="46.227" lon="7.26376"><ele>750.8</ele><time>2021-05-23T14:17:38Z</time></trkpt>
<trkpt lat="46.22708" lon="7.26379"><ele>752.4</ele><time>2021-05-23T14:17:46Z</time></trkpt>
<trkpt lat="46.22726" lon="7.26387"><ele>755.8</ele><time>2021-05-23T14:18:05Z</time></trkpt>
<trkpt lat="46.22736" lon="7.2639"><ele>758.4</ele><time>2021-05-23T14:18:16Z</time></trkpt>
<trkpt lat="46.22742" lon="7.26395"><ele>759.8</ele><time>2021-05-23T14:18:23Z</time></trkpt>
<trkpt lat="46.22743" lon="7.26396"><ele>760</ele><time>2021-05-23T14:18:24Z</time></trkpt>
<trkpt lat="46.22749" lon="7.264"><ele>762.2</ele><time>2021-05-23T14:18:32Z</time></trkpt>
<trkpt lat="46.22753" lon="7.26401"><ele>763.2</ele><time>2021-05-23T14:18:36Z</time></trkpt>
<trkpt lat="46.22768" lon="7.26409"><ele>767.6</ele><time>2021-05-23T14:18:55Z</time></trkpt>
<trkpt lat="46.22769" lon="7.2641"><ele>768</ele><time>2021-05-23T14:18:56Z</time></trkpt>
<trkpt lat="46.22785" lon="7.26423"><ele>773.4</ele><time>2021-05-23T14:19:18Z</time></trkpt>
<trkpt lat="46.22794" lon="7.26447"><ele>777</ele><time>2021-05-23T14:19:41Z</time></trkpt>
<trkpt lat="46.22801" lon="7.26478"><ele>782.4</ele><time>2021-05-23T14:20:07Z</time></trkpt>
<trkpt lat="46.22807" lon="7.26498"><ele>785.6</ele><time>2021-05-23T14:20:24Z</time></trkpt>
<trkpt lat="46.22811" lon="7.26512"><ele>787.8</ele><time>2021-05-23T14:20:36Z</time></trkpt>
<trkpt lat="46.22816" lon="7.26537"><ele>791.6</ele><time>2021-05-23T14:20:56Z</time></trkpt>
<trkpt lat="46.22817" lon="7.26547"><ele>792.8</ele><time>2021-05-23T14:21:04Z</time></trkpt>
<trkpt lat="46.22819" lon="7.2655"><ele>793.6</ele><time>2021-05-23T14:21:07Z</time></trkpt>
<trkpt lat="46.22832" lon="7.26561"><ele>798</ele><time>2021-05-23T14:21:25Z</time></trkpt>
<trkpt lat="46.22836" lon="7.26573"><ele>799.2</ele><time>2021-05-23T14:21:36Z</time></trkpt>
<trkpt lat="46.22836" lon="7.26575"><ele>799.2</ele><time>2021-05-23T14:21:37Z</time></trkpt>
<trkpt lat="46.22843" lon="7.26597"><ele>800.6</ele><time>2021-05-23T14:21:57Z</time></trkpt>
<trkpt lat="46.22847" lon="7.266"><ele>801.2</ele><time>2021-05-23T14:22:02Z</time></trkpt>
<trkpt lat="46.22858" lon="7.26602"><ele>801.6</ele><time>2021-05-23T14:22:15Z</time></trkpt>
<trkpt lat="46.22875" lon="7.26606"><ele>802.6</ele><time>2021-05-23T14:22:35Z</time></trkpt>
<trkpt lat="46.22882" lon="7.26607"><ele>803.4</ele><time>2021-05-23T14:22:42Z</time></trkpt>
<trkpt lat="46.22885" lon="7.26607"><ele>803.8</ele><time>2021-05-23T14:22:46Z</time></trkpt>
<trkpt lat="46.22886" lon="7.26606"><ele>804</ele><time>2021-05-23T14:22:47Z</time></trkpt>
<trkpt lat="46.22895" lon="7.26627"><ele>806.4</ele><time>2021-05-23T14:23:04Z</time></trkpt>
<trkpt lat="46.22896" lon="7.2663"><ele>806.6</ele><time>2021-05-23T14:23:06Z</time></trkpt>
<trkpt lat="46.22895" lon="7.26656"><ele>808.6</ele><time>2021-05-23T14:23:22Z</time></trkpt>
<trkpt lat="46.22901" lon="7.26677"><ele>811.2</ele><time>2021-05-23T14:23:38Z</time></trkpt>
<trkpt lat="46.22918" lon="7.26656"><ele>815.4</ele><time>2021-05-23T14:23:59Z</time></trkpt>
<trkpt lat="46.22921" lon="7.26651"><ele>816.4</ele><time>2021-05-23T14:24:03Z</time></trkpt>
<trkpt lat="46.22923" lon="7.26646"><ele>817.6</ele><time>2021-05-23T14:24:07Z</time></trkpt>
<trkpt lat="46.22925" lon="7.26641"><ele>818.6</ele><time>2021-05-23T14:24:11Z</time></trkpt>
<trkpt lat="46.22926" lon="7.26622"><ele>820.6</ele><time>2021-05-23T14:24:22Z</time></trkpt>
<trkpt lat="46.22934" lon="7.26623"><ele>821.6</ele><time>2021-05-23T14:24:29Z</time></trkpt>
<trkpt lat="46.22946" lon="7.26646"><ele>823.8</ele><time>2021-05-23T14:24:46Z</time></trkpt>
<trkpt lat="46.22947" lon="7.26648"><ele>824.2</ele><time>2021-05-23T14:24:48Z</time></trkpt>
<trkpt lat="46.2296" lon="7.26666"><ele>827.8</ele><time>2021-05-23T14:25:06Z</time></trkpt>
<trkpt lat="46.22963" lon="7.26671"><ele>828.8</ele><time>2021-05-23T14:25:10Z</time></trkpt>
<trkpt lat="46.22964" lon="7.26672"><ele>829.2</ele><time>2021-05-23T14:25:12Z</time></trkpt>
<trkpt lat="46.22966" lon="7.26675"><ele>829.8</ele><time>2021-05-23T14:25:15Z</time></trkpt>
<trkpt lat="46.22972" lon="7.26679"><ele>830.8</ele><time>2021-05-23T14:25:21Z</time></trkpt>
<trkpt lat="46.22975" lon="7.26674"><ele>831.6</ele><time>2021-05-23T14:25:27Z</time></trkpt>
<trkpt lat="46.22977" lon="7.26668"><ele>832</ele><time>2021-05-23T14:25:31Z</time></trkpt>
<trkpt lat="46.22976" lon="7.26647"><ele>833</ele><time>2021-05-23T14:25:44Z</time></trkpt>
<trkpt lat="46.22982" lon="7.26627"><ele>833.2</ele><time>2021-05-23T14:25:59Z</time></trkpt>
<trkpt lat="46.22993" lon="7.26646"><ele>830.8</ele><time>2021-05-23T14:26:14Z</time></trkpt>
<trkpt lat="46.23009" lon="7.26659"><ele>832.8</ele><time>2021-05-23T14:26:30Z</time></trkpt>
<trkpt lat="46.23029" lon="7.26673"><ele>836.4</ele><time>2021-05-23T14:26:50Z</time></trkpt>
<trkpt lat="46.23034" lon="7.26679"><ele>837.8</ele><time>2021-05-23T14:26:56Z</time></trkpt>
<trkpt lat="46.23038" lon="7.26683"><ele>838.6</ele><time>2021-05-23T14:27:00Z</time></trkpt>
<trkpt lat="46.23043" lon="7.26688"><ele>840.2</ele><time>2021-05-23T14:27:05Z</time></trkpt>
<trkpt lat="46.23051" lon="7.26712"><ele>844.8</ele><time>2021-05-23T14:27:21Z</time></trkpt>
<trkpt lat="46.2306" lon="7.26736"><ele>848.4</ele><time>2021-05-23T14:27:36Z</time></trkpt>
<trkpt lat="46.23067" lon="7.26761"><ele>850.6</ele><time>2021-05-23T14:27:52Z</time></trkpt>
<trkpt lat="46.23076" lon="7.26783"><ele>850.6</ele><time>2021-05-23T14:28:08Z</time></trkpt>
<trkpt lat="46.23085" lon="7.26807"><ele>849</ele><time>2021-05-23T14:28:25Z</time></trkpt>
<trkpt lat="46.23094" lon="7.2683"><ele>849</ele><time>2021-05-23T14:28:42Z</time></trkpt>
<trkpt lat="46.23102" lon="7.26853"><ele>850</ele><time>2021-05-23T14:28:59Z</time></trkpt>
<trkpt lat="46.23107" lon="7.26866"><ele>850.4</ele><time>2021-05-23T14:29:08Z</time></trkpt>
<trkpt lat="46.2311" lon="7.26871"><ele>851</ele><time>2021-05-23T14:29:12Z</time></trkpt>
<trkpt lat="46.23122" lon="7.26888"><ele>852.6</ele><time>2021-05-23T14:29:27Z</time></trkpt>
<trkpt lat="46.23136" lon="7.26907"><ele>854.4</ele><time>2021-05-23T14:29:44Z</time></trkpt>
<trkpt lat="46.23149" lon="7.26924"><ele>858.8</ele><time>2021-05-23T14:29:59Z</time></trkpt>
<trkpt lat="46.23156" lon="7.26922"><ele>860.2</ele><time>2021-05-23T14:30:06Z</time></trkpt>
<trkpt lat="46.23158" lon="7.26907"><ele>862.6</ele><time>2021-05-23T14:30:16Z</time></trkpt>
<trkpt lat="46.23161" lon="7.26884"><ele>865.2</ele><time>2021-05-23T14:30:31Z</time></trkpt>
<trkpt lat="46.23162" lon="7.2687"><ele>866.2</ele><time>2021-05-23T14:30:40Z</time></trkpt>
<trkpt lat="46.23163" lon="7.26863"><ele>867</ele><time>2021-05-23T14:30:45Z</time></trkpt>
<trkpt lat="46.23164" lon="7.26857"><ele>867.4</ele><time>2021-05-23T14:30:49Z</time></trkpt>
<trkpt lat="46.23165" lon="7.26845"><ele>868.2</ele><time>2021-05-23T14:30:57Z</time></trkpt>
<trkpt lat="46.23164" lon="7.26829"><ele>869.8</ele><time>2021-05-23T14:31:08Z</time></trkpt>
<trkpt lat="46.23165" lon="7.26801"><ele>872.4</ele><time>2021-05-23T14:31:25Z</time></trkpt>
<trkpt lat="46.23165" lon="7.26792"><ele>873.4</ele><time>2021-05-23T14:31:31Z</time></trkpt>
<trkpt lat="46.23163" lon="7.26765"><ele>875.6</ele><time>2021-05-23T14:31:48Z</time></trkpt>
<trkpt lat="46.23157" lon="7.26733"><ele>876.8</ele><time>2021-05-23T14:32:10Z</time></trkpt>
<trkpt lat="46.23149" lon="7.26708"><ele>877.8</ele><time>2021-05-23T14:32:28Z</time></trkpt>
<trkpt lat="46.23148" lon="7.26682"><ele>880</ele><time>2021-05-23T14:32:45Z</time></trkpt>
<trkpt lat="46.23148" lon="7.26672"><ele>880.8</ele><time>2021-05-23T14:32:51Z</time></trkpt>
<trkpt lat="46.23148" lon="7.2667"><ele>881</ele><time>2021-05-23T14:32:53Z</time></trkpt>
<trkpt lat="46.23148" lon="7.2666"><ele>881.6</ele><time>2021-05-23T14:32:59Z</time></trkpt>
<trkpt lat="46.23147" lon="7.26651"><ele>882.2</ele><time>2021-05-23T14:33:05Z</time></trkpt>
<trkpt lat="46.23147" lon="7.26645"><ele>882.6</ele><time>2021-05-23T14:33:09Z</time></trkpt>
<trkpt lat="46.23145" lon="7.26628"><ele>884</ele><time>2021-05-23T14:33:20Z</time></trkpt>
<trkpt lat="46.23141" lon="7.26609"><ele>885.6</ele><time>2021-05-23T14:33:33Z</time></trkpt>
<trkpt lat="46.23139" lon="7.26596"><ele>886.6</ele><time>2021-05-23T14:33:42Z</time></trkpt>
<trkpt lat="46.23139" lon="7.26594"><ele>886.8</ele><time>2021-05-23T14:33:43Z</time></trkpt>
<trkpt lat="46.23147" lon="7.26601"><ele>887.6</ele><time>2021-05-23T14:33:52Z</time></trkpt>
<trkpt lat="46.23158" lon="7.26623"><ele>889</ele><time>2021-05-23T14:34:08Z</time></trkpt>
<trkpt lat="46.23172" lon="7.26642"><ele>890.4</ele><time>2021-05-23T14:34:24Z</time></trkpt>
<trkpt lat="46.23185" lon="7.26655"><ele>892</ele><time>2021-05-23T14:34:38Z</time></trkpt>
<trkpt lat="46.23198" lon="7.26674"><ele>893.2</ele><time>2021-05-23T14:34:55Z</time></trkpt>
<trkpt lat="46.23207" lon="7.26688"><ele>894</ele><time>2021-05-23T14:35:07Z</time></trkpt>
<trkpt lat="46.23219" lon="7.26708"><ele>896.8</ele><time>2021-05-23T14:35:24Z</time></trkpt>
<trkpt lat="46.23222" lon="7.26712"><ele>897.6</ele><time>2021-05-23T14:35:28Z</time></trkpt>
<trkpt lat="46.23226" lon="7.26714"><ele>898.6</ele><time>2021-05-23T14:35:32Z</time></trkpt>
<trkpt lat="46.23241" lon="7.26728"><ele>902.4</ele><time>2021-05-23T14:35:50Z</time></trkpt>
<trkpt lat="46.2325" lon="7.26735"><ele>904.4</ele><time>2021-05-23T14:36:00Z</time></trkpt>
<trkpt lat="46.23264" lon="7.26747"><ele>904.6</ele><time>2021-05-23T14:36:16Z</time></trkpt>
<trkpt lat="46.23268" lon="7.2675"><ele>904.4</ele><time>2021-05-23T14:36:20Z</time></trkpt>
<trkpt lat="46.23275" lon="7.26753"><ele>904.6</ele><time>2021-05-23T14:36:28Z</time></trkpt>
<trkpt lat="46.23282" lon="7.2676"><ele>904.8</ele><time>2021-05-23T14:36:36Z</time></trkpt>
<trkpt lat="46.23296" lon="7.26777"><ele>906.8</ele><time>2021-05-23T14:36:55Z</time></trkpt>
<trkpt lat="46.23309" lon="7.26794"><ele>908.4</ele><time>2021-05-23T14:37:13Z</time></trkpt>
<trkpt lat="46.23321" lon="7.26811"><ele>910.2</ele><time>2021-05-23T14:37:29Z</time></trkpt>
<trkpt lat="46.23336" lon="7.26834"><ele>912</ele><time>2021-05-23T14:37:50Z</time></trkpt>
<trkpt lat="46.23348" lon="7.26855"><ele>913.6</ele><time>2021-05-23T14:38:08Z</time></trkpt>
<trkpt lat="46.23356" lon="7.26867"><ele>914.2</ele><time>2021-05-23T14:38:18Z</time></trkpt>
<trkpt lat="46.23359" lon="7.26871"><ele>914.4</ele><time>2021-05-23T14:38:22Z</time></trkpt>
<trkpt lat="46.23361" lon="7.26874"><ele>914.4</ele><time>2021-05-23T14:38:24Z</time></trkpt>
<trkpt lat="46.23365" lon="7.26879"><ele>914.6</ele><time>2021-05-23T14:38:29Z</time></trkpt>
<trkpt lat="46.23373" lon="7.26888"><ele>915.4</ele><time>2021-05-23T14:38:38Z</time></trkpt>
<trkpt lat="46.23377" lon="7.26893"><ele>915.4</ele><time>2021-05-23T14:38:43Z</time></trkpt>
<trkpt lat="46.23383" lon="7.26902"><ele>915.4</ele><time>2021-05-23T14:38:51Z</time></trkpt>
<trkpt lat="46.23387" lon="7.26907"><ele>915.2</ele><time>2021-05-23T14:38:55Z</time></trkpt>
<trkpt lat="46.23396" lon="7.26912"><ele>915.6</ele><time>2021-05-23T14:39:03Z</time></trkpt>
<trkpt lat="46.23405" lon="7.2692"><ele>916</ele><time>2021-05-23T14:39:11Z</time></trkpt>
<trkpt lat="46.23421" lon="7.26935"><ele>916.8</ele><time>2021-05-23T14:39:26Z</time></trkpt>
<trkpt lat="46.23428" lon="7.26943"><ele>917.4</ele><time>2021-05-23T14:39:34Z</time></trkpt>
<trkpt lat="46.23449" lon="7.26956"><ele>920.6</ele><time>2021-05-23T14:39:54Z</time></trkpt>
<trkpt lat="46.23466" lon="7.26964"><ele>922.2</ele><time>2021-05-23T14:40:09Z</time></trkpt>
<trkpt lat="46.23484" lon="7.26972"><ele>924.6</ele><time>2021-05-23T14:40:24Z</time></trkpt>
<trkpt lat="46.23501" lon="7.2698"><ele>925.8</ele><time>2021-05-23T14:40:38Z</time></trkpt>
<trkpt lat="46.23513" lon="7.26986"><ele>927</ele><time>2021-05-23T14:40:48Z</time></trkpt>
<trkpt lat="46.2353" lon="7.26996"><ele>929.2</ele><time>2021-05-23T14:41:03Z</time></trkpt>
<trkpt lat="46.23531" lon="7.26996"><ele>929.4</ele><time>2021-05-23T14:41:04Z</time></trkpt>
<trkpt lat="46.23551" lon="7.27014"><ele>932.8</ele><time>2021-05-23T14:41:23Z</time></trkpt>
<trkpt lat="46.23559" lon="7.27021"><ele>934.4</ele><time>2021-05-23T14:41:30Z</time></trkpt>
<trkpt lat="46.23564" lon="7.27024"><ele>935.2</ele><time>2021-05-23T14:41:34Z</time></trkpt>
<trkpt lat="46.23581" lon="7.27037"><ele>938.2</ele><time>2021-05-23T14:41:48Z</time></trkpt>
<trkpt lat="46.23595" lon="7.27054"><ele>940.4</ele><time>2021-05-23T14:42:01Z</time></trkpt>
<trkpt lat="46.23606" lon="7.27075"><ele>942.6</ele><time>2021-05-23T14:42:14Z</time></trkpt>
<trkpt lat="46.23613" lon="7.27092"><ele>944.2</ele><time>2021-05-23T14:42:24Z</time></trkpt>
<trkpt lat="46.23625" lon="7.27113"><ele>947</ele><time>2021-05-23T14:42:39Z</time></trkpt>
<trkpt lat="46.23631" lon="7.27121"><ele>948.6</ele><time>2021-05-23T14:42:46Z</time></trkpt>
<trkpt lat="46.23639" lon="7.27134"><ele>951</ele><time>2021-05-23T14:42:58Z</time></trkpt>
<trkpt lat="46.23645" lon="7.27136"><ele>953.4</ele><time>2021-05-23T14:43:09Z</time></trkpt>
<trkpt lat="46.23658" lon="7.27116"><ele>957.2</ele><time>2021-05-23T14:43:27Z</time></trkpt>
<trkpt lat="46.23664" lon="7.27108"><ele>959.8</ele><time>2021-05-23T14:43:37Z</time></trkpt>
<trkpt lat="46.23667" lon="7.27106"><ele>960.6</ele><time>2021-05-23T14:43:53Z</time></trkpt>
<trkpt lat="46.23667" lon="7.27105"><ele>961</ele><time>2021-05-23T14:44:01Z</time></trkpt>
<trkpt lat="46.23667" lon="7.27104"><ele>961</ele><time>2021-05-23T14:44:03Z</time></trkpt>
<trkpt lat="46.23666" lon="7.27104"><ele>960.2</ele><time>2021-05-23T14:44:08Z</time></trkpt>
<trkpt lat="46.23672" lon="7.27094"><ele>959.6</ele><time>2021-05-23T14:44:19Z</time></trkpt>
<trkpt lat="46.23682" lon="7.27094"><ele>959.6</ele><time>2021-05-23T14:44:28Z</time></trkpt>
<trkpt lat="46.23684" lon="7.27091"><ele>959.6</ele><time>2021-05-23T14:44:31Z</time></trkpt>
<trkpt lat="46.23688" lon="7.27086"><ele>959.8</ele><time>2021-05-23T14:44:36Z</time></trkpt>
<trkpt lat="46.2369" lon="7.2708"><ele>960.2</ele><time>2021-05-23T14:44:40Z</time></trkpt>
<trkpt lat="46.23692" lon="7.27071"><ele>960.8</ele><time>2021-05-23T14:44:46Z</time></trkpt>
<trkpt lat="46.23687" lon="7.27045"><ele>961.2</ele><time>2021-05-23T14:45:05Z</time></trkpt>
<trkpt lat="46.23678" lon="7.27021"><ele>962.6</ele><time>2021-05-23T14:45:23Z</time></trkpt>
<trkpt lat="46.23668" lon="7.26997"><ele>965.4</ele><time>2021-05-23T14:45:42Z</time></trkpt>
<trkpt lat="46.23654" lon="7.26972"><ele>966.8</ele><time>2021-05-23T14:46:05Z</time></trkpt>
<trkpt lat="46.23641" lon="7.26952"><ele>965.8</ele><time>2021-05-23T14:46:25Z</time></trkpt>
<trkpt lat="46.23629" lon="7.26932"><ele>966.8</ele><time>2021-05-23T14:46:43Z</time></trkpt>
<trkpt lat="46.23619" lon="7.26917"><ele>967.8</ele><time>2021-05-23T14:46:58Z</time></trkpt>
<trkpt lat="46.23607" lon="7.26896"><ele>970.2</ele><time>2021-05-23T14:47:16Z</time></trkpt>
<trkpt lat="46.23601" lon="7.26885"><ele>971.8</ele><time>2021-05-23T14:47:26Z</time></trkpt>
<trkpt lat="46.2359" lon="7.2687"><ele>974</ele><time>2021-05-23T14:47:40Z</time></trkpt>
<trkpt lat="46.23586" lon="7.2686"><ele>975</ele><time>2021-05-23T14:47:49Z</time></trkpt>
<trkpt lat="46.23584" lon="7.26857"><ele>975</ele><time>2021-05-23T14:47:52Z</time></trkpt>
<trkpt lat="46.23581" lon="7.26852"><ele>975.6</ele><time>2021-05-23T14:47:57Z</time></trkpt>
<trkpt lat="46.23578" lon="7.26841"><ele>976.8</ele><time>2021-05-23T14:48:06Z</time></trkpt>
<trkpt lat="46.23572" lon="7.26819"><ele>979</ele><time>2021-05-23T14:48:22Z</time></trkpt>
<trkpt lat="46.23569" lon="7.26809"><ele>979.8</ele><time>2021-05-23T14:48:31Z</time></trkpt>
<trkpt lat="46.23565" lon="7.26801"><ele>981</ele><time>2021-05-23T14:48:39Z</time></trkpt>
<trkpt lat="46.23563" lon="7.26795"><ele>981.8</ele><time>2021-05-23T14:48:44Z</time></trkpt>
<trkpt lat="46.23562" lon="7.26793"><ele>982</ele><time>2021-05-23T14:48:46Z</time></trkpt>
<trkpt lat="46.23559" lon="7.26786"><ele>982.8</ele><time>2021-05-23T14:48:52Z</time></trkpt>
<trkpt lat="46.23557" lon="7.26781"><ele>983.4</ele><time>2021-05-23T14:48:57Z</time></trkpt>
<trkpt lat="46.23554" lon="7.26774"><ele>984.6</ele><time>2021-05-23T14:49:04Z</time></trkpt>
<trkpt lat="46.23549" lon="7.26762"><ele>986</ele><time>2021-05-23T14:49:16Z</time></trkpt>
<trkpt lat="46.23548" lon="7.26759"><ele>986.4</ele><time>2021-05-23T14:49:19Z</time></trkpt>
<trkpt lat="46.23537" lon="7.26737"><ele>988.4</ele><time>2021-05-23T14:49:36Z</time></trkpt>
<trkpt lat="46.23528" lon="7.26714"><ele>991.2</ele><time>2021-05-23T14:49:53Z</time></trkpt>
<trkpt lat="46.23517" lon="7.26692"><ele>993.6</ele><time>2021-05-23T14:50:11Z</time></trkpt>
<trkpt lat="46.23507" lon="7.26677"><ele>995</ele><time>2021-05-23T14:50:25Z</time></trkpt>
<trkpt lat="46.23504" lon="7.26673"><ele>995.4</ele><time>2021-05-23T14:50:30Z</time></trkpt>
<trkpt lat="46.23496" lon="7.26659"><ele>996.8</ele><time>2021-05-23T14:50:43Z</time></trkpt>
<trkpt lat="46.23489" lon="7.26651"><ele>998</ele><time>2021-05-23T14:50:52Z</time></trkpt>
<trkpt lat="46.23485" lon="7.26644"><ele>998.8</ele><time>2021-05-23T14:50:59Z</time></trkpt>
<trkpt lat="46.23475" lon="7.26628"><ele>1001</ele><time>2021-05-23T14:51:15Z</time></trkpt>
<trkpt lat="46.23464" lon="7.26606"><ele>1004</ele><time>2021-05-23T14:51:34Z</time></trkpt>
<trkpt lat="46.23454" lon="7.26583"><ele>1007.8</ele><time>2021-05-23T14:51:53Z</time></trkpt>
<trkpt lat="46.23447" lon="7.26559"><ele>1012</ele><time>2021-05-23T14:52:13Z</time></trkpt>
<trkpt lat="46.2344" lon="7.26535"><ele>1014.6</ele><time>2021-05-23T14:52:30Z</time></trkpt>
<trkpt lat="46.23428" lon="7.26506"><ele>1016.8</ele><time>2021-05-23T14:52:51Z</time></trkpt>
<trkpt lat="46.23419" lon="7.26488"><ele>1019.4</ele><time>2021-05-23T14:53:06Z</time></trkpt>
<trkpt lat="46.23415" lon="7.26481"><ele>1020.2</ele><time>2021-05-23T14:53:11Z</time></trkpt>
<trkpt lat="46.23403" lon="7.26462"><ele>1023</ele><time>2021-05-23T14:53:28Z</time></trkpt>
<trkpt lat="46.2339" lon="7.26443"><ele>1023.6</ele><time>2021-05-23T14:53:46Z</time></trkpt>
<trkpt lat="46.23387" lon="7.26437"><ele>1024</ele><time>2021-05-23T14:53:52Z</time></trkpt>
<trkpt lat="46.23376" lon="7.26423"><ele>1025</ele><time>2021-05-23T14:54:08Z</time></trkpt>
<trkpt lat="46.23373" lon="7.26419"><ele>1025.4</ele><time>2021-05-23T14:54:12Z</time></trkpt>
<trkpt lat="46.23368" lon="7.26413"><ele>1026</ele><time>2021-05-23T14:54:19Z</time></trkpt>
<trkpt lat="46.23356" lon="7.26402"><ele>1029</ele><time>2021-05-23T14:54:35Z</time></trkpt>
<trkpt lat="46.23351" lon="7.26396"><ele>1030.4</ele><time>2021-05-23T14:54:42Z</time></trkpt>
<trkpt lat="46.23334" lon="7.26383"><ele>1033.8</ele><time>2021-05-23T14:55:01Z</time></trkpt>
<trkpt lat="46.23331" lon="7.26379"><ele>1034.4</ele><time>2021-05-23T14:55:05Z</time></trkpt>
<trkpt lat="46.23323" lon="7.26375"><ele>1035.6</ele><time>2021-05-23T14:55:12Z</time></trkpt>
<trkpt lat="46.23315" lon="7.26368"><ele>1036.8</ele><time>2021-05-23T14:55:21Z</time></trkpt>
<trkpt lat="46.23302" lon="7.26353"><ele>1036.8</ele><time>2021-05-23T14:55:35Z</time></trkpt>
<trkpt lat="46.2329" lon="7.26332"><ele>1037.6</ele><time>2021-05-23T14:55:53Z</time></trkpt>
<trkpt lat="46.23284" lon="7.26321"><ele>1039</ele><time>2021-05-23T14:56:02Z</time></trkpt>
<trkpt lat="46.23275" lon="7.26304"><ele>1041.2</ele><time>2021-05-23T14:56:17Z</time></trkpt>
<trkpt lat="46.23274" lon="7.26303"><ele>1041.2</ele><time>2021-05-23T14:56:18Z</time></trkpt>
<trkpt lat="46.23261" lon="7.26277"><ele>1043.8</ele><time>2021-05-23T14:56:40Z</time></trkpt>
<trkpt lat="46.23247" lon="7.2626"><ele>1046</ele><time>2021-05-23T14:56:59Z</time></trkpt>
<trkpt lat="46.23245" lon="7.26259"><ele>1046.4</ele><time>2021-05-23T14:57:01Z</time></trkpt>
<trkpt lat="46.2324" lon="7.26254"><ele>1046.8</ele><time>2021-05-23T14:57:07Z</time></trkpt>
<trkpt lat="46.23236" lon="7.26248"><ele>1047.6</ele><time>2021-05-23T14:57:13Z</time></trkpt>
<trkpt lat="46.23218" lon="7.26228"><ele>1049.6</ele><time>2021-05-23T14:57:33Z</time></trkpt>
<trkpt lat="46.23205" lon="7.26211"><ele>1051.8</ele><time>2021-05-23T14:57:51Z</time></trkpt>
<trkpt lat="46.23194" lon="7.26189"><ele>1054.6</ele><time>2021-05-23T14:58:09Z</time></trkpt>
<trkpt lat="46.23184" lon="7.26168"><ele>1057.6</ele><time>2021-05-23T14:58:28Z</time></trkpt>
<trkpt lat="46.23171" lon="7.26142"><ele>1060</ele><time>2021-05-23T14:58:51Z</time></trkpt>
<trkpt lat="46.23167" lon="7.26136"><ele>1060.8</ele><time>2021-05-23T14:58:57Z</time></trkpt>
<trkpt lat="46.23163" lon="7.26129"><ele>1061.8</ele><time>2021-05-23T14:59:04Z</time></trkpt>
<trkpt lat="46.23158" lon="7.26119"><ele>1063</ele><time>2021-05-23T14:59:13Z</time></trkpt>
<trkpt lat="46.23147" lon="7.26098"><ele>1065.8</ele><time>2021-05-23T14:59:33Z</time></trkpt>
<trkpt lat="46.2314" lon="7.26086"><ele>1067.8</ele><time>2021-05-23T14:59:44Z</time></trkpt>
<trkpt lat="46.23137" lon="7.26082"><ele>1068.4</ele><time>2021-05-23T14:59:48Z</time></trkpt>
<trkpt lat="46.23125" lon="7.26066"><ele>1070.4</ele><time>2021-05-23T15:00:06Z</time></trkpt>
<trkpt lat="46.2312" lon="7.26042"><ele>1072</ele><time>2021-05-23T15:00:22Z</time></trkpt>
<trkpt lat="46.23112" lon="7.26019"><ele>1074.8</ele><time>2021-05-23T15:00:38Z</time></trkpt>
<trkpt lat="46.23104" lon="7.25994"><ele>1077.8</ele><time>2021-05-23T15:00:54Z</time></trkpt>
<trkpt lat="46.23099" lon="7.25968"><ele>1081.6</ele><time>2021-05-23T15:01:10Z</time></trkpt>
<trkpt lat="46.23096" lon="7.25943"><ele>1084</ele><time>2021-05-23T15:01:24Z</time></trkpt>
<trkpt lat="46.23098" lon="7.25917"><ele>1087</ele><time>2021-05-23T15:01:38Z</time></trkpt>
<trkpt lat="46.23107" lon="7.25914"><ele>1089</ele><time>2021-05-23T15:01:46Z</time></trkpt>
<trkpt lat="46.23113" lon="7.25927"><ele>1091</ele><time>2021-05-23T15:01:55Z</time></trkpt>
<trkpt lat="46.23114" lon="7.25929"><ele>1091.6</ele><time>2021-05-23T15:01:58Z</time></trkpt>
<trkpt lat="46.23115" lon="7.25929"><ele>1091.2</ele><time>2021-05-23T15:02:19Z</time></trkpt>
<trkpt lat="46.23116" lon="7.25926"><ele>1090.4</ele><time>2021-05-23T15:02:44Z</time></trkpt>
<trkpt lat="46.23116" lon="7.25924"><ele>1089.8</ele><time>2021-05-23T15:02:58Z</time></trkpt>
<trkpt lat="46.23114" lon="7.25922"><ele>1089.8</ele><time>2021-05-23T15:03:14Z</time></trkpt>
<trkpt lat="46.23114" lon="7.25923"><ele>1088.8</ele><time>2021-05-23T15:03:31Z</time></trkpt>
<trkpt lat="46.2311" lon="7.25927"><ele>1088.4</ele><time>2021-05-23T15:03:40Z</time></trkpt>
<trkpt lat="46.23112" lon="7.25929"><ele>1086.4</ele><time>2021-05-23T15:04:05Z</time></trkpt>
<trkpt lat="46.23113" lon="7.25925"><ele>1084.6</ele><time>2021-05-23T15:04:49Z</time></trkpt>
<trkpt lat="46.23111" lon="7.25928"><ele>1084.6</ele><time>2021-05-23T15:05:04Z</time></trkpt>
<trkpt lat="46.23115" lon="7.25924"><ele>1084.6</ele><time>2021-05-23T15:05:18Z</time></trkpt>
<trkpt lat="46.23115" lon="7.25924"><ele>1084</ele><time>2021-05-23T15:05:33Z</time></trkpt>
<trkpt lat="46.23113" lon="7.25923"><ele>1084.2</ele><time>2021-05-23T15:05:48Z</time></trkpt>
<trkpt lat="46.23115" lon="7.25924"><ele>1083.8</ele><time>2021-05-23T15:06:23Z</time></trkpt>
<trkpt lat="46.23114" lon="7.25923"><ele>1083.8</ele><time>2021-05-23T15:06:32Z</time></trkpt>
<trkpt lat="46.23113" lon="7.25922"><ele>1084</ele><time>2021-05-23T15:06:38Z</time></trkpt>
<trkpt lat="46.23119" lon="7.25911"><ele>1083.8</ele><time>2021-05-23T15:06:48Z</time></trkpt>
<trkpt lat="46.23123" lon="7.2591"><ele>1084.2</ele><time>2021-05-23T15:06:52Z</time></trkpt>
<trkpt lat="46.23127" lon="7.2591"><ele>1084.6</ele><time>2021-05-23T15:06:55Z</time></trkpt>
<trkpt lat="46.23135" lon="7.25911"><ele>1086.2</ele><time>2021-05-23T15:07:02Z</time></trkpt>
<trkpt lat="46.23152" lon="7.25908"><ele>1091</ele><time>2021-05-23T15:07:16Z</time></trkpt>
<trkpt lat="46.23159" lon="7.25902"><ele>1091.4</ele><time>2021-05-23T15:07:23Z</time></trkpt>
<trkpt lat="46.23168" lon="7.25894"><ele>1091.8</ele><time>2021-05-23T15:07:31Z</time></trkpt>
<trkpt lat="46.23171" lon="7.25895"><ele>1092.8</ele><time>2021-05-23T15:07:35Z</time></trkpt>
<trkpt lat="46.2317" lon="7.25894"><ele>1093.2</ele><time>2021-05-23T15:07:44Z</time></trkpt>
<trkpt lat="46.2317" lon="7.25894"><ele>1092.6</ele><time>2021-05-23T15:07:48Z</time></trkpt>
<trkpt lat="46.2317" lon="7.25894"><ele>1092.6</ele><time>2021-05-23T15:07:51Z</time></trkpt>
<trkpt lat="46.2317" lon="7.25894"><ele>1092.6</ele><time>2021-05-23T15:07:53Z</time></trkpt>
<trkpt lat="46.23169" lon="7.25895"><ele>1092.4</ele><time>2021-05-23T15:08:04Z</time></trkpt>
<trkpt lat="46.23169" lon="7.25895"><ele>1092.8</ele><time>2021-05-23T15:08:06Z</time></trkpt>
<trkpt lat="46.23169" lon="7.25896"><ele>1093.2</ele><time>2021-05-23T15:08:07Z</time></trkpt>
<trkpt lat="46.23169" lon="7.25896"><ele>1093.4</ele><time>2021-05-23T15:08:08Z</time></trkpt>
<trkpt lat="46.23169" lon="7.25895"><ele>1094</ele><time>2021-05-23T15:08:18Z</time></trkpt>
<trkpt lat="46.23169" lon="7.25895"><ele>1093.8</ele><time>2021-05-23T15:08:23Z</time></trkpt>
<trkpt lat="46.23169" lon="7.25895"><ele>1094</ele><time>2021-05-23T15:08:25Z</time></trkpt>
<trkpt lat="46.2317" lon="7.25896"><ele>1094.6</ele><time>2021-05-23T15:08:43Z</time></trkpt>
<trkpt lat="46.23182" lon="7.25901"><ele>1094.8</ele><time>2021-05-23T15:08:52Z</time></trkpt>
<trkpt lat="46.23201" lon="7.25903"><ele>1097.2</ele><time>2021-05-23T15:09:07Z</time></trkpt>
<trkpt lat="46.23205" lon="7.25902"><ele>1098.2</ele><time>2021-05-23T15:09:11Z</time></trkpt>
<trkpt lat="46.23212" lon="7.25898"><ele>1100.2</ele><time>2021-05-23T15:09:17Z</time></trkpt>
<trkpt lat="46.23215" lon="7.25897"><ele>1101</ele><time>2021-05-23T15:09:19Z</time></trkpt>
<trkpt lat="46.23216" lon="7.25897"><ele>1101.2</ele><time>2021-05-23T15:09:20Z</time></trkpt>
<trkpt lat="46.23219" lon="7.25895"><ele>1102</ele><time>2021-05-23T15:09:22Z</time></trkpt>
<trkpt lat="46.23223" lon="7.25892"><ele>1103.4</ele><time>2021-05-23T15:09:26Z</time></trkpt>
<trkpt lat="46.23226" lon="7.2589"><ele>1104</ele><time>2021-05-23T15:09:28Z</time></trkpt>
<trkpt lat="46.23238" lon="7.2587"><ele>1105.6</ele><time>2021-05-23T15:09:40Z</time></trkpt>
<trkpt lat="46.23248" lon="7.25848"><ele>1107.4</ele><time>2021-05-23T15:09:51Z</time></trkpt>
<trkpt lat="46.23262" lon="7.25843"><ele>1109.8</ele><time>2021-05-23T15:10:00Z</time></trkpt>
<trkpt lat="46.2328" lon="7.25836"><ele>1111.2</ele><time>2021-05-23T15:10:11Z</time></trkpt>
<trkpt lat="46.233" lon="7.2583"><ele>1112.2</ele><time>2021-05-23T15:10:21Z</time></trkpt>
<trkpt lat="46.23319" lon="7.25825"><ele>1112.2</ele><time>2021-05-23T15:10:29Z</time></trkpt>
<trkpt lat="46.2333" lon="7.25823"><ele>1111.8</ele><time>2021-05-23T15:10:33Z</time></trkpt>
<trkpt lat="46.2335" lon="7.25824"><ele>1111</ele><time>2021-05-23T15:10:40Z</time></trkpt>
<trkpt lat="46.23369" lon="7.25826"><ele>1111</ele><time>2021-05-23T15:10:49Z</time></trkpt>
<trkpt lat="46.23375" lon="7.25828"><ele>1112.6</ele><time>2021-05-23T15:10:52Z</time></trkpt>
<trkpt lat="46.23377" lon="7.25828"><ele>1113</ele><time>2021-05-23T15:10:53Z</time></trkpt>
<trkpt lat="46.23379" lon="7.25828"><ele>1113.4</ele><time>2021-05-23T15:10:54Z</time></trkpt>
<trkpt lat="46.23383" lon="7.25828"><ele>1113.8</ele><time>2021-05-23T15:10:56Z</time></trkpt>
<trkpt lat="46.23405" lon="7.25842"><ele>1119.8</ele><time>2021-05-23T15:11:13Z</time></trkpt>
<trkpt lat="46.23407" lon="7.25843"><ele>1120.4</ele><time>2021-05-23T15:11:15Z</time></trkpt>
<trkpt lat="46.23423" lon="7.25855"><ele>1127.2</ele><time>2021-05-23T15:11:23Z</time></trkpt>
<trkpt lat="46.23428" lon="7.25857"><ele>1128</ele><time>2021-05-23T15:11:25Z</time></trkpt>
<trkpt lat="46.23434" lon="7.25858"><ele>1128.6</ele><time>2021-05-23T15:11:28Z</time></trkpt>
<trkpt lat="46.2345" lon="7.25859"><ele>1130.6</ele><time>2021-05-23T15:11:36Z</time></trkpt>
<trkpt lat="46.23469" lon="7.25865"><ele>1135.2</ele><time>2021-05-23T15:11:44Z</time></trkpt>
<trkpt lat="46.23486" lon="7.25855"><ele>1136</ele><time>2021-05-23T15:11:53Z</time></trkpt>
<trkpt lat="46.23516" lon="7.25857"><ele>1131.4</ele><time>2021-05-23T15:12:06Z</time></trkpt>
<trkpt lat="46.23534" lon="7.25861"><ele>1132</ele><time>2021-05-23T15:12:12Z</time></trkpt>
<trkpt lat="46.23552" lon="7.25873"><ele>1130.6</ele><time>2021-05-23T15:12:18Z</time></trkpt>
<trkpt lat="46.23568" lon="7.25884"><ele>1127.2</ele><time>2021-05-23T15:12:24Z</time></trkpt>
<trkpt lat="46.2358" lon="7.25885"><ele>1124.2</ele><time>2021-05-23T15:12:27Z</time></trkpt>
<trkpt lat="46.23598" lon="7.25889"><ele>1122.4</ele><time>2021-05-23T15:12:32Z</time></trkpt>
<trkpt lat="46.23615" lon="7.25889"><ele>1121.4</ele><time>2021-05-23T15:12:37Z</time></trkpt>
<trkpt lat="46.23628" lon="7.25882"><ele>1122.8</ele><time>2021-05-23T15:12:40Z</time></trkpt>
<trkpt lat="46.2365" lon="7.25881"><ele>1127.6</ele><time>2021-05-23T15:12:45Z</time></trkpt>
<trkpt lat="46.23654" lon="7.25881"><ele>1129.4</ele><time>2021-05-23T15:12:46Z</time></trkpt>
<trkpt lat="46.23672" lon="7.25885"><ele>1132.6</ele><time>2021-05-23T15:12:50Z</time></trkpt>
<trkpt lat="46.23693" lon="7.2589"><ele>1135.2</ele><time>2021-05-23T15:12:55Z</time></trkpt>
<trkpt lat="46.23713" lon="7.25894"><ele>1136.2</ele><time>2021-05-23T15:13:00Z</time></trkpt>
<trkpt lat="46.23732" lon="7.25898"><ele>1135.4</ele><time>2021-05-23T15:13:04Z</time></trkpt>
<trkpt lat="46.23742" lon="7.25901"><ele>1133.4</ele><time>2021-05-23T15:13:06Z</time></trkpt>
<trkpt lat="46.23753" lon="7.25901"><ele>1133</ele><time>2021-05-23T15:13:08Z</time></trkpt>
<trkpt lat="46.23777" lon="7.25897"><ele>1129.8</ele><time>2021-05-23T15:13:12Z</time></trkpt>
<trkpt lat="46.23796" lon="7.25896"><ele>1128.2</ele><time>2021-05-23T15:13:15Z</time></trkpt>
<trkpt lat="46.23802" lon="7.25897"><ele>1127.6</ele><time>2021-05-23T15:13:16Z</time></trkpt>
<trkpt lat="46.2382" lon="7.25907"><ele>1126.4</ele><time>2021-05-23T15:13:19Z</time></trkpt>
<trkpt lat="46.23832" lon="7.25912"><ele>1125.8</ele><time>2021-05-23T15:13:21Z</time></trkpt>
<trkpt lat="46.23844" lon="7.25918"><ele>1124.6</ele><time>2021-05-23T15:13:23Z</time></trkpt>
<trkpt lat="46.23867" lon="7.25928"><ele>1123.6</ele><time>2021-05-23T15:13:27Z</time></trkpt>
<trkpt lat="46.23879" lon="7.25932"><ele>1123.4</ele><time>2021-05-23T15:13:29Z</time></trkpt>
<trkpt lat="46.23896" lon="7.25938"><ele>1124</ele><time>2021-05-23T15:13:32Z</time></trkpt>
<trkpt lat="46.23915" lon="7.25944"><ele>1124.4</ele><time>2021-05-23T15:13:35Z</time></trkpt>
<trkpt lat="46.23937" lon="7.25949"><ele>1126</ele><time>2021-05-23T15:13:39Z</time></trkpt>
<trkpt lat="46.23949" lon="7.25949"><ele>1126.6</ele><time>2021-05-23T15:13:41Z</time></trkpt>
<trkpt lat="46.23959" lon="7.25949"><ele>1128.2</ele><time>2021-05-23T15:13:43Z</time></trkpt>
<trkpt lat="46.2398" lon="7.25951"><ele>1132</ele><time>2021-05-23T15:13:47Z</time></trkpt>
<trkpt lat="46.24" lon="7.25948"><ele>1136.2</ele><time>2021-05-23T15:13:51Z</time></trkpt>
<trkpt lat="46.24016" lon="7.25933"><ele>1137.2</ele><time>2021-05-23T15:13:55Z</time></trkpt>
<trkpt lat="46.2402" lon="7.25929"><ele>1136.6</ele><time>2021-05-23T15:13:56Z</time></trkpt>
<trkpt lat="46.24024" lon="7.25926"><ele>1136.4</ele><time>2021-05-23T15:13:57Z</time></trkpt>
<trkpt lat="46.24028" lon="7.25923"><ele>1136</ele><time>2021-05-23T15:13:58Z</time></trkpt>
<trkpt lat="46.24042" lon="7.25916"><ele>1134.8</ele><time>2021-05-23T15:14:02Z</time></trkpt>
<trkpt lat="46.24052" lon="7.25912"><ele>1133.8</ele><time>2021-05-23T15:14:05Z</time></trkpt>
<trkpt lat="46.24055" lon="7.25911"><ele>1133.6</ele><time>2021-05-23T15:14:06Z</time></trkpt>
<trkpt lat="46.2406" lon="7.25908"><ele>1134</ele><time>2021-05-23T15:14:08Z</time></trkpt>
<trkpt lat="46.24069" lon="7.25901"><ele>1134</ele><time>2021-05-23T15:14:12Z</time></trkpt>
<trkpt lat="46.24076" lon="7.25892"><ele>1134.4</ele><time>2021-05-23T15:14:16Z</time></trkpt>
<trkpt lat="46.24091" lon="7.25877"><ele>1137</ele><time>2021-05-23T15:14:23Z</time></trkpt>
<trkpt lat="46.24095" lon="7.25872"><ele>1136.6</ele><time>2021-05-23T15:14:25Z</time></trkpt>
<trkpt lat="46.2412" lon="7.25854"><ele>1139</ele><time>2021-05-23T15:14:35Z</time></trkpt>
<trkpt lat="46.24139" lon="7.2585"><ele>1143.8</ele><time>2021-05-23T15:14:41Z</time></trkpt>
<trkpt lat="46.24158" lon="7.25837"><ele>1143.2</ele><time>2021-05-23T15:14:47Z</time></trkpt>
<trkpt lat="46.24173" lon="7.25821"><ele>1142.2</ele><time>2021-05-23T15:14:52Z</time></trkpt>
<trkpt lat="46.24186" lon="7.25799"><ele>1140.4</ele><time>2021-05-23T15:14:57Z</time></trkpt>
<trkpt lat="46.24205" lon="7.2579"><ele>1140.8</ele><time>2021-05-23T15:15:02Z</time></trkpt>
<trkpt lat="46.24228" lon="7.25797"><ele>1148.8</ele><time>2021-05-23T15:15:10Z</time></trkpt>
<trkpt lat="46.24247" lon="7.25802"><ele>1149.2</ele><time>2021-05-23T15:15:20Z</time></trkpt>
<trkpt lat="46.24266" lon="7.25806"><ele>1148</ele><time>2021-05-23T15:15:30Z</time></trkpt>
<trkpt lat="46.24278" lon="7.25807"><ele>1151.2</ele><time>2021-05-23T15:15:37Z</time></trkpt>
<trkpt lat="46.24297" lon="7.25801"><ele>1153.6</ele><time>2021-05-23T15:15:48Z</time></trkpt>
<trkpt lat="46.243" lon="7.25799"><ele>1154.4</ele><time>2021-05-23T15:15:50Z</time></trkpt>
<trkpt lat="46.24311" lon="7.25798"><ele>1155.4</ele><time>2021-05-23T15:15:57Z</time></trkpt>
<trkpt lat="46.24329" lon="7.25807"><ele>1161.6</ele><time>2021-05-23T15:16:09Z</time></trkpt>
<trkpt lat="46.24354" lon="7.25814"><ele>1170.4</ele><time>2021-05-23T15:16:28Z</time></trkpt>
<trkpt lat="46.24355" lon="7.25813"><ele>1171</ele><time>2021-05-23T15:16:29Z</time></trkpt>
<trkpt lat="46.24366" lon="7.25805"><ele>1173.4</ele><time>2021-05-23T15:16:36Z</time></trkpt>
<trkpt lat="46.2437" lon="7.258"><ele>1174.2</ele><time>2021-05-23T15:16:39Z</time></trkpt>
<trkpt lat="46.24383" lon="7.2578"><ele>1174.6</ele><time>2021-05-23T15:16:50Z</time></trkpt>
<trkpt lat="46.2439" lon="7.25752"><ele>1167.2</ele><time>2021-05-23T15:17:03Z</time></trkpt>
<trkpt lat="46.24395" lon="7.25724"><ele>1164</ele><time>2021-05-23T15:17:08Z</time></trkpt>
<trkpt lat="46.24417" lon="7.25688"><ele>1156.6</ele><time>2021-05-23T15:17:18Z</time></trkpt>
<trkpt lat="46.24432" lon="7.25669"><ele>1150.6</ele><time>2021-05-23T15:17:26Z</time></trkpt>
<trkpt lat="46.24446" lon="7.25647"><ele>1150</ele><time>2021-05-23T15:17:34Z</time></trkpt>
<trkpt lat="46.24457" lon="7.25632"><ele>1154</ele><time>2021-05-23T15:17:40Z</time></trkpt>
<trkpt lat="46.24469" lon="7.2561"><ele>1158</ele><time>2021-05-23T15:17:48Z</time></trkpt>
<trkpt lat="46.24476" lon="7.25585"><ele>1160.2</ele><time>2021-05-23T15:17:58Z</time></trkpt>
<trkpt lat="46.24485" lon="7.25559"><ele>1161.8</ele><time>2021-05-23T15:18:07Z</time></trkpt>
<trkpt lat="46.24499" lon="7.25522"><ele>1163.2</ele><time>2021-05-23T15:18:20Z</time></trkpt>
<trkpt lat="46.24511" lon="7.25501"><ele>1166.2</ele><time>2021-05-23T15:18:28Z</time></trkpt>
<trkpt lat="46.24525" lon="7.25482"><ele>1170.2</ele><time>2021-05-23T15:18:37Z</time></trkpt>
<trkpt lat="46.2454" lon="7.25468"><ele>1179.4</ele><time>2021-05-23T15:18:46Z</time></trkpt>
<trkpt lat="46.24557" lon="7.25455"><ele>1185.6</ele><time>2021-05-23T15:18:56Z</time></trkpt>
<trkpt lat="46.24577" lon="7.25455"><ele>1186.4</ele><time>2021-05-23T15:19:05Z</time></trkpt>
<trkpt lat="46.24597" lon="7.25461"><ele>1185.8</ele><time>2021-05-23T15:19:13Z</time></trkpt>
<trkpt lat="46.24614" lon="7.25476"><ele>1183.2</ele><time>2021-05-23T15:19:19Z</time></trkpt>
<trkpt lat="46.24627" lon="7.25498"><ele>1177</ele><time>2021-05-23T15:19:24Z</time></trkpt>
<trkpt lat="46.24639" lon="7.25521"><ele>1172</ele><time>2021-05-23T15:19:30Z</time></trkpt>
<trkpt lat="46.24669" lon="7.25542"><ele>1172</ele><time>2021-05-23T15:19:44Z</time></trkpt>
<trkpt lat="46.24677" lon="7.25524"><ele>1171.2</ele><time>2021-05-23T15:19:48Z</time></trkpt>
<trkpt lat="46.24686" lon="7.25495"><ele>1172</ele><time>2021-05-23T15:19:54Z</time></trkpt>
<trkpt lat="46.24697" lon="7.25472"><ele>1173.6</ele><time>2021-05-23T15:19:59Z</time></trkpt>
<trkpt lat="46.2471" lon="7.25452"><ele>1175.2</ele><time>2021-05-23T15:20:04Z</time></trkpt>
<trkpt lat="46.24724" lon="7.25428"><ele>1173.8</ele><time>2021-05-23T15:20:09Z</time></trkpt>
<trkpt lat="46.24736" lon="7.25409"><ele>1171.4</ele><time>2021-05-23T15:20:13Z</time></trkpt>
<trkpt lat="46.24753" lon="7.25388"><ele>1172.2</ele><time>2021-05-23T15:20:18Z</time></trkpt>
<trkpt lat="46.24761" lon="7.25381"><ele>1172.6</ele><time>2021-05-23T15:20:20Z</time></trkpt>
<trkpt lat="46.24782" lon="7.25376"><ele>1174</ele><time>2021-05-23T15:20:25Z</time></trkpt>
<trkpt lat="46.24798" lon="7.25382"><ele>1174.4</ele><time>2021-05-23T15:20:29Z</time></trkpt>
<trkpt lat="46.24819" lon="7.25378"><ele>1174.2</ele><time>2021-05-23T15:20:34Z</time></trkpt>
<trkpt lat="46.24835" lon="7.25356"><ele>1171.8</ele><time>2021-05-23T15:20:39Z</time></trkpt>
<trkpt lat="46.24848" lon="7.25334"><ele>1170.8</ele><time>2021-05-23T15:20:44Z</time></trkpt>
<trkpt lat="46.24864" lon="7.25318"><ele>1172.6</ele><time>2021-05-23T15:20:49Z</time></trkpt>
<trkpt lat="46.24878" lon="7.253"><ele>1173</ele><time>2021-05-23T15:20:54Z</time></trkpt>
<trkpt lat="46.24891" lon="7.25278"><ele>1173.4</ele><time>2021-05-23T15:20:59Z</time></trkpt>
<trkpt lat="46.249" lon="7.2525"><ele>1174.2</ele><time>2021-05-23T15:21:05Z</time></trkpt>
<trkpt lat="46.24907" lon="7.25226"><ele>1175.6</ele><time>2021-05-23T15:21:10Z</time></trkpt>
<trkpt lat="46.24909" lon="7.252"><ele>1178</ele><time>2021-05-23T15:21:15Z</time></trkpt>
<trkpt lat="46.24898" lon="7.25174"><ele>1180</ele><time>2021-05-23T15:21:20Z</time></trkpt>
<trkpt lat="46.2489" lon="7.25149"><ele>1180.6</ele><time>2021-05-23T15:21:24Z</time></trkpt>
<trkpt lat="46.24891" lon="7.25133"><ele>1179.6</ele><time>2021-05-23T15:21:26Z</time></trkpt>
<trkpt lat="46.24903" lon="7.25112"><ele>1179</ele><time>2021-05-23T15:21:30Z</time></trkpt>
<trkpt lat="46.24921" lon="7.25094"><ele>1179.8</ele><time>2021-05-23T15:21:35Z</time></trkpt>
<trkpt lat="46.24937" lon="7.25081"><ele>1180.4</ele><time>2021-05-23T15:21:39Z</time></trkpt>
<trkpt lat="46.24944" lon="7.25054"><ele>1181.6</ele><time>2021-05-23T15:21:50Z</time></trkpt>
<trkpt lat="46.24944" lon="7.25054"><ele>1181.6</ele><time>2021-05-23T15:21:50Z</time></trkpt>
<trkpt lat="46.24944" lon="7.25054"><ele>1181.6</ele><time>2021-05-23T15:21:50Z</time></trkpt>
<trkpt lat="46.24944" lon="7.25054"><ele>1181.6</ele><time>2021-05-23T15:21:50Z</time></trkpt>
<trkpt lat="46.24944" lon="7.25054"><ele>1181.6</ele><time>2021-05-23T15:21:50Z</time></trkpt>
<trkpt lat="46.25409" lon="7.24753"><ele>1194.2</ele><time>2021-05-23T15:23:29Z</time></trkpt>
<trkpt lat="46.25415" lon="7.24749"><ele>1192.6</ele><time>2021-05-23T15:23:30Z</time></trkpt>
<trkpt lat="46.25435" lon="7.24755"><ele>1189.4</ele><time>2021-05-23T15:23:33Z</time></trkpt>
<trkpt lat="46.25455" lon="7.24746"><ele>1190.8</ele><time>2021-05-23T15:23:37Z</time></trkpt>
<trkpt lat="46.25476" lon="7.24741"><ele>1190.8</ele><time>2021-05-23T15:23:41Z</time></trkpt>
<trkpt lat="46.25496" lon="7.24753"><ele>1191.2</ele><time>2021-05-23T15:23:45Z</time></trkpt>
<trkpt lat="46.25501" lon="7.24754"><ele>1191</ele><time>2021-05-23T15:23:46Z</time></trkpt>
<trkpt lat="46.25523" lon="7.24749"><ele>1189.8</ele><time>2021-05-23T15:23:50Z</time></trkpt>
<trkpt lat="46.25542" lon="7.24729"><ele>1189.8</ele><time>2021-05-23T15:23:54Z</time></trkpt>
<trkpt lat="46.25558" lon="7.24711"><ele>1189.6</ele><time>2021-05-23T15:23:58Z</time></trkpt>
<trkpt lat="46.25573" lon="7.24707"><ele>1188.8</ele><time>2021-05-23T15:24:01Z</time></trkpt>
<trkpt lat="46.25593" lon="7.24713"><ele>1189.8</ele><time>2021-05-23T15:24:05Z</time></trkpt>
<trkpt lat="46.25598" lon="7.24713"><ele>1189.6</ele><time>2021-05-23T15:24:06Z</time></trkpt>
<trkpt lat="46.25615" lon="7.24705"><ele>1186.8</ele><time>2021-05-23T15:24:10Z</time></trkpt>
<trkpt lat="46.2562" lon="7.24702"><ele>1186.6</ele><time>2021-05-23T15:24:11Z</time></trkpt>
<trkpt lat="46.2563" lon="7.24695"><ele>1186</ele><time>2021-05-23T15:24:13Z</time></trkpt>
<trkpt lat="46.25651" lon="7.24684"><ele>1185.2</ele><time>2021-05-23T15:24:17Z</time></trkpt>
<trkpt lat="46.25656" lon="7.24682"><ele>1186</ele><time>2021-05-23T15:24:18Z</time></trkpt>
<trkpt lat="46.25679" lon="7.2469"><ele>1186</ele><time>2021-05-23T15:24:22Z</time></trkpt>
<trkpt lat="46.2569" lon="7.24694"><ele>1186.4</ele><time>2021-05-23T15:24:24Z</time></trkpt>
<trkpt lat="46.25701" lon="7.24697"><ele>1186.6</ele><time>2021-05-23T15:24:26Z</time></trkpt>
<trkpt lat="46.25722" lon="7.24688"><ele>1186.4</ele><time>2021-05-23T15:24:30Z</time></trkpt>
<trkpt lat="46.25727" lon="7.24684"><ele>1186.2</ele><time>2021-05-23T15:24:31Z</time></trkpt>
<trkpt lat="46.2574" lon="7.2467"><ele>1185.8</ele><time>2021-05-23T15:24:34Z</time></trkpt>
<trkpt lat="46.25752" lon="7.24651"><ele>1186.2</ele><time>2021-05-23T15:24:37Z</time></trkpt>
<trkpt lat="46.25769" lon="7.24627"><ele>1186.6</ele><time>2021-05-23T15:24:41Z</time></trkpt>
<trkpt lat="46.25782" lon="7.24612"><ele>1186.8</ele><time>2021-05-23T15:24:44Z</time></trkpt>
<trkpt lat="46.25802" lon="7.24604"><ele>1186.8</ele><time>2021-05-23T15:24:48Z</time></trkpt>
<trkpt lat="46.25812" lon="7.24598"><ele>1187</ele><time>2021-05-23T15:24:50Z</time></trkpt>
<trkpt lat="46.25816" lon="7.24594"><ele>1187.2</ele><time>2021-05-23T15:24:51Z</time></trkpt>
<trkpt lat="46.25829" lon="7.24584"><ele>1186.8</ele><time>2021-05-23T15:24:54Z</time></trkpt>
<trkpt lat="46.25836" lon="7.24558"><ele>1187</ele><time>2021-05-23T15:24:58Z</time></trkpt>
<trkpt lat="46.2583" lon="7.24527"><ele>1187.4</ele><time>2021-05-23T15:25:02Z</time></trkpt>
<trkpt lat="46.25827" lon="7.24502"><ele>1187.6</ele><time>2021-05-23T15:25:05Z</time></trkpt>
<trkpt lat="46.25828" lon="7.24492"><ele>1187.6</ele><time>2021-05-23T15:25:06Z</time></trkpt>
<trkpt lat="46.2584" lon="7.24465"><ele>1186.8</ele><time>2021-05-23T15:25:10Z</time></trkpt>
<trkpt lat="46.25844" lon="7.2446"><ele>1186.6</ele><time>2021-05-23T15:25:11Z</time></trkpt>
<trkpt lat="46.25853" lon="7.24449"><ele>1186.6</ele><time>2021-05-23T15:25:13Z</time></trkpt>
<trkpt lat="46.25873" lon="7.24434"><ele>1186.2</ele><time>2021-05-23T15:25:17Z</time></trkpt>
<trkpt lat="46.25894" lon="7.24421"><ele>1186.2</ele><time>2021-05-23T15:25:21Z</time></trkpt>
<trkpt lat="46.25915" lon="7.24411"><ele>1186.4</ele><time>2021-05-23T15:25:25Z</time></trkpt>
<trkpt lat="46.25961" lon="7.24389"><ele>1186.4</ele><time>2021-05-23T15:25:34Z</time></trkpt>
<trkpt lat="46.2597" lon="7.24401"><ele>1186.4</ele><time>2021-05-23T15:25:35Z</time></trkpt>
<trkpt lat="46.25992" lon="7.24421"><ele>1186.4</ele><time>2021-05-23T15:25:39Z</time></trkpt>
<trkpt lat="46.25996" lon="7.24424"><ele>1186.4</ele><time>2021-05-23T15:25:40Z</time></trkpt>
<trkpt lat="46.26006" lon="7.24434"><ele>1186.4</ele><time>2021-05-23T15:25:43Z</time></trkpt>
<trkpt lat="46.26028" lon="7.24436"><ele>1186.6</ele><time>2021-05-23T15:25:48Z</time></trkpt>
<trkpt lat="46.26047" lon="7.24426"><ele>1186.6</ele><time>2021-05-23T15:25:52Z</time></trkpt>
<trkpt lat="46.26066" lon="7.24416"><ele>1186.8</ele><time>2021-05-23T15:25:56Z</time></trkpt>
<trkpt lat="46.26075" lon="7.24412"><ele>1187</ele><time>2021-05-23T15:25:58Z</time></trkpt>
<trkpt lat="46.26091" lon="7.24409"><ele>1188</ele><time>2021-05-23T15:26:01Z</time></trkpt>
<trkpt lat="46.26109" lon="7.24418"><ele>1189.2</ele><time>2021-05-23T15:26:05Z</time></trkpt>
<trkpt lat="46.26125" lon="7.24442"><ele>1186.6</ele><time>2021-05-23T15:26:08Z</time></trkpt>
<trkpt lat="46.26134" lon="7.24465"><ele>1185.2</ele><time>2021-05-23T15:26:11Z</time></trkpt>
<trkpt lat="46.26136" lon="7.24473"><ele>1185.2</ele><time>2021-05-23T15:26:12Z</time></trkpt>
<trkpt lat="46.26139" lon="7.2448"><ele>1185</ele><time>2021-05-23T15:26:13Z</time></trkpt>
<trkpt lat="46.26153" lon="7.24499"><ele>1184.8</ele><time>2021-05-23T15:26:17Z</time></trkpt>
<trkpt lat="46.26161" lon="7.24504"><ele>1184.8</ele><time>2021-05-23T15:26:19Z</time></trkpt>
<trkpt lat="46.2618" lon="7.24514"><ele>1185</ele><time>2021-05-23T15:26:23Z</time></trkpt>
<trkpt lat="46.26199" lon="7.24525"><ele>1185.2</ele><time>2021-05-23T15:26:27Z</time></trkpt>
<trkpt lat="46.2622" lon="7.24531"><ele>1185.6</ele><time>2021-05-23T15:26:32Z</time></trkpt>
<trkpt lat="46.26239" lon="7.24531"><ele>1186.2</ele><time>2021-05-23T15:26:36Z</time></trkpt>
<trkpt lat="46.26261" lon="7.2453"><ele>1186.6</ele><time>2021-05-23T15:26:40Z</time></trkpt>
<trkpt lat="46.26267" lon="7.24531"><ele>1186.2</ele><time>2021-05-23T15:26:41Z</time></trkpt>
<trkpt lat="46.26277" lon="7.24534"><ele>1186</ele><time>2021-05-23T15:26:43Z</time></trkpt>
<trkpt lat="46.26298" lon="7.24541"><ele>1185.6</ele><time>2021-05-23T15:26:47Z</time></trkpt>
<trkpt lat="46.26317" lon="7.24549"><ele>1183.6</ele><time>2021-05-23T15:26:51Z</time></trkpt>
<trkpt lat="46.26336" lon="7.24554"><ele>1180.4</ele><time>2021-05-23T15:26:55Z</time></trkpt>
<trkpt lat="46.26344" lon="7.24555"><ele>1179.4</ele><time>2021-05-23T15:26:57Z</time></trkpt>
<trkpt lat="46.26363" lon="7.24549"><ele>1179.8</ele><time>2021-05-23T15:27:01Z</time></trkpt>
<trkpt lat="46.26383" lon="7.2454"><ele>1179.4</ele><time>2021-05-23T15:27:05Z</time></trkpt>
<trkpt lat="46.26397" lon="7.24534"><ele>1180.6</ele><time>2021-05-23T15:27:08Z</time></trkpt>
<trkpt lat="46.26416" lon="7.24529"><ele>1182</ele><time>2021-05-23T15:27:12Z</time></trkpt>
<trkpt lat="46.26431" lon="7.24528"><ele>1183.2</ele><time>2021-05-23T15:27:15Z</time></trkpt>
<trkpt lat="46.26449" lon="7.24531"><ele>1184</ele><time>2021-05-23T15:27:19Z</time></trkpt>
<trkpt lat="46.26467" lon="7.24531"><ele>1185</ele><time>2021-05-23T15:27:23Z</time></trkpt>
<trkpt lat="46.2649" lon="7.24528"><ele>1186.4</ele><time>2021-05-23T15:27:28Z</time></trkpt>
<trkpt lat="46.26495" lon="7.24529"><ele>1186</ele><time>2021-05-23T15:27:29Z</time></trkpt>
<trkpt lat="46.26513" lon="7.24543"><ele>1185.2</ele><time>2021-05-23T15:27:33Z</time></trkpt>
<trkpt lat="46.26516" lon="7.24548"><ele>1184.8</ele><time>2021-05-23T15:27:34Z</time></trkpt>
<trkpt lat="46.26531" lon="7.24568"><ele>1183.4</ele><time>2021-05-23T15:27:38Z</time></trkpt>
<trkpt lat="46.26543" lon="7.24581"><ele>1183</ele><time>2021-05-23T15:27:41Z</time></trkpt>
<trkpt lat="46.26564" lon="7.24581"><ele>1182.2</ele><time>2021-05-23T15:27:45Z</time></trkpt>
<trkpt lat="46.26579" lon="7.24568"><ele>1182.4</ele><time>2021-05-23T15:27:48Z</time></trkpt>
<trkpt lat="46.26592" lon="7.2455"><ele>1184.8</ele><time>2021-05-23T15:27:51Z</time></trkpt>
<trkpt lat="46.26603" lon="7.24541"><ele>1184.2</ele><time>2021-05-23T15:27:53Z</time></trkpt>
<trkpt lat="46.2662" lon="7.24533"><ele>1183.8</ele><time>2021-05-23T15:27:56Z</time></trkpt>
<trkpt lat="46.26642" lon="7.24522"><ele>1184.6</ele><time>2021-05-23T15:28:00Z</time></trkpt>
<trkpt lat="46.26664" lon="7.24514"><ele>1184.8</ele><time>2021-05-23T15:28:04Z</time></trkpt>
<trkpt lat="46.26686" lon="7.24506"><ele>1186.4</ele><time>2021-05-23T15:28:08Z</time></trkpt>
<trkpt lat="46.26707" lon="7.24498"><ele>1187.8</ele><time>2021-05-23T15:28:12Z</time></trkpt>
<trkpt lat="46.26713" lon="7.24495"><ele>1188</ele><time>2021-05-23T15:28:13Z</time></trkpt>
<trkpt lat="46.2673" lon="7.24473"><ele>1189.4</ele><time>2021-05-23T15:28:17Z</time></trkpt>
<trkpt lat="46.26745" lon="7.24451"><ele>1189.8</ele><time>2021-05-23T15:28:21Z</time></trkpt>
<trkpt lat="46.26753" lon="7.24423"><ele>1190.2</ele><time>2021-05-23T15:28:25Z</time></trkpt>
<trkpt lat="46.26754" lon="7.24415"><ele>1190</ele><time>2021-05-23T15:28:26Z</time></trkpt>
<trkpt lat="46.26757" lon="7.24409"><ele>1189.8</ele><time>2021-05-23T15:28:27Z</time></trkpt>
<trkpt lat="46.26774" lon="7.24401"><ele>1189.4</ele><time>2021-05-23T15:28:31Z</time></trkpt>
<trkpt lat="46.26784" lon="7.24404"><ele>1189.4</ele><time>2021-05-23T15:28:34Z</time></trkpt>
<trkpt lat="46.26786" lon="7.24406"><ele>1189.6</ele><time>2021-05-23T15:28:35Z</time></trkpt>
<trkpt lat="46.26795" lon="7.24411"><ele>1190.6</ele><time>2021-05-23T15:28:40Z</time></trkpt>
<trkpt lat="46.26815" lon="7.24422"><ele>1189.6</ele><time>2021-05-23T15:28:48Z</time></trkpt>
<trkpt lat="46.26824" lon="7.24427"><ele>1187.4</ele><time>2021-05-23T15:28:52Z</time></trkpt>
<trkpt lat="46.26826" lon="7.24428"><ele>1187.2</ele><time>2021-05-23T15:28:53Z</time></trkpt>
<trkpt lat="46.26842" lon="7.24416"><ele>1185.6</ele><time>2021-05-23T15:28:59Z</time></trkpt>
<trkpt lat="46.26845" lon="7.24412"><ele>1185.6</ele><time>2021-05-23T15:29:00Z</time></trkpt>
<trkpt lat="46.26856" lon="7.24392"><ele>1184.8</ele><time>2021-05-23T15:29:04Z</time></trkpt>
<trkpt lat="46.26868" lon="7.24374"><ele>1184.2</ele><time>2021-05-23T15:29:07Z</time></trkpt>
<trkpt lat="46.26885" lon="7.24351"><ele>1184</ele><time>2021-05-23T15:29:11Z</time></trkpt>
<trkpt lat="46.269" lon="7.2433"><ele>1184</ele><time>2021-05-23T15:29:15Z</time></trkpt>
<trkpt lat="46.2691" lon="7.24312"><ele>1184.8</ele><time>2021-05-23T15:29:19Z</time></trkpt>
<trkpt lat="46.26916" lon="7.24299"><ele>1185.2</ele><time>2021-05-23T15:29:22Z</time></trkpt>
<trkpt lat="46.26923" lon="7.24286"><ele>1184.8</ele><time>2021-05-23T15:29:26Z</time></trkpt>
<trkpt lat="46.26931" lon="7.24273"><ele>1185.6</ele><time>2021-05-23T15:29:30Z</time></trkpt>
<trkpt lat="46.26947" lon="7.2426"><ele>1187.2</ele><time>2021-05-23T15:29:36Z</time></trkpt>
<trkpt lat="46.26961" lon="7.2425"><ele>1187</ele><time>2021-05-23T15:29:41Z</time></trkpt>
<trkpt lat="46.26984" lon="7.24234"><ele>1187</ele><time>2021-05-23T15:29:49Z</time></trkpt>
<trkpt lat="46.26993" lon="7.24214"><ele>1187.2</ele><time>2021-05-23T15:29:54Z</time></trkpt>
<trkpt lat="46.26999" lon="7.24184"><ele>1187</ele><time>2021-05-23T15:30:00Z</time></trkpt>
<trkpt lat="46.2701" lon="7.24163"><ele>1188.4</ele><time>2021-05-23T15:30:05Z</time></trkpt>
<trkpt lat="46.27023" lon="7.24144"><ele>1189.8</ele><time>2021-05-23T15:30:10Z</time></trkpt>
<trkpt lat="46.27038" lon="7.24122"><ele>1192</ele><time>2021-05-23T15:30:16Z</time></trkpt>
<trkpt lat="46.2705" lon="7.24103"><ele>1194.8</ele><time>2021-05-23T15:30:21Z</time></trkpt>
<trkpt lat="46.27065" lon="7.24087"><ele>1196.6</ele><time>2021-05-23T15:30:26Z</time></trkpt>
<trkpt lat="46.27084" lon="7.24074"><ele>1199.4</ele><time>2021-05-23T15:30:31Z</time></trkpt>
<trkpt lat="46.27107" lon="7.24047"><ele>1202.2</ele><time>2021-05-23T15:30:39Z</time></trkpt>
<trkpt lat="46.27109" lon="7.2402"><ele>1205.2</ele><time>2021-05-23T15:30:46Z</time></trkpt>
<trkpt lat="46.27106" lon="7.23999"><ele>1206.2</ele><time>2021-05-23T15:30:56Z</time></trkpt>
<trkpt lat="46.27106" lon="7.23989"><ele>1205.8</ele><time>2021-05-23T15:31:01Z</time></trkpt>
<trkpt lat="46.27102" lon="7.23963"><ele>1205.2</ele><time>2021-05-23T15:31:13Z</time></trkpt>
<trkpt lat="46.27102" lon="7.23935"><ele>1204.8</ele><time>2021-05-23T15:31:24Z</time></trkpt>
<trkpt lat="46.27109" lon="7.23905"><ele>1206.2</ele><time>2021-05-23T15:31:37Z</time></trkpt>
<trkpt lat="46.27122" lon="7.23888"><ele>1207.6</ele><time>2021-05-23T15:31:48Z</time></trkpt>
<trkpt lat="46.2714" lon="7.23894"><ele>1206.8</ele><time>2021-05-23T15:31:59Z</time></trkpt>
<trkpt lat="46.27156" lon="7.23905"><ele>1207</ele><time>2021-05-23T15:32:12Z</time></trkpt>
<trkpt lat="46.27174" lon="7.23914"><ele>1206.4</ele><time>2021-05-23T15:32:25Z</time></trkpt>
<trkpt lat="46.27192" lon="7.23918"><ele>1206.8</ele><time>2021-05-23T15:32:39Z</time></trkpt>
<trkpt lat="46.27211" lon="7.23915"><ele>1207.6</ele><time>2021-05-23T15:32:51Z</time></trkpt>
<trkpt lat="46.2723" lon="7.23908"><ele>1211.8</ele><time>2021-05-23T15:33:06Z</time></trkpt>
<trkpt lat="46.27245" lon="7.2389"><ele>1216.8</ele><time>2021-05-23T15:33:20Z</time></trkpt>
<trkpt lat="46.27258" lon="7.2387"><ele>1219.4</ele><time>2021-05-23T15:33:33Z</time></trkpt>
<trkpt lat="46.27275" lon="7.2386"><ele>1222</ele><time>2021-05-23T15:33:47Z</time></trkpt>
<trkpt lat="46.27294" lon="7.2386"><ele>1223.6</ele><time>2021-05-23T15:34:01Z</time></trkpt>
<trkpt lat="46.27311" lon="7.23866"><ele>1228.2</ele><time>2021-05-23T15:34:16Z</time></trkpt>
<trkpt lat="46.2733" lon="7.23862"><ele>1231.2</ele><time>2021-05-23T15:34:30Z</time></trkpt>
<trkpt lat="46.27346" lon="7.23851"><ele>1233.2</ele><time>2021-05-23T15:34:44Z</time></trkpt>
<trkpt lat="46.27357" lon="7.23833"><ele>1234.8</ele><time>2021-05-23T15:34:57Z</time></trkpt>
<trkpt lat="46.27369" lon="7.23811"><ele>1236.4</ele><time>2021-05-23T15:35:11Z</time></trkpt>
<trkpt lat="46.27378" lon="7.23798"><ele>1237.6</ele><time>2021-05-23T15:35:20Z</time></trkpt>
<trkpt lat="46.27392" lon="7.2378"><ele>1240.4</ele><time>2021-05-23T15:35:32Z</time></trkpt>
<trkpt lat="46.27406" lon="7.23762"><ele>1243.2</ele><time>2021-05-23T15:35:44Z</time></trkpt>
<trkpt lat="46.27419" lon="7.23745"><ele>1245.2</ele><time>2021-05-23T15:35:56Z</time></trkpt>
<trkpt lat="46.27435" lon="7.23718"><ele>1246.4</ele><time>2021-05-23T15:36:12Z</time></trkpt>
<trkpt lat="46.27433" lon="7.2369"><ele>1246</ele><time>2021-05-23T15:36:24Z</time></trkpt>
<trkpt lat="46.27429" lon="7.23664"><ele>1245</ele><time>2021-05-23T15:36:33Z</time></trkpt>
<trkpt lat="46.27425" lon="7.23637"><ele>1244.2</ele><time>2021-05-23T15:36:41Z</time></trkpt>
<trkpt lat="46.27421" lon="7.23612"><ele>1244</ele><time>2021-05-23T15:36:49Z</time></trkpt>
<trkpt lat="46.27416" lon="7.23571"><ele>1244.4</ele><time>2021-05-23T15:37:02Z</time></trkpt>
<trkpt lat="46.27423" lon="7.23546"><ele>1244.4</ele><time>2021-05-23T15:37:12Z</time></trkpt>
<trkpt lat="46.27436" lon="7.23528"><ele>1244.8</ele><time>2021-05-23T15:37:25Z</time></trkpt>
<trkpt lat="46.27437" lon="7.23527"><ele>1245</ele><time>2021-05-23T15:37:26Z</time></trkpt>
<trkpt lat="46.27445" lon="7.23519"><ele>1246</ele><time>2021-05-23T15:37:34Z</time></trkpt>
<trkpt lat="46.27449" lon="7.23517"><ele>1246.4</ele><time>2021-05-23T15:37:37Z</time></trkpt>
<trkpt lat="46.27454" lon="7.23514"><ele>1247.2</ele><time>2021-05-23T15:37:41Z</time></trkpt>
<trkpt lat="46.27464" lon="7.23508"><ele>1249.2</ele><time>2021-05-23T15:37:50Z</time></trkpt>
<trkpt lat="46.27475" lon="7.23499"><ele>1251.2</ele><time>2021-05-23T15:38:00Z</time></trkpt>
<trkpt lat="46.27482" lon="7.23498"><ele>1251.4</ele><time>2021-05-23T15:38:04Z</time></trkpt>
<trkpt lat="46.27483" lon="7.23498"><ele>1251.4</ele><time>2021-05-23T15:38:05Z</time></trkpt>
<trkpt lat="46.27491" lon="7.23499"><ele>1251.8</ele><time>2021-05-23T15:38:10Z</time></trkpt>
<trkpt lat="46.27493" lon="7.235"><ele>1252</ele><time>2021-05-23T15:38:11Z</time></trkpt>
<trkpt lat="46.27502" lon="7.23501"><ele>1252.6</ele><time>2021-05-23T15:38:15Z</time></trkpt>
<trkpt lat="46.2752" lon="7.235"><ele>1256.4</ele><time>2021-05-23T15:38:25Z</time></trkpt>
<trkpt lat="46.27539" lon="7.23509"><ele>1256.2</ele><time>2021-05-23T15:38:35Z</time></trkpt>
<trkpt lat="46.27548" lon="7.23532"><ele>1258.2</ele><time>2021-05-23T15:38:48Z</time></trkpt>
<trkpt lat="46.27553" lon="7.23541"><ele>1259.4</ele><time>2021-05-23T15:38:54Z</time></trkpt>
<trkpt lat="46.27558" lon="7.23546"><ele>1260</ele><time>2021-05-23T15:38:58Z</time></trkpt>
<trkpt lat="46.27576" lon="7.23547"><ele>1261.4</ele><time>2021-05-23T15:39:14Z</time></trkpt>
<trkpt lat="46.27583" lon="7.2354"><ele>1262.2</ele><time>2021-05-23T15:39:20Z</time></trkpt>
<trkpt lat="46.27602" lon="7.23516"><ele>1266.4</ele><time>2021-05-23T15:39:38Z</time></trkpt>
<trkpt lat="46.27606" lon="7.23511"><ele>1267.4</ele><time>2021-05-23T15:39:42Z</time></trkpt>
<trkpt lat="46.27609" lon="7.2351"><ele>1268.2</ele><time>2021-05-23T15:39:47Z</time></trkpt>
<trkpt lat="46.27609" lon="7.23507"><ele>1268.4</ele><time>2021-05-23T15:40:04Z</time></trkpt>
<trkpt lat="46.27609" lon="7.23506"><ele>1268.6</ele><time>2021-05-23T15:40:07Z</time></trkpt>
<trkpt lat="46.27608" lon="7.23505"><ele>1269.2</ele><time>2021-05-23T15:40:20Z</time></trkpt>
<trkpt lat="46.27609" lon="7.23507"><ele>1269.2</ele><time>2021-05-23T15:40:25Z</time></trkpt>
<trkpt lat="46.27611" lon="7.23508"><ele>1268.2</ele><time>2021-05-23T15:40:40Z</time></trkpt>
<trkpt lat="46.27624" lon="7.2349"><ele>1268.6</ele><time>2021-05-23T15:41:04Z</time></trkpt>
<trkpt lat="46.2764" lon="7.23474"><ele>1269.6</ele><time>2021-05-23T15:41:16Z</time></trkpt>
<trkpt lat="46.27648" lon="7.23462"><ele>1270.2</ele><time>2021-05-23T15:41:23Z</time></trkpt>
<trkpt lat="46.27661" lon="7.23445"><ele>1272</ele><time>2021-05-23T15:41:34Z</time></trkpt>
<trkpt lat="46.27673" lon="7.2343"><ele>1273.2</ele><time>2021-05-23T15:41:44Z</time></trkpt>
<trkpt lat="46.27686" lon="7.23417"><ele>1275.2</ele><time>2021-05-23T15:41:55Z</time></trkpt>
<trkpt lat="46.27691" lon="7.23414"><ele>1276</ele><time>2021-05-23T15:41:58Z</time></trkpt>
<trkpt lat="46.27709" lon="7.23412"><ele>1279</ele><time>2021-05-23T15:42:09Z</time></trkpt>
<trkpt lat="46.27728" lon="7.23415"><ele>1281.4</ele><time>2021-05-23T15:42:21Z</time></trkpt>
<trkpt lat="46.27736" lon="7.23415"><ele>1283.2</ele><time>2021-05-23T15:42:26Z</time></trkpt>
<trkpt lat="46.27739" lon="7.23416"><ele>1284</ele><time>2021-05-23T15:42:28Z</time></trkpt>
<trkpt lat="46.27744" lon="7.23416"><ele>1284.8</ele><time>2021-05-23T15:42:31Z</time></trkpt>
<trkpt lat="46.27758" lon="7.23408"><ele>1289.2</ele><time>2021-05-23T15:42:41Z</time></trkpt>
<trkpt lat="46.2778" lon="7.23389"><ele>1293.2</ele><time>2021-05-23T15:42:56Z</time></trkpt>
<trkpt lat="46.27798" lon="7.23375"><ele>1294.6</ele><time>2021-05-23T15:43:10Z</time></trkpt>
<trkpt lat="46.27815" lon="7.23362"><ele>1295.8</ele><time>2021-05-23T15:43:22Z</time></trkpt>
<trkpt lat="46.27833" lon="7.23356"><ele>1296.8</ele><time>2021-05-23T15:43:33Z</time></trkpt>
<trkpt lat="46.27852" lon="7.23358"><ele>1297.6</ele><time>2021-05-23T15:43:43Z</time></trkpt>
<trkpt lat="46.27872" lon="7.23363"><ele>1298.6</ele><time>2021-05-23T15:43:53Z</time></trkpt>
<trkpt lat="46.2789" lon="7.2337"><ele>1300.4</ele><time>2021-05-23T15:44:04Z</time></trkpt>
<trkpt lat="46.27891" lon="7.23372"><ele>1300.4</ele><time>2021-05-23T15:44:05Z</time></trkpt>
<trkpt lat="46.27896" lon="7.2339"><ele>1301</ele><time>2021-05-23T15:44:13Z</time></trkpt>
<trkpt lat="46.27892" lon="7.23416"><ele>1303.4</ele><time>2021-05-23T15:44:26Z</time></trkpt>
<trkpt lat="46.279" lon="7.23444"><ele>1307.6</ele><time>2021-05-23T15:44:45Z</time></trkpt>
<trkpt lat="46.27918" lon="7.23437"><ele>1312</ele><time>2021-05-23T15:45:00Z</time></trkpt>
<trkpt lat="46.27936" lon="7.2343"><ele>1315.6</ele><time>2021-05-23T15:45:13Z</time></trkpt>
<trkpt lat="46.27937" lon="7.2343"><ele>1315.8</ele><time>2021-05-23T15:45:14Z</time></trkpt>
<trkpt lat="46.27945" lon="7.23426"><ele>1317.4</ele><time>2021-05-23T15:45:20Z</time></trkpt>
<trkpt lat="46.2796" lon="7.2341"><ele>1321</ele><time>2021-05-23T15:45:33Z</time></trkpt>
<trkpt lat="46.27969" lon="7.23387"><ele>1322</ele><time>2021-05-23T15:45:47Z</time></trkpt>
<trkpt lat="46.27973" lon="7.23362"><ele>1323</ele><time>2021-05-23T15:46:01Z</time></trkpt>
<trkpt lat="46.27983" lon="7.23338"><ele>1323.6</ele><time>2021-05-23T15:46:15Z</time></trkpt>
<trkpt lat="46.28" lon="7.23312"><ele>1325</ele><time>2021-05-23T15:46:31Z</time></trkpt>
<trkpt lat="46.28013" lon="7.23292"><ele>1325.6</ele><time>2021-05-23T15:46:42Z</time></trkpt>
<trkpt lat="46.28026" lon="7.23273"><ele>1325.8</ele><time>2021-05-23T15:46:53Z</time></trkpt>
<trkpt lat="46.28044" lon="7.23265"><ele>1325.2</ele><time>2021-05-23T15:47:03Z</time></trkpt>
<trkpt lat="46.28062" lon="7.23257"><ele>1326</ele><time>2021-05-23T15:47:12Z</time></trkpt>
<trkpt lat="46.28081" lon="7.23246"><ele>1327.6</ele><time>2021-05-23T15:47:20Z</time></trkpt>
<trkpt lat="46.28097" lon="7.23232"><ele>1327.8</ele><time>2021-05-23T15:47:27Z</time></trkpt>
<trkpt lat="46.28112" lon="7.23214"><ele>1326.6</ele><time>2021-05-23T15:47:34Z</time></trkpt>
<trkpt lat="46.28136" lon="7.23182"><ele>1327.2</ele><time>2021-05-23T15:47:45Z</time></trkpt>
<trkpt lat="46.28145" lon="7.23171"><ele>1327.4</ele><time>2021-05-23T15:47:49Z</time></trkpt>
<trkpt lat="46.28161" lon="7.23152"><ele>1327.4</ele><time>2021-05-23T15:47:56Z</time></trkpt>
<trkpt lat="46.28179" lon="7.23139"><ele>1327.4</ele><time>2021-05-23T15:48:03Z</time></trkpt>
<trkpt lat="46.28197" lon="7.23131"><ele>1327</ele><time>2021-05-23T15:48:09Z</time></trkpt>
<trkpt lat="46.28215" lon="7.23128"><ele>1327.8</ele><time>2021-05-23T15:48:15Z</time></trkpt>
<trkpt lat="46.28234" lon="7.23123"><ele>1329</ele><time>2021-05-23T15:48:22Z</time></trkpt>
<trkpt lat="46.28251" lon="7.23108"><ele>1330.4</ele><time>2021-05-23T15:48:29Z</time></trkpt>
<trkpt lat="46.2827" lon="7.23097"><ele>1331</ele><time>2021-05-23T15:48:36Z</time></trkpt>
<trkpt lat="46.28289" lon="7.23089"><ele>1331.2</ele><time>2021-05-23T15:48:43Z</time></trkpt>
<trkpt lat="46.28307" lon="7.23081"><ele>1332.4</ele><time>2021-05-23T15:48:52Z</time></trkpt>
<trkpt lat="46.28324" lon="7.23072"><ele>1334.6</ele><time>2021-05-23T15:49:03Z</time></trkpt>
<trkpt lat="46.28347" lon="7.23062"><ele>1338.2</ele><time>2021-05-23T15:49:21Z</time></trkpt>
<trkpt lat="46.28358" lon="7.23058"><ele>1339.8</ele><time>2021-05-23T15:49:29Z</time></trkpt>
<trkpt lat="46.28366" lon="7.2306"><ele>1341.6</ele><time>2021-05-23T15:49:35Z</time></trkpt>
<trkpt lat="46.28382" lon="7.23074"><ele>1342.6</ele><time>2021-05-23T15:49:47Z</time></trkpt>
<trkpt lat="46.28397" lon="7.23088"><ele>1343</ele><time>2021-05-23T15:49:58Z</time></trkpt>
<trkpt lat="46.28413" lon="7.23104"><ele>1344.4</ele><time>2021-05-23T15:50:09Z</time></trkpt>
<trkpt lat="46.28429" lon="7.23118"><ele>1345.2</ele><time>2021-05-23T15:50:20Z</time></trkpt>
<trkpt lat="46.28443" lon="7.23133"><ele>1345.4</ele><time>2021-05-23T15:50:32Z</time></trkpt>
<trkpt lat="46.28462" lon="7.23152"><ele>1345.6</ele><time>2021-05-23T15:50:47Z</time></trkpt>
<trkpt lat="46.28476" lon="7.2317"><ele>1346</ele><time>2021-05-23T15:51:00Z</time></trkpt>
<trkpt lat="46.2849" lon="7.23187"><ele>1346.6</ele><time>2021-05-23T15:51:13Z</time></trkpt>
<trkpt lat="46.28504" lon="7.23204"><ele>1348.4</ele><time>2021-05-23T15:51:25Z</time></trkpt>
<trkpt lat="46.28519" lon="7.23222"><ele>1350.4</ele><time>2021-05-23T15:51:36Z</time></trkpt>
<trkpt lat="46.28536" lon="7.23231"><ele>1352</ele><time>2021-05-23T15:51:47Z</time></trkpt>
<trkpt lat="46.28551" lon="7.23231"><ele>1354</ele><time>2021-05-23T15:51:57Z</time></trkpt>
<trkpt lat="46.28555" lon="7.23218"><ele>1355.4</ele><time>2021-05-23T15:52:10Z</time></trkpt>
<trkpt lat="46.28556" lon="7.23216"><ele>1355.6</ele><time>2021-05-23T15:52:11Z</time></trkpt>
<trkpt lat="46.28561" lon="7.23211"><ele>1356.2</ele><time>2021-05-23T15:52:21Z</time></trkpt>
<trkpt lat="46.28563" lon="7.23207"><ele>1358.2</ele><time>2021-05-23T15:52:55Z</time></trkpt>
<trkpt lat="46.28564" lon="7.23208"><ele>1359.2</ele><time>2021-05-23T15:53:14Z</time></trkpt>
<trkpt lat="46.28562" lon="7.23209"><ele>1359.4</ele><time>2021-05-23T15:53:46Z</time></trkpt>
<trkpt lat="46.28562" lon="7.23209"><ele>1359.4</ele><time>2021-05-23T15:53:47Z</time></trkpt>
<trkpt lat="46.28562" lon="7.23211"><ele>1359.8</ele><time>2021-05-23T15:53:53Z</time></trkpt>
<trkpt lat="46.28562" lon="7.23211"><ele>1360.2</ele><time>2021-05-23T15:54:02Z</time></trkpt>
<trkpt lat="46.28562" lon="7.23211"><ele>1360.4</ele><time>2021-05-23T15:54:16Z</time></trkpt>
<trkpt lat="46.28563" lon="7.23211"><ele>1360.4</ele><time>2021-05-23T15:54:22Z</time></trkpt>
<trkpt lat="46.28563" lon="7.2321"><ele>1360.2</ele><time>2021-05-23T15:54:25Z</time></trkpt>
<trkpt lat="46.28564" lon="7.23209"><ele>1360.4</ele><time>2021-05-23T15:54:42Z</time></trkpt>
<trkpt lat="46.28563" lon="7.23208"><ele>1360.6</ele><time>2021-05-23T15:54:52Z</time></trkpt>
<trkpt lat="46.28562" lon="7.23207"><ele>1361</ele><time>2021-05-23T15:54:58Z</time></trkpt>
<trkpt lat="46.28561" lon="7.23209"><ele>1361</ele><time>2021-05-23T15:55:10Z</time></trkpt>
<trkpt lat="46.28561" lon="7.23208"><ele>1361.2</ele><time>2021-05-23T15:55:14Z</time></trkpt>
<trkpt lat="46.28562" lon="7.23208"><ele>1361</ele><time>2021-05-23T15:55:25Z</time></trkpt>
<trkpt lat="46.2856" lon="7.23207"><ele>1361.6</ele><time>2021-05-23T15:55:52Z</time></trkpt>
<trkpt lat="46.2856" lon="7.23207"><ele>1361.6</ele><time>2021-05-23T15:55:58Z</time></trkpt>
<trkpt lat="46.28559" lon="7.23205"><ele>1361.6</ele><time>2021-05-23T15:56:05Z</time></trkpt>
<trkpt lat="46.2856" lon="7.23204"><ele>1361.6</ele><time>2021-05-23T15:56:08Z</time></trkpt>
<trkpt lat="46.2856" lon="7.23205"><ele>1361.6</ele><time>2021-05-23T15:56:10Z</time></trkpt>
<trkpt lat="46.2856" lon="7.23205"><ele>1361.6</ele><time>2021-05-23T15:56:12Z</time></trkpt>
<trkpt lat="46.2856" lon="7.23205"><ele>1361.8</ele><time>2021-05-23T15:56:14Z</time></trkpt>
<trkpt lat="46.28559" lon="7.23206"><ele>1361.8</ele><time>2021-05-23T15:56:18Z</time></trkpt>
<trkpt lat="46.28558" lon="7.23206"><ele>1361.6</ele><time>2021-05-23T15:56:25Z</time></trkpt>
<trkpt lat="46.28558" lon="7.23204"><ele>1361.6</ele><time>2021-05-23T15:56:32Z</time></trkpt>
<trkpt lat="46.28555" lon="7.23204"><ele>1361.4</ele><time>2021-05-23T15:56:35Z</time></trkpt>
<trkpt lat="46.28543" lon="7.23224"><ele>1360</ele><time>2021-05-23T15:56:41Z</time></trkpt>
<trkpt lat="46.28528" lon="7.23224"><ele>1358.2</ele><time>2021-05-23T15:56:44Z</time></trkpt>
<trkpt lat="46.28515" lon="7.23212"><ele>1356.8</ele><time>2021-05-23T15:56:47Z</time></trkpt>
<trkpt lat="46.2851" lon="7.23206"><ele>1356.4</ele><time>2021-05-23T15:56:48Z</time></trkpt>
<trkpt lat="46.28496" lon="7.23189"><ele>1354.8</ele><time>2021-05-23T15:56:51Z</time></trkpt>
<trkpt lat="46.2848" lon="7.23169"><ele>1353</ele><time>2021-05-23T15:56:54Z</time></trkpt>
<trkpt lat="46.28462" lon="7.23149"><ele>1350.8</ele><time>2021-05-23T15:56:57Z</time></trkpt>
<trkpt lat="46.28442" lon="7.23128"><ele>1348.4</ele><time>2021-05-23T15:57:00Z</time></trkpt>
<trkpt lat="46.28421" lon="7.23107"><ele>1346</ele><time>2021-05-23T15:57:03Z</time></trkpt>
<trkpt lat="46.28399" lon="7.23085"><ele>1343.6</ele><time>2021-05-23T15:57:06Z</time></trkpt>
<trkpt lat="46.28377" lon="7.23064"><ele>1341</ele><time>2021-05-23T15:57:09Z</time></trkpt>
<trkpt lat="46.2837" lon="7.23059"><ele>1340.2</ele><time>2021-05-23T15:57:10Z</time></trkpt>
<trkpt lat="46.28347" lon="7.23058"><ele>1338</ele><time>2021-05-23T15:57:13Z</time></trkpt>
<trkpt lat="46.28329" lon="7.23066"><ele>1336</ele><time>2021-05-23T15:57:15Z</time></trkpt>
<trkpt lat="46.2831" lon="7.23075"><ele>1333.8</ele><time>2021-05-23T15:57:17Z</time></trkpt>
<trkpt lat="46.28291" lon="7.23083"><ele>1332.2</ele><time>2021-05-23T15:57:19Z</time></trkpt>
<trkpt lat="46.28271" lon="7.23092"><ele>1331.4</ele><time>2021-05-23T15:57:21Z</time></trkpt>
<trkpt lat="46.28253" lon="7.23102"><ele>1330.8</ele><time>2021-05-23T15:57:23Z</time></trkpt>
<trkpt lat="46.28237" lon="7.23114"><ele>1330.2</ele><time>2021-05-23T15:57:25Z</time></trkpt>
<trkpt lat="46.28229" lon="7.23119"><ele>1329.8</ele><time>2021-05-23T15:57:26Z</time></trkpt>
<trkpt lat="46.28203" lon="7.23126"><ele>1329</ele><time>2021-05-23T15:57:29Z</time></trkpt>
<trkpt lat="46.28195" lon="7.23128"><ele>1328.8</ele><time>2021-05-23T15:57:30Z</time></trkpt>
<trkpt lat="46.28171" lon="7.2314"><ele>1328.2</ele><time>2021-05-23T15:57:33Z</time></trkpt>
<trkpt lat="46.28163" lon="7.23145"><ele>1328</ele><time>2021-05-23T15:57:34Z</time></trkpt>
<trkpt lat="46.28143" lon="7.23168"><ele>1327.2</ele><time>2021-05-23T15:57:37Z</time></trkpt>
<trkpt lat="46.28124" lon="7.23193"><ele>1326.2</ele><time>2021-05-23T15:57:40Z</time></trkpt>
<trkpt lat="46.28105" lon="7.23217"><ele>1325.4</ele><time>2021-05-23T15:57:43Z</time></trkpt>
<trkpt lat="46.28091" lon="7.23232"><ele>1325</ele><time>2021-05-23T15:57:45Z</time></trkpt>
<trkpt lat="46.28069" lon="7.23248"><ele>1323.8</ele><time>2021-05-23T15:57:48Z</time></trkpt>
<trkpt lat="46.28046" lon="7.23259"><ele>1323</ele><time>2021-05-23T15:57:51Z</time></trkpt>
<trkpt lat="46.2803" lon="7.23267"><ele>1321.6</ele><time>2021-05-23T15:57:53Z</time></trkpt>
<trkpt lat="46.2801" lon="7.23291"><ele>1320.4</ele><time>2021-05-23T15:57:56Z</time></trkpt>
<trkpt lat="46.28004" lon="7.23301"><ele>1320</ele><time>2021-05-23T15:57:57Z</time></trkpt>
<trkpt lat="46.27991" lon="7.23321"><ele>1318.8</ele><time>2021-05-23T15:57:59Z</time></trkpt>
<trkpt lat="46.2798" lon="7.23342"><ele>1317.6</ele><time>2021-05-23T15:58:01Z</time></trkpt>
<trkpt lat="46.27971" lon="7.23365"><ele>1316.6</ele><time>2021-05-23T15:58:03Z</time></trkpt>
<trkpt lat="46.27966" lon="7.2339"><ele>1315.8</ele><time>2021-05-23T15:58:05Z</time></trkpt>
<trkpt lat="46.27961" lon="7.23412"><ele>1314.8</ele><time>2021-05-23T15:58:07Z</time></trkpt>
<trkpt lat="46.27946" lon="7.23429"><ele>1313.6</ele><time>2021-05-23T15:58:09Z</time></trkpt>
<trkpt lat="46.27926" lon="7.23437"><ele>1312.6</ele><time>2021-05-23T15:58:11Z</time></trkpt>
<trkpt lat="46.27916" lon="7.2344"><ele>1312</ele><time>2021-05-23T15:58:12Z</time></trkpt>
<trkpt lat="46.27893" lon="7.23435"><ele>1310.2</ele><time>2021-05-23T15:58:15Z</time></trkpt>
<trkpt lat="46.27886" lon="7.23404"><ele>1307</ele><time>2021-05-23T15:58:18Z</time></trkpt>
<trkpt lat="46.27886" lon="7.2337"><ele>1305</ele><time>2021-05-23T15:58:21Z</time></trkpt>
<trkpt lat="46.27863" lon="7.23355"><ele>1303.2</ele><time>2021-05-23T15:58:24Z</time></trkpt>
<trkpt lat="46.27853" lon="7.23354"><ele>1302</ele><time>2021-05-23T15:58:25Z</time></trkpt>
<trkpt lat="46.27832" lon="7.23351"><ele>1300.8</ele><time>2021-05-23T15:58:27Z</time></trkpt>
<trkpt lat="46.27821" lon="7.23351"><ele>1300</ele><time>2021-05-23T15:58:28Z</time></trkpt>
<trkpt lat="46.27801" lon="7.23363"><ele>1299</ele><time>2021-05-23T15:58:30Z</time></trkpt>
<trkpt lat="46.27781" lon="7.2338"><ele>1297.6</ele><time>2021-05-23T15:58:32Z</time></trkpt>
<trkpt lat="46.27763" lon="7.23396"><ele>1296.4</ele><time>2021-05-23T15:58:34Z</time></trkpt>
<trkpt lat="46.27753" lon="7.23402"><ele>1296.2</ele><time>2021-05-23T15:58:35Z</time></trkpt>
<trkpt lat="46.27734" lon="7.23409"><ele>1294.8</ele><time>2021-05-23T15:58:37Z</time></trkpt>
<trkpt lat="46.27713" lon="7.2341"><ele>1294</ele><time>2021-05-23T15:58:39Z</time></trkpt>
<trkpt lat="46.27703" lon="7.2341"><ele>1293</ele><time>2021-05-23T15:58:40Z</time></trkpt>
<trkpt lat="46.27683" lon="7.2341"><ele>1291.2</ele><time>2021-05-23T15:58:42Z</time></trkpt>
<trkpt lat="46.27666" lon="7.23421"><ele>1290</ele><time>2021-05-23T15:58:44Z</time></trkpt>
<trkpt lat="46.2765" lon="7.2344"><ele>1288.4</ele><time>2021-05-23T15:58:46Z</time></trkpt>
<trkpt lat="46.27633" lon="7.23462"><ele>1286.8</ele><time>2021-05-23T15:58:48Z</time></trkpt>
<trkpt lat="46.27615" lon="7.23483"><ele>1285.2</ele><time>2021-05-23T15:58:50Z</time></trkpt>
<trkpt lat="46.27596" lon="7.23504"><ele>1283.4</ele><time>2021-05-23T15:58:52Z</time></trkpt>
<trkpt lat="46.27581" lon="7.23523"><ele>1281.6</ele><time>2021-05-23T15:58:54Z</time></trkpt>
<trkpt lat="46.27568" lon="7.23537"><ele>1279</ele><time>2021-05-23T15:58:56Z</time></trkpt>
<trkpt lat="46.27555" lon="7.23541"><ele>1277.2</ele><time>2021-05-23T15:58:58Z</time></trkpt>
<trkpt lat="46.27539" lon="7.23532"><ele>1274.6</ele><time>2021-05-23T15:59:01Z</time></trkpt>
<trkpt lat="46.2753" lon="7.23503"><ele>1271.8</ele><time>2021-05-23T15:59:04Z</time></trkpt>
<trkpt lat="46.27514" lon="7.23492"><ele>1269.4</ele><time>2021-05-23T15:59:07Z</time></trkpt>
<trkpt lat="46.27495" lon="7.23494"><ele>1266</ele><time>2021-05-23T15:59:10Z</time></trkpt>
<trkpt lat="46.27483" lon="7.23496"><ele>1263.8</ele><time>2021-05-23T15:59:12Z</time></trkpt>
<trkpt lat="46.27466" lon="7.23508"><ele>1260.2</ele><time>2021-05-23T15:59:15Z</time></trkpt>
<trkpt lat="46.27452" lon="7.23517"><ele>1257.2</ele><time>2021-05-23T15:59:17Z</time></trkpt>
<trkpt lat="46.27445" lon="7.2352"><ele>1256</ele><time>2021-05-23T15:59:18Z</time></trkpt>
<trkpt lat="46.27433" lon="7.23532"><ele>1253.2</ele><time>2021-05-23T15:59:20Z</time></trkpt>
<trkpt lat="46.27421" lon="7.23549"><ele>1251.4</ele><time>2021-05-23T15:59:22Z</time></trkpt>
<trkpt lat="46.27417" lon="7.2356"><ele>1250.4</ele><time>2021-05-23T15:59:23Z</time></trkpt>
<trkpt lat="46.27413" lon="7.23596"><ele>1248</ele><time>2021-05-23T15:59:26Z</time></trkpt>
<trkpt lat="46.2742" lon="7.23632"><ele>1246.8</ele><time>2021-05-23T15:59:29Z</time></trkpt>
<trkpt lat="46.27422" lon="7.23644"><ele>1246.2</ele><time>2021-05-23T15:59:30Z</time></trkpt>
<trkpt lat="46.27427" lon="7.23673"><ele>1244.4</ele><time>2021-05-23T15:59:33Z</time></trkpt>
<trkpt lat="46.27433" lon="7.23704"><ele>1241.8</ele><time>2021-05-23T15:59:37Z</time></trkpt>
<trkpt lat="46.27434" lon="7.23711"><ele>1241.4</ele><time>2021-05-23T15:59:38Z</time></trkpt>
<trkpt lat="46.27427" lon="7.23736"><ele>1239.6</ele><time>2021-05-23T15:59:42Z</time></trkpt>
<trkpt lat="46.27421" lon="7.23746"><ele>1238.8</ele><time>2021-05-23T15:59:44Z</time></trkpt>
<trkpt lat="46.27413" lon="7.23757"><ele>1238</ele><time>2021-05-23T15:59:46Z</time></trkpt>
<trkpt lat="46.27398" lon="7.23774"><ele>1237.2</ele><time>2021-05-23T15:59:49Z</time></trkpt>
<trkpt lat="46.27379" lon="7.23796"><ele>1236</ele><time>2021-05-23T15:59:52Z</time></trkpt>
<trkpt lat="46.27373" lon="7.23805"><ele>1235.6</ele><time>2021-05-23T15:59:53Z</time></trkpt>
<trkpt lat="46.27361" lon="7.23824"><ele>1234</ele><time>2021-05-23T15:59:55Z</time></trkpt>
<trkpt lat="46.27348" lon="7.23843"><ele>1233.4</ele><time>2021-05-23T15:59:57Z</time></trkpt>
<trkpt lat="46.27336" lon="7.23856"><ele>1233.8</ele><time>2021-05-23T15:59:59Z</time></trkpt>
<trkpt lat="46.27314" lon="7.23862"><ele>1233</ele><time>2021-05-23T16:00:02Z</time></trkpt>
<trkpt lat="46.27297" lon="7.23858"><ele>1231.8</ele><time>2021-05-23T16:00:04Z</time></trkpt>
<trkpt lat="46.27275" lon="7.23855"><ele>1230.4</ele><time>2021-05-23T16:00:07Z</time></trkpt>
<trkpt lat="46.27268" lon="7.23856"><ele>1229.8</ele><time>2021-05-23T16:00:08Z</time></trkpt>
<trkpt lat="46.27252" lon="7.23867"><ele>1228.2</ele><time>2021-05-23T16:00:11Z</time></trkpt>
<trkpt lat="46.27244" lon="7.23874"><ele>1227.2</ele><time>2021-05-23T16:00:13Z</time></trkpt>
<trkpt lat="46.27235" lon="7.23885"><ele>1223.8</ele><time>2021-05-23T16:00:17Z</time></trkpt>
<trkpt lat="46.27227" lon="7.23897"><ele>1222.2</ele><time>2021-05-23T16:00:20Z</time></trkpt>
<trkpt lat="46.27219" lon="7.23904"><ele>1221.2</ele><time>2021-05-23T16:00:22Z</time></trkpt>
<trkpt lat="46.27204" lon="7.23912"><ele>1217.8</ele><time>2021-05-23T16:00:25Z</time></trkpt>
<trkpt lat="46.27184" lon="7.23913"><ele>1213.8</ele><time>2021-05-23T16:00:28Z</time></trkpt>
<trkpt lat="46.27177" lon="7.23911"><ele>1212.4</ele><time>2021-05-23T16:00:29Z</time></trkpt>
<trkpt lat="46.27155" lon="7.23901"><ele>1207.8</ele><time>2021-05-23T16:00:32Z</time></trkpt>
<trkpt lat="46.27141" lon="7.23891"><ele>1205.6</ele><time>2021-05-23T16:00:34Z</time></trkpt>
<trkpt lat="46.27134" lon="7.23889"><ele>1203.8</ele><time>2021-05-23T16:00:35Z</time></trkpt>
<trkpt lat="46.27115" lon="7.23897"><ele>1201.6</ele><time>2021-05-23T16:00:38Z</time></trkpt>
<trkpt lat="46.27101" lon="7.23924"><ele>1199.6</ele><time>2021-05-23T16:00:41Z</time></trkpt>
<trkpt lat="46.271" lon="7.23964"><ele>1195.6</ele><time>2021-05-23T16:00:44Z</time></trkpt>
<trkpt lat="46.27105" lon="7.23993"><ele>1193.8</ele><time>2021-05-23T16:00:46Z</time></trkpt>
<trkpt lat="46.27109" lon="7.24023"><ele>1193</ele><time>2021-05-23T16:00:48Z</time></trkpt>
<trkpt lat="46.27109" lon="7.24037"><ele>1192.4</ele><time>2021-05-23T16:00:49Z</time></trkpt>
<trkpt lat="46.27103" lon="7.24061"><ele>1191.2</ele><time>2021-05-23T16:00:51Z</time></trkpt>
<trkpt lat="46.27084" lon="7.24076"><ele>1190.2</ele><time>2021-05-23T16:00:54Z</time></trkpt>
<trkpt lat="46.27079" lon="7.2408"><ele>1189.8</ele><time>2021-05-23T16:00:55Z</time></trkpt>
<trkpt lat="46.27063" lon="7.24092"><ele>1188.6</ele><time>2021-05-23T16:00:58Z</time></trkpt>
<trkpt lat="46.27045" lon="7.24113"><ele>1187.2</ele><time>2021-05-23T16:01:02Z</time></trkpt>
<trkpt lat="46.27031" lon="7.24132"><ele>1186.8</ele><time>2021-05-23T16:01:05Z</time></trkpt>
<trkpt lat="46.27017" lon="7.24153"><ele>1186.4</ele><time>2021-05-23T16:01:08Z</time></trkpt>
<trkpt lat="46.27006" lon="7.24167"><ele>1186.6</ele><time>2021-05-23T16:01:10Z</time></trkpt>
<trkpt lat="46.26993" lon="7.2419"><ele>1187</ele><time>2021-05-23T16:01:13Z</time></trkpt>
<trkpt lat="46.26989" lon="7.2421"><ele>1187.6</ele><time>2021-05-23T16:01:15Z</time></trkpt>
<trkpt lat="46.26986" lon="7.2422"><ele>1188</ele><time>2021-05-23T16:01:16Z</time></trkpt>
<trkpt lat="46.26968" lon="7.24242"><ele>1188.2</ele><time>2021-05-23T16:01:19Z</time></trkpt>
<trkpt lat="46.26961" lon="7.24247"><ele>1188.4</ele><time>2021-05-23T16:01:20Z</time></trkpt>
<trkpt lat="46.26949" lon="7.24254"><ele>1188.4</ele><time>2021-05-23T16:01:22Z</time></trkpt>
<trkpt lat="46.26929" lon="7.24269"><ele>1188.4</ele><time>2021-05-23T16:01:25Z</time></trkpt>
<trkpt lat="46.26912" lon="7.24296"><ele>1188</ele><time>2021-05-23T16:01:28Z</time></trkpt>
<trkpt lat="46.26907" lon="7.24306"><ele>1187.8</ele><time>2021-05-23T16:01:29Z</time></trkpt>
<trkpt lat="46.26895" lon="7.24327"><ele>1188</ele><time>2021-05-23T16:01:31Z</time></trkpt>
<trkpt lat="46.26882" lon="7.24346"><ele>1188</ele><time>2021-05-23T16:01:33Z</time></trkpt>
<trkpt lat="46.26869" lon="7.24365"><ele>1187.4</ele><time>2021-05-23T16:01:35Z</time></trkpt>
<trkpt lat="46.2685" lon="7.24392"><ele>1186.2</ele><time>2021-05-23T16:01:38Z</time></trkpt>
<trkpt lat="46.26836" lon="7.24415"><ele>1187.8</ele><time>2021-05-23T16:01:41Z</time></trkpt>
<trkpt lat="46.26831" lon="7.2442"><ele>1187.8</ele><time>2021-05-23T16:01:42Z</time></trkpt>
<trkpt lat="46.26811" lon="7.2442"><ele>1187</ele><time>2021-05-23T16:01:45Z</time></trkpt>
<trkpt lat="46.26804" lon="7.24417"><ele>1186.6</ele><time>2021-05-23T16:01:46Z</time></trkpt>
<trkpt lat="46.26781" lon="7.24403"><ele>1184.8</ele><time>2021-05-23T16:01:49Z</time></trkpt>
<trkpt lat="46.26772" lon="7.244"><ele>1184.8</ele><time>2021-05-23T16:01:50Z</time></trkpt>
<trkpt lat="46.26756" lon="7.24401"><ele>1184</ele><time>2021-05-23T16:01:52Z</time></trkpt>
<trkpt lat="46.26744" lon="7.24426"><ele>1181.8</ele><time>2021-05-23T16:01:55Z</time></trkpt>
<trkpt lat="46.26741" lon="7.24437"><ele>1181.4</ele><time>2021-05-23T16:01:56Z</time></trkpt>
<trkpt lat="46.26734" lon="7.24457"><ele>1181.2</ele><time>2021-05-23T16:01:58Z</time></trkpt>
<trkpt lat="46.26724" lon="7.24473"><ele>1181</ele><time>2021-05-23T16:02:00Z</time></trkpt>
<trkpt lat="46.26718" lon="7.24481"><ele>1181</ele><time>2021-05-23T16:02:01Z</time></trkpt>
<trkpt lat="46.26697" lon="7.24497"><ele>1180.8</ele><time>2021-05-23T16:02:04Z</time></trkpt>
<trkpt lat="46.26682" lon="7.24502"><ele>1181.4</ele><time>2021-05-23T16:02:06Z</time></trkpt>
<trkpt lat="46.2666" lon="7.2451"><ele>1181.4</ele><time>2021-05-23T16:02:09Z</time></trkpt>
<trkpt lat="46.26639" lon="7.24518"><ele>1181</ele><time>2021-05-23T16:02:12Z</time></trkpt>
<trkpt lat="46.2662" lon="7.24526"><ele>1181</ele><time>2021-05-23T16:02:15Z</time></trkpt>
<trkpt lat="46.26601" lon="7.24534"><ele>1180.8</ele><time>2021-05-23T16:02:18Z</time></trkpt>
<trkpt lat="46.26595" lon="7.24538"><ele>1180.4</ele><time>2021-05-23T16:02:19Z</time></trkpt>
<trkpt lat="46.26581" lon="7.24556"><ele>1179.6</ele><time>2021-05-23T16:02:22Z</time></trkpt>
<trkpt lat="46.26567" lon="7.24573"><ele>1178.8</ele><time>2021-05-23T16:02:25Z</time></trkpt>
<trkpt lat="46.26545" lon="7.24579"><ele>1177.6</ele><time>2021-05-23T16:02:29Z</time></trkpt>
<trkpt lat="46.26524" lon="7.24562"><ele>1175.8</ele><time>2021-05-23T16:02:33Z</time></trkpt>
<trkpt lat="46.26515" lon="7.24549"><ele>1175.2</ele><time>2021-05-23T16:02:35Z</time></trkpt>
<trkpt lat="46.26505" lon="7.24536"><ele>1175</ele><time>2021-05-23T16:02:37Z</time></trkpt>
<trkpt lat="46.26486" lon="7.2453"><ele>1174.4</ele><time>2021-05-23T16:02:40Z</time></trkpt>
<trkpt lat="46.26479" lon="7.2453"><ele>1174</ele><time>2021-05-23T16:02:41Z</time></trkpt>
<trkpt lat="46.26459" lon="7.2453"><ele>1172.8</ele><time>2021-05-23T16:02:44Z</time></trkpt>
<trkpt lat="46.26438" lon="7.24527"><ele>1172.6</ele><time>2021-05-23T16:02:47Z</time></trkpt>
<trkpt lat="46.26425" lon="7.24524"><ele>1172</ele><time>2021-05-23T16:02:49Z</time></trkpt>
<trkpt lat="46.26407" lon="7.24527"><ele>1171.4</ele><time>2021-05-23T16:02:52Z</time></trkpt>
<trkpt lat="46.26401" lon="7.24529"><ele>1171.2</ele><time>2021-05-23T16:02:53Z</time></trkpt>
<trkpt lat="46.26378" lon="7.24537"><ele>1172.4</ele><time>2021-05-23T16:02:57Z</time></trkpt>
<trkpt lat="46.26356" lon="7.24545"><ele>1172.2</ele><time>2021-05-23T16:03:01Z</time></trkpt>
<trkpt lat="46.2634" lon="7.24548"><ele>1171.8</ele><time>2021-05-23T16:03:04Z</time></trkpt>
<trkpt lat="46.26318" lon="7.24545"><ele>1172.6</ele><time>2021-05-23T16:03:08Z</time></trkpt>
<trkpt lat="46.26295" lon="7.24538"><ele>1172.6</ele><time>2021-05-23T16:03:12Z</time></trkpt>
<trkpt lat="46.26275" lon="7.24532"><ele>1173.2</ele><time>2021-05-23T16:03:15Z</time></trkpt>
<trkpt lat="46.26269" lon="7.24531"><ele>1173.2</ele><time>2021-05-23T16:03:16Z</time></trkpt>
<trkpt lat="46.26247" lon="7.24531"><ele>1174</ele><time>2021-05-23T16:03:19Z</time></trkpt>
<trkpt lat="46.26227" lon="7.24528"><ele>1173.8</ele><time>2021-05-23T16:03:22Z</time></trkpt>
<trkpt lat="46.26208" lon="7.24521"><ele>1173.2</ele><time>2021-05-23T16:03:25Z</time></trkpt>
<trkpt lat="46.26185" lon="7.2451"><ele>1170.8</ele><time>2021-05-23T16:03:29Z</time></trkpt>
<trkpt lat="46.26165" lon="7.245"><ele>1169.8</ele><time>2021-05-23T16:03:33Z</time></trkpt>
<trkpt lat="46.26151" lon="7.24492"><ele>1169.6</ele><time>2021-05-23T16:03:36Z</time></trkpt>
<trkpt lat="46.26137" lon="7.24472"><ele>1169.2</ele><time>2021-05-23T16:03:40Z</time></trkpt>
<trkpt lat="46.26127" lon="7.24442"><ele>1169.4</ele><time>2021-05-23T16:03:44Z</time></trkpt>
<trkpt lat="46.26113" lon="7.24424"><ele>1169.6</ele><time>2021-05-23T16:03:47Z</time></trkpt>
<trkpt lat="46.26095" lon="7.24413"><ele>1169.8</ele><time>2021-05-23T16:03:50Z</time></trkpt>
<trkpt lat="46.26076" lon="7.24413"><ele>1170.2</ele><time>2021-05-23T16:03:53Z</time></trkpt>
<trkpt lat="46.26064" lon="7.24419"><ele>1170.2</ele><time>2021-05-23T16:03:55Z</time></trkpt>
<trkpt lat="46.26044" lon="7.24431"><ele>1170.6</ele><time>2021-05-23T16:03:58Z</time></trkpt>
<trkpt lat="46.2603" lon="7.24438"><ele>1170.8</ele><time>2021-05-23T16:04:00Z</time></trkpt>
<trkpt lat="46.26008" lon="7.24433"><ele>1170.8</ele><time>2021-05-23T16:04:03Z</time></trkpt>
<trkpt lat="46.25991" lon="7.24415"><ele>1170.8</ele><time>2021-05-23T16:04:06Z</time></trkpt>
<trkpt lat="46.25985" lon="7.2441"><ele>1170.8</ele><time>2021-05-23T16:04:07Z</time></trkpt>
<trkpt lat="46.25967" lon="7.24406"><ele>1172.4</ele><time>2021-05-23T16:04:10Z</time></trkpt>
<trkpt lat="46.25949" lon="7.24414"><ele>1172.4</ele><time>2021-05-23T16:04:13Z</time></trkpt>
<trkpt lat="46.25939" lon="7.24424"><ele>1172.2</ele><time>2021-05-23T16:04:15Z</time></trkpt>
<trkpt lat="46.25918" lon="7.24441"><ele>1172</ele><time>2021-05-23T16:04:19Z</time></trkpt>
<trkpt lat="46.25903" lon="7.24454"><ele>1171.8</ele><time>2021-05-23T16:04:22Z</time></trkpt>
<trkpt lat="46.25888" lon="7.24458"><ele>1171.6</ele><time>2021-05-23T16:04:24Z</time></trkpt>
<trkpt lat="46.2587" lon="7.24464"><ele>1171.8</ele><time>2021-05-23T16:04:25Z</time></trkpt>
<trkpt lat="46.25857" lon="7.2446"><ele>1172.2</ele><time>2021-05-23T16:04:27Z</time></trkpt>
<trkpt lat="46.2584" lon="7.24471"><ele>1172.6</ele><time>2021-05-23T16:04:30Z</time></trkpt>
<trkpt lat="46.25836" lon="7.24479"><ele>1173.2</ele><time>2021-05-23T16:04:31Z</time></trkpt>
<trkpt lat="46.25826" lon="7.24508"><ele>1173.6</ele><time>2021-05-23T16:04:35Z</time></trkpt>
<trkpt lat="46.25826" lon="7.24518"><ele>1173.4</ele><time>2021-05-23T16:04:36Z</time></trkpt>
<trkpt lat="46.25829" lon="7.24528"><ele>1173.8</ele><time>2021-05-23T16:04:37Z</time></trkpt>
<trkpt lat="46.25837" lon="7.24557"><ele>1174.2</ele><time>2021-05-23T16:04:40Z</time></trkpt>
<trkpt lat="46.25839" lon="7.24574"><ele>1174.4</ele><time>2021-05-23T16:04:42Z</time></trkpt>
<trkpt lat="46.25824" lon="7.24598"><ele>1175.2</ele><time>2021-05-23T16:04:46Z</time></trkpt>
<trkpt lat="46.25819" lon="7.24603"><ele>1175.8</ele><time>2021-05-23T16:04:47Z</time></trkpt>
<trkpt lat="46.25808" lon="7.24612"><ele>1176.2</ele><time>2021-05-23T16:04:49Z</time></trkpt>
<trkpt lat="46.25789" lon="7.24618"><ele>1177.6</ele><time>2021-05-23T16:04:52Z</time></trkpt>
<trkpt lat="46.25783" lon="7.24622"><ele>1178.2</ele><time>2021-05-23T16:04:53Z</time></trkpt>
<trkpt lat="46.25772" lon="7.2463"><ele>1178.8</ele><time>2021-05-23T16:04:55Z</time></trkpt>
<trkpt lat="46.25758" lon="7.24648"><ele>1179.6</ele><time>2021-05-23T16:04:58Z</time></trkpt>
<trkpt lat="46.25743" lon="7.24665"><ele>1180</ele><time>2021-05-23T16:05:01Z</time></trkpt>
<trkpt lat="46.25732" lon="7.24676"><ele>1180.2</ele><time>2021-05-23T16:05:03Z</time></trkpt>
<trkpt lat="46.25715" lon="7.24688"><ele>1180.6</ele><time>2021-05-23T16:05:06Z</time></trkpt>
<trkpt lat="46.25704" lon="7.24695"><ele>1180.8</ele><time>2021-05-23T16:05:08Z</time></trkpt>
<trkpt lat="46.25683" lon="7.24693"><ele>1180.8</ele><time>2021-05-23T16:05:12Z</time></trkpt>
<trkpt lat="46.25667" lon="7.24684"><ele>1181</ele><time>2021-05-23T16:05:16Z</time></trkpt>
<trkpt lat="46.25658" lon="7.2468"><ele>1181.2</ele><time>2021-05-23T16:05:18Z</time></trkpt>
<trkpt lat="46.25642" lon="7.24685"><ele>1180.8</ele><time>2021-05-23T16:05:22Z</time></trkpt>
<trkpt lat="46.25638" lon="7.24689"><ele>1180.8</ele><time>2021-05-23T16:05:23Z</time></trkpt>
<trkpt lat="46.25621" lon="7.247"><ele>1180.6</ele><time>2021-05-23T16:05:27Z</time></trkpt>
<trkpt lat="46.25604" lon="7.24711"><ele>1180.6</ele><time>2021-05-23T16:05:31Z</time></trkpt>
<trkpt lat="46.25595" lon="7.24716"><ele>1180.6</ele><time>2021-05-23T16:05:33Z</time></trkpt>
<trkpt lat="46.2558" lon="7.24712"><ele>1180</ele><time>2021-05-23T16:05:36Z</time></trkpt>
<trkpt lat="46.25566" lon="7.24706"><ele>1181</ele><time>2021-05-23T16:05:39Z</time></trkpt>
<trkpt lat="46.25548" lon="7.2472"><ele>1181.8</ele><time>2021-05-23T16:05:43Z</time></trkpt>
<trkpt lat="46.25544" lon="7.24726"><ele>1182.2</ele><time>2021-05-23T16:05:44Z</time></trkpt>
<trkpt lat="46.2553" lon="7.24743"><ele>1182.2</ele><time>2021-05-23T16:05:47Z</time></trkpt>
<trkpt lat="46.25519" lon="7.24752"><ele>1182.6</ele><time>2021-05-23T16:05:49Z</time></trkpt>
<trkpt lat="46.25504" lon="7.24765"><ele>1181.8</ele><time>2021-05-23T16:05:52Z</time></trkpt>
<trkpt lat="46.25483" lon="7.24752"><ele>1180.6</ele><time>2021-05-23T16:05:56Z</time></trkpt>
<trkpt lat="46.2546" lon="7.24754"><ele>1180.4</ele><time>2021-05-23T16:06:00Z</time></trkpt>
<trkpt lat="46.25454" lon="7.24757"><ele>1180.4</ele><time>2021-05-23T16:06:01Z</time></trkpt>
<trkpt lat="46.25447" lon="7.2476"><ele>1180.4</ele><time>2021-05-23T16:06:02Z</time></trkpt>
<trkpt lat="46.25427" lon="7.24764"><ele>1180.6</ele><time>2021-05-23T16:06:05Z</time></trkpt>
<trkpt lat="46.25405" lon="7.24772"><ele>1181</ele><time>2021-05-23T16:06:08Z</time></trkpt>
<trkpt lat="46.25385" lon="7.24783"><ele>1181</ele><time>2021-05-23T16:06:11Z</time></trkpt>
<trkpt lat="46.25378" lon="7.24786"><ele>1181</ele><time>2021-05-23T16:06:12Z</time></trkpt>
<trkpt lat="46.25359" lon="7.24794"><ele>1180.8</ele><time>2021-05-23T16:06:15Z</time></trkpt>
<trkpt lat="46.25341" lon="7.24803"><ele>1180.8</ele><time>2021-05-23T16:06:18Z</time></trkpt>
<trkpt lat="46.25323" lon="7.24812"><ele>1180.8</ele><time>2021-05-23T16:06:21Z</time></trkpt>
<trkpt lat="46.25305" lon="7.2482"><ele>1180.6</ele><time>2021-05-23T16:06:24Z</time></trkpt>
<trkpt lat="46.25305" lon="7.2482"><ele>1180.6</ele><time>2021-05-23T16:06:24Z</time></trkpt>
<trkpt lat="46.25305" lon="7.2482"><ele>1180.6</ele><time>2021-05-23T16:06:24Z</time></trkpt>
<trkpt lat="46.25305" lon="7.2482"><ele>1180.6</ele><time>2021-05-23T16:06:24Z</time></trkpt>
<trkpt lat="46.25305" lon="7.2482"><ele>1180.6</ele><time>2021-05-23T16:06:24Z</time></trkpt>
<trkpt lat="46.25305" lon="7.2482"><ele>1180.6</ele><time>2021-05-23T16:06:24Z</time></trkpt>
<trkpt lat="46.25305" lon="7.2482"><ele>1180.6</ele><time>2021-05-23T16:06:24Z</time></trkpt>
<trkpt lat="46.25305" lon="7.2482"><ele>1180.6</ele><time>2021-05-23T16:06:24Z</time></trkpt>
<trkpt lat="46.25051" lon="7.25021"><ele>1181.2</ele><time>2021-05-23T16:07:46Z</time></trkpt>
<trkpt lat="46.25031" lon="7.25041"><ele>1181.4</ele><time>2021-05-23T16:07:51Z</time></trkpt>
<trkpt lat="46.25031" lon="7.25041"><ele>1181.4</ele><time>2021-05-23T16:07:51Z</time></trkpt>
<trkpt lat="46.24905" lon="7.25087"><ele>1180</ele><time>2021-05-23T16:08:15Z</time></trkpt>
<trkpt lat="46.24894" lon="7.25105"><ele>1181</ele><time>2021-05-23T16:08:18Z</time></trkpt>
<trkpt lat="46.24889" lon="7.25133"><ele>1175.4</ele><time>2021-05-23T16:08:22Z</time></trkpt>
<trkpt lat="46.24901" lon="7.25162"><ele>1173.6</ele><time>2021-05-23T16:08:26Z</time></trkpt>
<trkpt lat="46.24904" lon="7.25169"><ele>1173</ele><time>2021-05-23T16:08:27Z</time></trkpt>
<trkpt lat="46.24911" lon="7.25194"><ele>1173.4</ele><time>2021-05-23T16:08:30Z</time></trkpt>
<trkpt lat="46.2491" lon="7.25221"><ele>1174.4</ele><time>2021-05-23T16:08:33Z</time></trkpt>
<trkpt lat="46.24904" lon="7.25251"><ele>1175.8</ele><time>2021-05-23T16:08:37Z</time></trkpt>
<trkpt lat="46.24896" lon="7.25271"><ele>1177.4</ele><time>2021-05-23T16:08:40Z</time></trkpt>
<trkpt lat="46.24888" lon="7.25285"><ele>1178.6</ele><time>2021-05-23T16:08:42Z</time></trkpt>
<trkpt lat="46.24875" lon="7.25304"><ele>1180.4</ele><time>2021-05-23T16:08:45Z</time></trkpt>
<trkpt lat="46.24869" lon="7.2531"><ele>1181</ele><time>2021-05-23T16:08:46Z</time></trkpt>
<trkpt lat="46.24852" lon="7.25328"><ele>1182.8</ele><time>2021-05-23T16:08:49Z</time></trkpt>
<trkpt lat="46.24837" lon="7.25349"><ele>1183.6</ele><time>2021-05-23T16:08:52Z</time></trkpt>
<trkpt lat="46.24824" lon="7.25372"><ele>1183.8</ele><time>2021-05-23T16:08:55Z</time></trkpt>
<trkpt lat="46.24802" lon="7.2538"><ele>1184.4</ele><time>2021-05-23T16:08:58Z</time></trkpt>
<trkpt lat="46.24781" lon="7.25376"><ele>1184.4</ele><time>2021-05-23T16:09:01Z</time></trkpt>
<trkpt lat="46.2476" lon="7.25374"><ele>1184.2</ele><time>2021-05-23T16:09:04Z</time></trkpt>
<trkpt lat="46.24743" lon="7.25386"><ele>1183.8</ele><time>2021-05-23T16:09:07Z</time></trkpt>
<trkpt lat="46.24726" lon="7.25406"><ele>1184.4</ele><time>2021-05-23T16:09:10Z</time></trkpt>
<trkpt lat="46.24722" lon="7.25414"><ele>1184.8</ele><time>2021-05-23T16:09:11Z</time></trkpt>
<trkpt lat="46.24708" lon="7.25438"><ele>1186</ele><time>2021-05-23T16:09:14Z</time></trkpt>
<trkpt lat="46.24698" lon="7.25454"><ele>1186.6</ele><time>2021-05-23T16:09:16Z</time></trkpt>
<trkpt lat="46.24689" lon="7.25469"><ele>1186.6</ele><time>2021-05-23T16:09:18Z</time></trkpt>
<trkpt lat="46.24682" lon="7.25501"><ele>1184.2</ele><time>2021-05-23T16:09:21Z</time></trkpt>
<trkpt lat="46.2468" lon="7.25522"><ele>1182.8</ele><time>2021-05-23T16:09:23Z</time></trkpt>
<trkpt lat="46.24678" lon="7.25531"><ele>1182.4</ele><time>2021-05-23T16:09:24Z</time></trkpt>
<trkpt lat="46.24662" lon="7.25543"><ele>1181.6</ele><time>2021-05-23T16:09:27Z</time></trkpt>
<trkpt lat="46.24644" lon="7.25527"><ele>1181.2</ele><time>2021-05-23T16:09:30Z</time></trkpt>
<trkpt lat="46.24632" lon="7.25501"><ele>1180.4</ele><time>2021-05-23T16:09:33Z</time></trkpt>
<trkpt lat="46.24624" lon="7.25484"><ele>1179.8</ele><time>2021-05-23T16:09:35Z</time></trkpt>
<trkpt lat="46.24607" lon="7.25468"><ele>1179.4</ele><time>2021-05-23T16:09:38Z</time></trkpt>
<trkpt lat="46.24585" lon="7.25461"><ele>1178.8</ele><time>2021-05-23T16:09:41Z</time></trkpt>
<trkpt lat="46.24578" lon="7.25459"><ele>1178.6</ele><time>2021-05-23T16:09:42Z</time></trkpt>
<trkpt lat="46.24566" lon="7.25456"><ele>1178.4</ele><time>2021-05-23T16:09:44Z</time></trkpt>
<trkpt lat="46.24545" lon="7.25467"><ele>1178</ele><time>2021-05-23T16:09:47Z</time></trkpt>
<trkpt lat="46.24522" lon="7.25473"><ele>1177.4</ele><time>2021-05-23T16:09:50Z</time></trkpt>
<trkpt lat="46.24501" lon="7.25494"><ele>1175.8</ele><time>2021-05-23T16:09:53Z</time></trkpt>
<trkpt lat="46.2449" lon="7.25515"><ele>1174.6</ele><time>2021-05-23T16:09:55Z</time></trkpt>
<trkpt lat="46.24481" lon="7.25541"><ele>1173.4</ele><time>2021-05-23T16:09:57Z</time></trkpt>
<trkpt lat="46.24476" lon="7.25555"><ele>1172.6</ele><time>2021-05-23T16:09:58Z</time></trkpt>
<trkpt lat="46.24468" lon="7.25581"><ele>1171.6</ele><time>2021-05-23T16:10:00Z</time></trkpt>
<trkpt lat="46.24463" lon="7.25594"><ele>1171.2</ele><time>2021-05-23T16:10:01Z</time></trkpt>
<trkpt lat="46.24451" lon="7.2562"><ele>1170.4</ele><time>2021-05-23T16:10:03Z</time></trkpt>
<trkpt lat="46.24437" lon="7.25643"><ele>1169.6</ele><time>2021-05-23T16:10:05Z</time></trkpt>
<trkpt lat="46.24422" lon="7.25667"><ele>1168</ele><time>2021-05-23T16:10:07Z</time></trkpt>
<trkpt lat="46.24408" lon="7.25691"><ele>1165.8</ele><time>2021-05-23T16:10:09Z</time></trkpt>
<trkpt lat="46.24395" lon="7.25715"><ele>1164.8</ele><time>2021-05-23T16:10:11Z</time></trkpt>
<trkpt lat="46.24391" lon="7.25728"><ele>1163.6</ele><time>2021-05-23T16:10:12Z</time></trkpt>
<trkpt lat="46.24388" lon="7.25756"><ele>1161.8</ele><time>2021-05-23T16:10:14Z</time></trkpt>
<trkpt lat="46.24389" lon="7.2577"><ele>1161.2</ele><time>2021-05-23T16:10:15Z</time></trkpt>
<trkpt lat="46.24389" lon="7.25783"><ele>1160.4</ele><time>2021-05-23T16:10:16Z</time></trkpt>
<trkpt lat="46.24388" lon="7.25795"><ele>1159.6</ele><time>2021-05-23T16:10:17Z</time></trkpt>
<trkpt lat="46.24375" lon="7.25827"><ele>1156.8</ele><time>2021-05-23T16:10:20Z</time></trkpt>
<trkpt lat="46.24352" lon="7.2584"><ele>1152.4</ele><time>2021-05-23T16:10:23Z</time></trkpt>
<trkpt lat="46.24334" lon="7.25829"><ele>1150.4</ele><time>2021-05-23T16:10:25Z</time></trkpt>
<trkpt lat="46.24326" lon="7.25822"><ele>1149.2</ele><time>2021-05-23T16:10:26Z</time></trkpt>
<trkpt lat="46.24317" lon="7.25816"><ele>1148.4</ele><time>2021-05-23T16:10:27Z</time></trkpt>
<trkpt lat="46.24299" lon="7.25814"><ele>1146.4</ele><time>2021-05-23T16:10:29Z</time></trkpt>
<trkpt lat="46.24279" lon="7.25818"><ele>1144.6</ele><time>2021-05-23T16:10:31Z</time></trkpt>
<trkpt lat="46.24268" lon="7.25818"><ele>1143.4</ele><time>2021-05-23T16:10:32Z</time></trkpt>
<trkpt lat="46.24248" lon="7.25811"><ele>1140.8</ele><time>2021-05-23T16:10:34Z</time></trkpt>
<trkpt lat="46.24226" lon="7.25801"><ele>1138.6</ele><time>2021-05-23T16:10:36Z</time></trkpt>
<trkpt lat="46.24204" lon="7.25794"><ele>1137.4</ele><time>2021-05-23T16:10:38Z</time></trkpt>
<trkpt lat="46.24195" lon="7.25791"><ele>1136.6</ele><time>2021-05-23T16:10:39Z</time></trkpt>
<trkpt lat="46.24175" lon="7.25808"><ele>1134.4</ele><time>2021-05-23T16:10:42Z</time></trkpt>
<trkpt lat="46.2417" lon="7.25816"><ele>1133.8</ele><time>2021-05-23T16:10:43Z</time></trkpt>
<trkpt lat="46.24154" lon="7.25842"><ele>1131.6</ele><time>2021-05-23T16:10:46Z</time></trkpt>
<trkpt lat="46.24133" lon="7.2586"><ele>1129.6</ele><time>2021-05-23T16:10:49Z</time></trkpt>
<trkpt lat="46.24118" lon="7.25864"><ele>1128</ele><time>2021-05-23T16:10:51Z</time></trkpt>
<trkpt lat="46.24102" lon="7.25872"><ele>1126.4</ele><time>2021-05-23T16:10:53Z</time></trkpt>
<trkpt lat="46.24079" lon="7.25893"><ele>1124.8</ele><time>2021-05-23T16:10:56Z</time></trkpt>
<trkpt lat="46.24064" lon="7.2591"><ele>1123.4</ele><time>2021-05-23T16:10:58Z</time></trkpt>
<trkpt lat="46.24054" lon="7.25917"><ele>1122.6</ele><time>2021-05-23T16:10:59Z</time></trkpt>
<trkpt lat="46.24035" lon="7.25922"><ele>1120.4</ele><time>2021-05-23T16:11:01Z</time></trkpt>
<trkpt lat="46.24025" lon="7.25926"><ele>1119.6</ele><time>2021-05-23T16:11:02Z</time></trkpt>
<trkpt lat="46.24009" lon="7.2594"><ele>1117.4</ele><time>2021-05-23T16:11:04Z</time></trkpt>
<trkpt lat="46.23991" lon="7.25952"><ele>1116</ele><time>2021-05-23T16:11:06Z</time></trkpt>
<trkpt lat="46.23972" lon="7.25957"><ele>1114.8</ele><time>2021-05-23T16:11:08Z</time></trkpt>
<trkpt lat="46.23954" lon="7.25957"><ele>1113.6</ele><time>2021-05-23T16:11:10Z</time></trkpt>
<trkpt lat="46.23944" lon="7.25957"><ele>1113.2</ele><time>2021-05-23T16:11:11Z</time></trkpt>
<trkpt lat="46.23927" lon="7.25953"><ele>1112.2</ele><time>2021-05-23T16:11:13Z</time></trkpt>
<trkpt lat="46.23901" lon="7.25947"><ele>1110.4</ele><time>2021-05-23T16:11:16Z</time></trkpt>
<trkpt lat="46.23879" lon="7.2594"><ele>1109</ele><time>2021-05-23T16:11:19Z</time></trkpt>
<trkpt lat="46.23864" lon="7.25935"><ele>1108.4</ele><time>2021-05-23T16:11:21Z</time></trkpt>
<trkpt lat="46.23843" lon="7.25927"><ele>1107.6</ele><time>2021-05-23T16:11:24Z</time></trkpt>
<trkpt lat="46.23823" lon="7.25917"><ele>1107.4</ele><time>2021-05-23T16:11:27Z</time></trkpt>
<trkpt lat="46.23804" lon="7.25908"><ele>1107.4</ele><time>2021-05-23T16:11:30Z</time></trkpt>
<trkpt lat="46.23781" lon="7.25905"><ele>1107.4</ele><time>2021-05-23T16:11:34Z</time></trkpt>
<trkpt lat="46.23776" lon="7.25906"><ele>1107.2</ele><time>2021-05-23T16:11:35Z</time></trkpt>
<trkpt lat="46.23756" lon="7.25911"><ele>1107.6</ele><time>2021-05-23T16:11:39Z</time></trkpt>
<trkpt lat="46.23736" lon="7.2591"><ele>1109</ele><time>2021-05-23T16:11:43Z</time></trkpt>
<trkpt lat="46.23727" lon="7.25907"><ele>1109.6</ele><time>2021-05-23T16:11:45Z</time></trkpt>
<trkpt lat="46.23705" lon="7.25902"><ele>1110.6</ele><time>2021-05-23T16:11:50Z</time></trkpt>
<trkpt lat="46.23697" lon="7.259"><ele>1111</ele><time>2021-05-23T16:11:52Z</time></trkpt>
<trkpt lat="46.23676" lon="7.25896"><ele>1113</ele><time>2021-05-23T16:11:57Z</time></trkpt>
<trkpt lat="46.23656" lon="7.25893"><ele>1114.2</ele><time>2021-05-23T16:12:02Z</time></trkpt>
<trkpt lat="46.2364" lon="7.2589"><ele>1115.4</ele><time>2021-05-23T16:12:05Z</time></trkpt>
<trkpt lat="46.23619" lon="7.25899"><ele>1115.8</ele><time>2021-05-23T16:12:09Z</time></trkpt>
<trkpt lat="46.23614" lon="7.25901"><ele>1115.2</ele><time>2021-05-23T16:12:10Z</time></trkpt>
<trkpt lat="46.23592" lon="7.25897"><ele>1112.8</ele><time>2021-05-23T16:12:14Z</time></trkpt>
<trkpt lat="46.23575" lon="7.25899"><ele>1113.4</ele><time>2021-05-23T16:12:17Z</time></trkpt>
<trkpt lat="46.23554" lon="7.25882"><ele>1112.6</ele><time>2021-05-23T16:12:21Z</time></trkpt>
<trkpt lat="46.23536" lon="7.25873"><ele>1112.8</ele><time>2021-05-23T16:12:24Z</time></trkpt>
<trkpt lat="46.23523" lon="7.25871"><ele>1112.2</ele><time>2021-05-23T16:12:26Z</time></trkpt>
<trkpt lat="46.23517" lon="7.25872"><ele>1112</ele><time>2021-05-23T16:12:27Z</time></trkpt>
<trkpt lat="46.23498" lon="7.25883"><ele>1111.4</ele><time>2021-05-23T16:12:30Z</time></trkpt>
<trkpt lat="46.23476" lon="7.25894"><ele>1111.2</ele><time>2021-05-23T16:12:33Z</time></trkpt>
<trkpt lat="46.23451" lon="7.25889"><ele>1110.2</ele><time>2021-05-23T16:12:36Z</time></trkpt>
<trkpt lat="46.23425" lon="7.25878"><ele>1109.4</ele><time>2021-05-23T16:12:39Z</time></trkpt>
<trkpt lat="46.2341" lon="7.25852"><ele>1108.2</ele><time>2021-05-23T16:12:42Z</time></trkpt>
<trkpt lat="46.23395" lon="7.25837"><ele>1107</ele><time>2021-05-23T16:12:44Z</time></trkpt>
<trkpt lat="46.23376" lon="7.2583"><ele>1105.8</ele><time>2021-05-23T16:12:46Z</time></trkpt>
<trkpt lat="46.23356" lon="7.25825"><ele>1104.2</ele><time>2021-05-23T16:12:48Z</time></trkpt>
<trkpt lat="46.23337" lon="7.2582"><ele>1103.4</ele><time>2021-05-23T16:12:50Z</time></trkpt>
<trkpt lat="46.23327" lon="7.25821"><ele>1103</ele><time>2021-05-23T16:12:51Z</time></trkpt>
<trkpt lat="46.2331" lon="7.25827"><ele>1102.4</ele><time>2021-05-23T16:12:53Z</time></trkpt>
<trkpt lat="46.23284" lon="7.25835"><ele>1102</ele><time>2021-05-23T16:12:56Z</time></trkpt>
<trkpt lat="46.23259" lon="7.25844"><ele>1100.2</ele><time>2021-05-23T16:12:59Z</time></trkpt>
<trkpt lat="46.23244" lon="7.2585"><ele>1098.6</ele><time>2021-05-23T16:13:01Z</time></trkpt>
<trkpt lat="46.23231" lon="7.25878"><ele>1096.6</ele><time>2021-05-23T16:13:04Z</time></trkpt>
<trkpt lat="46.23226" lon="7.25887"><ele>1096.2</ele><time>2021-05-23T16:13:05Z</time></trkpt>
<trkpt lat="46.23202" lon="7.259"><ele>1094.6</ele><time>2021-05-23T16:13:08Z</time></trkpt>
<trkpt lat="46.23178" lon="7.25895"><ele>1093.2</ele><time>2021-05-23T16:13:11Z</time></trkpt>
<trkpt lat="46.23158" lon="7.25895"><ele>1091.6</ele><time>2021-05-23T16:13:14Z</time></trkpt>
<trkpt lat="46.2315" lon="7.25899"><ele>1091.2</ele><time>2021-05-23T16:13:15Z</time></trkpt>
<trkpt lat="46.23141" lon="7.25901"><ele>1090.8</ele><time>2021-05-23T16:13:16Z</time></trkpt>
<trkpt lat="46.23124" lon="7.259"><ele>1089.4</ele><time>2021-05-23T16:13:18Z</time></trkpt>
<trkpt lat="46.23099" lon="7.25897"><ele>1086.6</ele><time>2021-05-23T16:13:21Z</time></trkpt>
<trkpt lat="46.23086" lon="7.25916"><ele>1082.8</ele><time>2021-05-23T16:13:24Z</time></trkpt>
<trkpt lat="46.23088" lon="7.25954"><ele>1079.2</ele><time>2021-05-23T16:13:27Z</time></trkpt>
<trkpt lat="46.23094" lon="7.25983"><ele>1077.4</ele><time>2021-05-23T16:13:29Z</time></trkpt>
<trkpt lat="46.23105" lon="7.26017"><ele>1068.2</ele><time>2021-05-23T16:13:31Z</time></trkpt>
<trkpt lat="46.23111" lon="7.26034"><ele>1065.2</ele><time>2021-05-23T16:13:32Z</time></trkpt>
<trkpt lat="46.23126" lon="7.26066"><ele>1059.8</ele><time>2021-05-23T16:13:34Z</time></trkpt>
<trkpt lat="46.23144" lon="7.26097"><ele>1055.2</ele><time>2021-05-23T16:13:36Z</time></trkpt>
<trkpt lat="46.23161" lon="7.26129"><ele>1050.8</ele><time>2021-05-23T16:13:38Z</time></trkpt>
<trkpt lat="46.23178" lon="7.26161"><ele>1046.8</ele><time>2021-05-23T16:13:40Z</time></trkpt>
<trkpt lat="46.23193" lon="7.26193"><ele>1042.6</ele><time>2021-05-23T16:13:42Z</time></trkpt>
<trkpt lat="46.2321" lon="7.26221"><ele>1038.6</ele><time>2021-05-23T16:13:44Z</time></trkpt>
<trkpt lat="46.23231" lon="7.26247"><ele>1034.8</ele><time>2021-05-23T16:13:46Z</time></trkpt>
<trkpt lat="46.23252" lon="7.26274"><ele>1031.2</ele><time>2021-05-23T16:13:48Z</time></trkpt>
<trkpt lat="46.2327" lon="7.26303"><ele>1028</ele><time>2021-05-23T16:13:50Z</time></trkpt>
<trkpt lat="46.23288" lon="7.26333"><ele>1024.4</ele><time>2021-05-23T16:13:52Z</time></trkpt>
<trkpt lat="46.23306" lon="7.2636"><ele>1020.6</ele><time>2021-05-23T16:13:54Z</time></trkpt>
<trkpt lat="46.23329" lon="7.26382"><ele>1017</ele><time>2021-05-23T16:13:56Z</time></trkpt>
<trkpt lat="46.23353" lon="7.26403"><ele>1012.8</ele><time>2021-05-23T16:13:58Z</time></trkpt>
<trkpt lat="46.23374" lon="7.26427"><ele>1008.8</ele><time>2021-05-23T16:14:00Z</time></trkpt>
<trkpt lat="46.23394" lon="7.26454"><ele>1005</ele><time>2021-05-23T16:14:02Z</time></trkpt>
<trkpt lat="46.23412" lon="7.26481"><ele>1001</ele><time>2021-05-23T16:14:04Z</time></trkpt>
<trkpt lat="46.23421" lon="7.26496"><ele>999.2</ele><time>2021-05-23T16:14:05Z</time></trkpt>
<trkpt lat="46.23435" lon="7.26528"><ele>995.6</ele><time>2021-05-23T16:14:07Z</time></trkpt>
<trkpt lat="46.23446" lon="7.26562"><ele>992.2</ele><time>2021-05-23T16:14:09Z</time></trkpt>
<trkpt lat="46.23458" lon="7.26596"><ele>988.6</ele><time>2021-05-23T16:14:11Z</time></trkpt>
<trkpt lat="46.23473" lon="7.26627"><ele>984.8</ele><time>2021-05-23T16:14:13Z</time></trkpt>
<trkpt lat="46.2349" lon="7.26654"><ele>981</ele><time>2021-05-23T16:14:15Z</time></trkpt>
<trkpt lat="46.23509" lon="7.26682"><ele>977.2</ele><time>2021-05-23T16:14:17Z</time></trkpt>
<trkpt lat="46.23524" lon="7.26713"><ele>973.6</ele><time>2021-05-23T16:14:19Z</time></trkpt>
<trkpt lat="46.23539" lon="7.26744"><ele>970.4</ele><time>2021-05-23T16:14:21Z</time></trkpt>
<trkpt lat="46.23552" lon="7.26775"><ele>967</ele><time>2021-05-23T16:14:23Z</time></trkpt>
<trkpt lat="46.23564" lon="7.26807"><ele>963.6</ele><time>2021-05-23T16:14:25Z</time></trkpt>
<trkpt lat="46.23577" lon="7.26839"><ele>960.6</ele><time>2021-05-23T16:14:27Z</time></trkpt>
<trkpt lat="46.23591" lon="7.26868"><ele>957.4</ele><time>2021-05-23T16:14:29Z</time></trkpt>
<trkpt lat="46.23606" lon="7.26895"><ele>954.2</ele><time>2021-05-23T16:14:31Z</time></trkpt>
<trkpt lat="46.23622" lon="7.26921"><ele>950.8</ele><time>2021-05-23T16:14:33Z</time></trkpt>
<trkpt lat="46.23638" lon="7.26946"><ele>948.2</ele><time>2021-05-23T16:14:35Z</time></trkpt>
<trkpt lat="46.23655" lon="7.26971"><ele>945.6</ele><time>2021-05-23T16:14:37Z</time></trkpt>
<trkpt lat="46.2367" lon="7.26999"><ele>942.4</ele><time>2021-05-23T16:14:39Z</time></trkpt>
<trkpt lat="46.23681" lon="7.27027"><ele>939.4</ele><time>2021-05-23T16:14:41Z</time></trkpt>
<trkpt lat="46.23689" lon="7.27052"><ele>937.2</ele><time>2021-05-23T16:14:43Z</time></trkpt>
<trkpt lat="46.23686" lon="7.27084"><ele>933</ele><time>2021-05-23T16:14:46Z</time></trkpt>
<trkpt lat="46.23669" lon="7.27107"><ele>928.2</ele><time>2021-05-23T16:14:49Z</time></trkpt>
<trkpt lat="46.23662" lon="7.27112"><ele>926.8</ele><time>2021-05-23T16:14:50Z</time></trkpt>
<trkpt lat="46.23657" lon="7.27118"><ele>925.2</ele><time>2021-05-23T16:14:51Z</time></trkpt>
<trkpt lat="46.23648" lon="7.27126"><ele>922.6</ele><time>2021-05-23T16:14:53Z</time></trkpt>
<trkpt lat="46.23631" lon="7.27111"><ele>918.4</ele><time>2021-05-23T16:14:57Z</time></trkpt>
<trkpt lat="46.23625" lon="7.27104"><ele>917.6</ele><time>2021-05-23T16:14:58Z</time></trkpt>
<trkpt lat="46.2362" lon="7.27095"><ele>916.8</ele><time>2021-05-23T16:14:59Z</time></trkpt>
<trkpt lat="46.23608" lon="7.27068"><ele>915</ele><time>2021-05-23T16:15:02Z</time></trkpt>
<trkpt lat="46.23604" lon="7.2706"><ele>914.4</ele><time>2021-05-23T16:15:03Z</time></trkpt>
<trkpt lat="46.23591" lon="7.27058"><ele>913.8</ele><time>2021-05-23T16:15:05Z</time></trkpt>
<trkpt lat="46.23586" lon="7.27063"><ele>913</ele><time>2021-05-23T16:15:06Z</time></trkpt>
<trkpt lat="46.23582" lon="7.27071"><ele>913.6</ele><time>2021-05-23T16:15:07Z</time></trkpt>
<trkpt lat="46.23577" lon="7.27101"><ele>913.2</ele><time>2021-05-23T16:15:10Z</time></trkpt>
<trkpt lat="46.23574" lon="7.27132"><ele>912.8</ele><time>2021-05-23T16:15:13Z</time></trkpt>
<trkpt lat="46.23575" lon="7.27143"><ele>912.6</ele><time>2021-05-23T16:15:14Z</time></trkpt>
<trkpt lat="46.2358" lon="7.27175"><ele>911.8</ele><time>2021-05-23T16:15:17Z</time></trkpt>
<trkpt lat="46.23584" lon="7.27198"><ele>911.6</ele><time>2021-05-23T16:15:19Z</time></trkpt>
<trkpt lat="46.23586" lon="7.27233"><ele>911.8</ele><time>2021-05-23T16:15:22Z</time></trkpt>
<trkpt lat="46.23587" lon="7.27266"><ele>911.4</ele><time>2021-05-23T16:15:25Z</time></trkpt>
<trkpt lat="46.23589" lon="7.27287"><ele>911</ele><time>2021-05-23T16:15:27Z</time></trkpt>
<trkpt lat="46.23591" lon="7.27296"><ele>910.8</ele><time>2021-05-23T16:15:28Z</time></trkpt>
<trkpt lat="46.23596" lon="7.27325"><ele>909.4</ele><time>2021-05-23T16:15:31Z</time></trkpt>
<trkpt lat="46.23581" lon="7.27344"><ele>907.4</ele><time>2021-05-23T16:15:34Z</time></trkpt>
<trkpt lat="46.23559" lon="7.27331"><ele>905.8</ele><time>2021-05-23T16:15:37Z</time></trkpt>
<trkpt lat="46.23542" lon="7.27302"><ele>904.2</ele><time>2021-05-23T16:15:40Z</time></trkpt>
<trkpt lat="46.23535" lon="7.27277"><ele>902.8</ele><time>2021-05-23T16:15:42Z</time></trkpt>
<trkpt lat="46.2353" lon="7.27252"><ele>901.8</ele><time>2021-05-23T16:15:44Z</time></trkpt>
<trkpt lat="46.23526" lon="7.2724"><ele>901</ele><time>2021-05-23T16:15:45Z</time></trkpt>
<trkpt lat="46.23514" lon="7.27219"><ele>900.2</ele><time>2021-05-23T16:15:47Z</time></trkpt>
<trkpt lat="46.235" lon="7.27199"><ele>898.8</ele><time>2021-05-23T16:15:49Z</time></trkpt>
<trkpt lat="46.23494" lon="7.27188"><ele>898.2</ele><time>2021-05-23T16:15:50Z</time></trkpt>
<trkpt lat="46.23485" lon="7.2716"><ele>896.2</ele><time>2021-05-23T16:15:52Z</time></trkpt>
<trkpt lat="46.23478" lon="7.27131"><ele>894.2</ele><time>2021-05-23T16:15:54Z</time></trkpt>
<trkpt lat="46.23472" lon="7.27105"><ele>893.2</ele><time>2021-05-23T16:15:56Z</time></trkpt>
<trkpt lat="46.2347" lon="7.27093"><ele>892.6</ele><time>2021-05-23T16:15:57Z</time></trkpt>
<trkpt lat="46.23454" lon="7.27082"><ele>892.2</ele><time>2021-05-23T16:16:00Z</time></trkpt>
<trkpt lat="46.23451" lon="7.27112"><ele>888.6</ele><time>2021-05-23T16:16:03Z</time></trkpt>
<trkpt lat="46.23452" lon="7.27124"><ele>888</ele><time>2021-05-23T16:16:04Z</time></trkpt>
<trkpt lat="46.23453" lon="7.27136"><ele>887.4</ele><time>2021-05-23T16:16:05Z</time></trkpt>
<trkpt lat="46.23446" lon="7.27173"><ele>885.4</ele><time>2021-05-23T16:16:08Z</time></trkpt>
<trkpt lat="46.2344" lon="7.27199"><ele>883.8</ele><time>2021-05-23T16:16:10Z</time></trkpt>
<trkpt lat="46.23442" lon="7.27228"><ele>882</ele><time>2021-05-23T16:16:12Z</time></trkpt>
<trkpt lat="46.2345" lon="7.27255"><ele>880.8</ele><time>2021-05-23T16:16:14Z</time></trkpt>
<trkpt lat="46.2346" lon="7.27283"><ele>879.2</ele><time>2021-05-23T16:16:16Z</time></trkpt>
<trkpt lat="46.23471" lon="7.2731"><ele>877.4</ele><time>2021-05-23T16:16:18Z</time></trkpt>
<trkpt lat="46.23482" lon="7.27337"><ele>875.4</ele><time>2021-05-23T16:16:20Z</time></trkpt>
<trkpt lat="46.23494" lon="7.27366"><ele>874.4</ele><time>2021-05-23T16:16:22Z</time></trkpt>
<trkpt lat="46.23503" lon="7.27397"><ele>873</ele><time>2021-05-23T16:16:24Z</time></trkpt>
<trkpt lat="46.23508" lon="7.27412"><ele>872</ele><time>2021-05-23T16:16:25Z</time></trkpt>
<trkpt lat="46.23523" lon="7.27437"><ele>870</ele><time>2021-05-23T16:16:27Z</time></trkpt>
<trkpt lat="46.23539" lon="7.27461"><ele>868</ele><time>2021-05-23T16:16:29Z</time></trkpt>
<trkpt lat="46.23547" lon="7.27472"><ele>866.8</ele><time>2021-05-23T16:16:30Z</time></trkpt>
<trkpt lat="46.23565" lon="7.27482"><ele>865.2</ele><time>2021-05-23T16:16:32Z</time></trkpt>
<trkpt lat="46.23583" lon="7.27483"><ele>863.8</ele><time>2021-05-23T16:16:34Z</time></trkpt>
<trkpt lat="46.23591" lon="7.27484"><ele>863.2</ele><time>2021-05-23T16:16:35Z</time></trkpt>
<trkpt lat="46.23601" lon="7.27512"><ele>861.2</ele><time>2021-05-23T16:16:38Z</time></trkpt>
<trkpt lat="46.23599" lon="7.27523"><ele>860.4</ele><time>2021-05-23T16:16:39Z</time></trkpt>
<trkpt lat="46.23599" lon="7.27534"><ele>859</ele><time>2021-05-23T16:16:40Z</time></trkpt>
<trkpt lat="46.2361" lon="7.27571"><ele>856</ele><time>2021-05-23T16:16:43Z</time></trkpt>
<trkpt lat="46.23615" lon="7.276"><ele>854</ele><time>2021-05-23T16:16:45Z</time></trkpt>
<trkpt lat="46.23616" lon="7.27633"><ele>851.2</ele><time>2021-05-23T16:16:47Z</time></trkpt>
<trkpt lat="46.23617" lon="7.27667"><ele>848.2</ele><time>2021-05-23T16:16:49Z</time></trkpt>
<trkpt lat="46.23618" lon="7.27684"><ele>846.8</ele><time>2021-05-23T16:16:50Z</time></trkpt>
<trkpt lat="46.23626" lon="7.27718"><ele>843.6</ele><time>2021-05-23T16:16:52Z</time></trkpt>
<trkpt lat="46.23639" lon="7.27751"><ele>840.6</ele><time>2021-05-23T16:16:54Z</time></trkpt>
<trkpt lat="46.23646" lon="7.27768"><ele>839</ele><time>2021-05-23T16:16:55Z</time></trkpt>
<trkpt lat="46.2366" lon="7.27801"><ele>835.8</ele><time>2021-05-23T16:16:57Z</time></trkpt>
<trkpt lat="46.23672" lon="7.27836"><ele>833.2</ele><time>2021-05-23T16:16:59Z</time></trkpt>
<trkpt lat="46.2368" lon="7.27874"><ele>830.2</ele><time>2021-05-23T16:17:01Z</time></trkpt>
<trkpt lat="46.23688" lon="7.27912"><ele>827.4</ele><time>2021-05-23T16:17:03Z</time></trkpt>
<trkpt lat="46.23696" lon="7.27949"><ele>824.8</ele><time>2021-05-23T16:17:05Z</time></trkpt>
<trkpt lat="46.23708" lon="7.27984"><ele>822.6</ele><time>2021-05-23T16:17:07Z</time></trkpt>
<trkpt lat="46.23713" lon="7.28"><ele>821.4</ele><time>2021-05-23T16:17:08Z</time></trkpt>
<trkpt lat="46.23717" lon="7.28033"><ele>819</ele><time>2021-05-23T16:17:10Z</time></trkpt>
<trkpt lat="46.23708" lon="7.28063"><ele>816.4</ele><time>2021-05-23T16:17:12Z</time></trkpt>
<trkpt lat="46.23702" lon="7.28077"><ele>815</ele><time>2021-05-23T16:17:13Z</time></trkpt>
<trkpt lat="46.23688" lon="7.28103"><ele>813.8</ele><time>2021-05-23T16:17:15Z</time></trkpt>
<trkpt lat="46.23677" lon="7.28129"><ele>812</ele><time>2021-05-23T16:17:17Z</time></trkpt>
<trkpt lat="46.23676" lon="7.28158"><ele>810</ele><time>2021-05-23T16:17:19Z</time></trkpt>
<trkpt lat="46.23683" lon="7.28186"><ele>808.8</ele><time>2021-05-23T16:17:21Z</time></trkpt>
<trkpt lat="46.2369" lon="7.28214"><ele>808</ele><time>2021-05-23T16:17:23Z</time></trkpt>
<trkpt lat="46.23695" lon="7.28242"><ele>807</ele><time>2021-05-23T16:17:25Z</time></trkpt>
<trkpt lat="46.23698" lon="7.28269"><ele>806.2</ele><time>2021-05-23T16:17:27Z</time></trkpt>
<trkpt lat="46.237" lon="7.28295"><ele>805.4</ele><time>2021-05-23T16:17:29Z</time></trkpt>
<trkpt lat="46.23705" lon="7.28331"><ele>805.2</ele><time>2021-05-23T16:17:32Z</time></trkpt>
<trkpt lat="46.23708" lon="7.28365"><ele>805.2</ele><time>2021-05-23T16:17:35Z</time></trkpt>
<trkpt lat="46.23709" lon="7.28397"><ele>805</ele><time>2021-05-23T16:17:38Z</time></trkpt>
<trkpt lat="46.23708" lon="7.28428"><ele>804.8</ele><time>2021-05-23T16:17:41Z</time></trkpt>
<trkpt lat="46.23708" lon="7.28456"><ele>803.2</ele><time>2021-05-23T16:17:44Z</time></trkpt>
<trkpt lat="46.23706" lon="7.28487"><ele>804</ele><time>2021-05-23T16:17:47Z</time></trkpt>
<trkpt lat="46.23704" lon="7.28517"><ele>804.4</ele><time>2021-05-23T16:17:50Z</time></trkpt>
<trkpt lat="46.23702" lon="7.28546"><ele>804.8</ele><time>2021-05-23T16:17:53Z</time></trkpt>
<trkpt lat="46.23704" lon="7.28574"><ele>805</ele><time>2021-05-23T16:17:56Z</time></trkpt>
<trkpt lat="46.23709" lon="7.28603"><ele>805.2</ele><time>2021-05-23T16:17:59Z</time></trkpt>
<trkpt lat="46.23716" lon="7.28631"><ele>804.2</ele><time>2021-05-23T16:18:02Z</time></trkpt>
<trkpt lat="46.23724" lon="7.28659"><ele>803.6</ele><time>2021-05-23T16:18:05Z</time></trkpt>
<trkpt lat="46.23737" lon="7.28687"><ele>802.2</ele><time>2021-05-23T16:18:08Z</time></trkpt>
<trkpt lat="46.23751" lon="7.28717"><ele>800.6</ele><time>2021-05-23T16:18:11Z</time></trkpt>
<trkpt lat="46.23756" lon="7.28728"><ele>799.8</ele><time>2021-05-23T16:18:12Z</time></trkpt>
<trkpt lat="46.23762" lon="7.28739"><ele>799</ele><time>2021-05-23T16:18:13Z</time></trkpt>
<trkpt lat="46.23772" lon="7.28762"><ele>797.4</ele><time>2021-05-23T16:18:15Z</time></trkpt>
<trkpt lat="46.23783" lon="7.28794"><ele>795.2</ele><time>2021-05-23T16:18:18Z</time></trkpt>
<trkpt lat="46.23784" lon="7.28802"><ele>794.6</ele><time>2021-05-23T16:18:19Z</time></trkpt>
<trkpt lat="46.23774" lon="7.28823"><ele>791.4</ele><time>2021-05-23T16:18:24Z</time></trkpt>
<trkpt lat="46.2377" lon="7.28823"><ele>790.8</ele><time>2021-05-23T16:18:25Z</time></trkpt>
<trkpt lat="46.23761" lon="7.28823"><ele>789.6</ele><time>2021-05-23T16:18:27Z</time></trkpt>
<trkpt lat="46.23749" lon="7.28817"><ele>788.4</ele><time>2021-05-23T16:18:30Z</time></trkpt>
<trkpt lat="46.23731" lon="7.28805"><ele>786.8</ele><time>2021-05-23T16:18:34Z</time></trkpt>
<trkpt lat="46.23712" lon="7.28791"><ele>785</ele><time>2021-05-23T16:18:38Z</time></trkpt>
<trkpt lat="46.23707" lon="7.28787"><ele>785</ele><time>2021-05-23T16:18:39Z</time></trkpt>
<trkpt lat="46.2369" lon="7.28765"><ele>783</ele><time>2021-05-23T16:18:43Z</time></trkpt>
<trkpt lat="46.23686" lon="7.2876"><ele>782</ele><time>2021-05-23T16:18:44Z</time></trkpt>
<trkpt lat="46.23672" lon="7.28743"><ele>780.4</ele><time>2021-05-23T16:18:47Z</time></trkpt>
<trkpt lat="46.23656" lon="7.28724"><ele>778.6</ele><time>2021-05-23T16:18:50Z</time></trkpt>
<trkpt lat="46.23645" lon="7.28709"><ele>777.2</ele><time>2021-05-23T16:18:52Z</time></trkpt>
<trkpt lat="46.23628" lon="7.28682"><ele>774.6</ele><time>2021-05-23T16:18:55Z</time></trkpt>
<trkpt lat="46.23612" lon="7.28656"><ele>772.4</ele><time>2021-05-23T16:18:58Z</time></trkpt>
<trkpt lat="46.23598" lon="7.28638"><ele>770.6</ele><time>2021-05-23T16:19:01Z</time></trkpt>
<trkpt lat="46.23589" lon="7.28627"><ele>769.4</ele><time>2021-05-23T16:19:04Z</time></trkpt>
<trkpt lat="46.23583" lon="7.28619"><ele>768.6</ele><time>2021-05-23T16:19:06Z</time></trkpt>
<trkpt lat="46.23575" lon="7.28595"><ele>765</ele><time>2021-05-23T16:19:09Z</time></trkpt>
<trkpt lat="46.23573" lon="7.28583"><ele>763.2</ele><time>2021-05-23T16:19:10Z</time></trkpt>
<trkpt lat="46.23563" lon="7.28559"><ele>759.8</ele><time>2021-05-23T16:19:12Z</time></trkpt>
<trkpt lat="46.23553" lon="7.28531"><ele>756.2</ele><time>2021-05-23T16:19:14Z</time></trkpt>
<trkpt lat="46.23544" lon="7.28499"><ele>753.2</ele><time>2021-05-23T16:19:16Z</time></trkpt>
<trkpt lat="46.23535" lon="7.28466"><ele>750.4</ele><time>2021-05-23T16:19:18Z</time></trkpt>
<trkpt lat="46.23527" lon="7.28433"><ele>747.8</ele><time>2021-05-23T16:19:20Z</time></trkpt>
<trkpt lat="46.2352" lon="7.284"><ele>745.4</ele><time>2021-05-23T16:19:22Z</time></trkpt>
<trkpt lat="46.23513" lon="7.28372"><ele>743.2</ele><time>2021-05-23T16:19:24Z</time></trkpt>
<trkpt lat="46.23509" lon="7.2836"><ele>742.2</ele><time>2021-05-23T16:19:25Z</time></trkpt>
<trkpt lat="46.23496" lon="7.28338"><ele>740</ele><time>2021-05-23T16:19:28Z</time></trkpt>
<trkpt lat="46.23489" lon="7.28313"><ele>737.2</ele><time>2021-05-23T16:19:31Z</time></trkpt>
<trkpt lat="46.23485" lon="7.2829"><ele>735.2</ele><time>2021-05-23T16:19:33Z</time></trkpt>
<trkpt lat="46.23472" lon="7.28259"><ele>731.2</ele><time>2021-05-23T16:19:36Z</time></trkpt>
<trkpt lat="46.2346" lon="7.2824"><ele>728.4</ele><time>2021-05-23T16:19:38Z</time></trkpt>
<trkpt lat="46.23442" lon="7.28213"><ele>724</ele><time>2021-05-23T16:19:41Z</time></trkpt>
<trkpt lat="46.23424" lon="7.28191"><ele>720.2</ele><time>2021-05-23T16:19:44Z</time></trkpt>
<trkpt lat="46.23408" lon="7.28177"><ele>716.4</ele><time>2021-05-23T16:19:47Z</time></trkpt>
<trkpt lat="46.23399" lon="7.28169"><ele>714</ele><time>2021-05-23T16:19:49Z</time></trkpt>
<trkpt lat="46.23392" lon="7.28145"><ele>709</ele><time>2021-05-23T16:19:52Z</time></trkpt>
<trkpt lat="46.23387" lon="7.28123"><ele>706.4</ele><time>2021-05-23T16:19:54Z</time></trkpt>
<trkpt lat="46.23371" lon="7.28095"><ele>701.8</ele><time>2021-05-23T16:19:57Z</time></trkpt>
<trkpt lat="46.23364" lon="7.28088"><ele>700.4</ele><time>2021-05-23T16:19:58Z</time></trkpt>
<trkpt lat="46.23345" lon="7.28065"><ele>696.2</ele><time>2021-05-23T16:20:01Z</time></trkpt>
<trkpt lat="46.23335" lon="7.28053"><ele>693.6</ele><time>2021-05-23T16:20:03Z</time></trkpt>
<trkpt lat="46.23327" lon="7.28049"><ele>692.8</ele><time>2021-05-23T16:20:07Z</time></trkpt>
<trkpt lat="46.23307" lon="7.28039"><ele>689.4</ele><time>2021-05-23T16:20:13Z</time></trkpt>
<trkpt lat="46.23301" lon="7.28036"><ele>688.6</ele><time>2021-05-23T16:20:14Z</time></trkpt>
<trkpt lat="46.23283" lon="7.28022"><ele>685.2</ele><time>2021-05-23T16:20:19Z</time></trkpt>
<trkpt lat="46.23288" lon="7.28008"><ele>682</ele><time>2021-05-23T16:20:22Z</time></trkpt>
<trkpt lat="46.23293" lon="7.28005"><ele>680.8</ele><time>2021-05-23T16:20:23Z</time></trkpt>
<trkpt lat="46.23301" lon="7.27984"><ele>676.8</ele><time>2021-05-23T16:20:27Z</time></trkpt>
<trkpt lat="46.23284" lon="7.2797"><ele>674.8</ele><time>2021-05-23T16:20:30Z</time></trkpt>
<trkpt lat="46.2326" lon="7.27957"><ele>671.6</ele><time>2021-05-23T16:20:33Z</time></trkpt>
<trkpt lat="46.23242" lon="7.2795"><ele>669.8</ele><time>2021-05-23T16:20:35Z</time></trkpt>
<trkpt lat="46.2322" lon="7.27942"><ele>668.2</ele><time>2021-05-23T16:20:38Z</time></trkpt>
<trkpt lat="46.23215" lon="7.27938"><ele>667.6</ele><time>2021-05-23T16:20:39Z</time></trkpt>
<trkpt lat="46.23199" lon="7.27923"><ele>665.2</ele><time>2021-05-23T16:20:42Z</time></trkpt>
<trkpt lat="46.23195" lon="7.27917"><ele>664.2</ele><time>2021-05-23T16:20:43Z</time></trkpt>
<trkpt lat="46.2318" lon="7.27895"><ele>660.6</ele><time>2021-05-23T16:20:47Z</time></trkpt>
<trkpt lat="46.23174" lon="7.27886"><ele>659.2</ele><time>2021-05-23T16:20:49Z</time></trkpt>
<trkpt lat="46.23169" lon="7.27864"><ele>657.2</ele><time>2021-05-23T16:20:53Z</time></trkpt>
<trkpt lat="46.23168" lon="7.27844"><ele>655</ele><time>2021-05-23T16:20:56Z</time></trkpt>
<trkpt lat="46.23169" lon="7.27818"><ele>651.4</ele><time>2021-05-23T16:21:00Z</time></trkpt>
<trkpt lat="46.23171" lon="7.27807"><ele>649.6</ele><time>2021-05-23T16:21:02Z</time></trkpt>
<trkpt lat="46.23171" lon="7.27802"><ele>648.8</ele><time>2021-05-23T16:21:03Z</time></trkpt>
<trkpt lat="46.23154" lon="7.27803"><ele>645.8</ele><time>2021-05-23T16:21:07Z</time></trkpt>
<trkpt lat="46.23148" lon="7.27806"><ele>645</ele><time>2021-05-23T16:21:08Z</time></trkpt>
<trkpt lat="46.23128" lon="7.27808"><ele>642.2</ele><time>2021-05-23T16:21:12Z</time></trkpt>
<trkpt lat="46.23118" lon="7.27801"><ele>642</ele><time>2021-05-23T16:21:14Z</time></trkpt>
<trkpt lat="46.23109" lon="7.27794"><ele>641.6</ele><time>2021-05-23T16:21:16Z</time></trkpt>
<trkpt lat="46.23101" lon="7.27785"><ele>641</ele><time>2021-05-23T16:21:18Z</time></trkpt>
<trkpt lat="46.23088" lon="7.27763"><ele>641.4</ele><time>2021-05-23T16:21:22Z</time></trkpt>
<trkpt lat="46.23076" lon="7.2774"><ele>640.8</ele><time>2021-05-23T16:21:26Z</time></trkpt>
<trkpt lat="46.2306" lon="7.27716"><ele>639</ele><time>2021-05-23T16:21:30Z</time></trkpt>
<trkpt lat="46.23046" lon="7.27695"><ele>637.4</ele><time>2021-05-23T16:21:33Z</time></trkpt>
<trkpt lat="46.23035" lon="7.27681"><ele>636</ele><time>2021-05-23T16:21:35Z</time></trkpt>
<trkpt lat="46.23016" lon="7.27658"><ele>633.4</ele><time>2021-05-23T16:21:38Z</time></trkpt>
<trkpt lat="46.22994" lon="7.27635"><ele>629.4</ele><time>2021-05-23T16:21:41Z</time></trkpt>
<trkpt lat="46.22978" lon="7.2762"><ele>626</ele><time>2021-05-23T16:21:43Z</time></trkpt>
<trkpt lat="46.22962" lon="7.27605"><ele>623</ele><time>2021-05-23T16:21:45Z</time></trkpt>
<trkpt lat="46.22947" lon="7.27588"><ele>620.2</ele><time>2021-05-23T16:21:47Z</time></trkpt>
<trkpt lat="46.22933" lon="7.2757"><ele>618.2</ele><time>2021-05-23T16:21:49Z</time></trkpt>
<trkpt lat="46.22927" lon="7.2756"><ele>617.4</ele><time>2021-05-23T16:21:50Z</time></trkpt>
<trkpt lat="46.22915" lon="7.27537"><ele>617.2</ele><time>2021-05-23T16:21:53Z</time></trkpt>
<trkpt lat="46.22904" lon="7.27522"><ele>616.4</ele><time>2021-05-23T16:21:56Z</time></trkpt>
<trkpt lat="46.22884" lon="7.27507"><ele>613.4</ele><time>2021-05-23T16:22:00Z</time></trkpt>
<trkpt lat="46.22875" lon="7.27499"><ele>611.8</ele><time>2021-05-23T16:22:02Z</time></trkpt>
<trkpt lat="46.22855" lon="7.27483"><ele>608.4</ele><time>2021-05-23T16:22:07Z</time></trkpt>
<trkpt lat="46.22837" lon="7.27473"><ele>605.6</ele><time>2021-05-23T16:22:10Z</time></trkpt>
<trkpt lat="46.22817" lon="7.27461"><ele>602.8</ele><time>2021-05-23T16:22:13Z</time></trkpt>
<trkpt lat="46.22799" lon="7.27442"><ele>599.8</ele><time>2021-05-23T16:22:16Z</time></trkpt>
<trkpt lat="46.2278" lon="7.27424"><ele>596</ele><time>2021-05-23T16:22:19Z</time></trkpt>
<trkpt lat="46.22758" lon="7.27406"><ele>592</ele><time>2021-05-23T16:22:22Z</time></trkpt>
<trkpt lat="46.22737" lon="7.27389"><ele>588.6</ele><time>2021-05-23T16:22:25Z</time></trkpt>
<trkpt lat="46.22717" lon="7.27374"><ele>584.8</ele><time>2021-05-23T16:22:28Z</time></trkpt>
<trkpt lat="46.22698" lon="7.2736"><ele>581.2</ele><time>2021-05-23T16:22:31Z</time></trkpt>
<trkpt lat="46.22678" lon="7.2735"><ele>577.6</ele><time>2021-05-23T16:22:35Z</time></trkpt>
<trkpt lat="46.22684" lon="7.27335"><ele>573.6</ele><time>2021-05-23T16:22:40Z</time></trkpt>
<trkpt lat="46.22701" lon="7.27319"><ele>570.2</ele><time>2021-05-23T16:22:44Z</time></trkpt>
<trkpt lat="46.22698" lon="7.27301"><ele>566.8</ele><time>2021-05-23T16:22:46Z</time></trkpt>
<trkpt lat="46.22682" lon="7.27276"><ele>564</ele><time>2021-05-23T16:22:49Z</time></trkpt>
<trkpt lat="46.22669" lon="7.27259"><ele>561.6</ele><time>2021-05-23T16:22:51Z</time></trkpt>
<trkpt lat="46.22654" lon="7.2724"><ele>559.2</ele><time>2021-05-23T16:22:53Z</time></trkpt>
<trkpt lat="46.2264" lon="7.27218"><ele>556.8</ele><time>2021-05-23T16:22:55Z</time></trkpt>
<trkpt lat="46.22625" lon="7.27196"><ele>554.2</ele><time>2021-05-23T16:22:57Z</time></trkpt>
<trkpt lat="46.2261" lon="7.27179"><ele>551.8</ele><time>2021-05-23T16:22:59Z</time></trkpt>
<trkpt lat="46.22598" lon="7.27168"><ele>550</ele><time>2021-05-23T16:23:01Z</time></trkpt>
<trkpt lat="46.2258" lon="7.2717"><ele>547.8</ele><time>2021-05-23T16:23:04Z</time></trkpt>
<trkpt lat="46.22576" lon="7.27195"><ele>546.4</ele><time>2021-05-23T16:23:07Z</time></trkpt>
<trkpt lat="46.22576" lon="7.27204"><ele>546</ele><time>2021-05-23T16:23:08Z</time></trkpt>
<trkpt lat="46.22576" lon="7.27237"><ele>545.4</ele><time>2021-05-23T16:23:12Z</time></trkpt>
<trkpt lat="46.22576" lon="7.27271"><ele>544.2</ele><time>2021-05-23T16:23:16Z</time></trkpt>
<trkpt lat="46.22576" lon="7.2729"><ele>543.4</ele><time>2021-05-23T16:23:18Z</time></trkpt>
<trkpt lat="46.22576" lon="7.27319"><ele>542.2</ele><time>2021-05-23T16:23:21Z</time></trkpt>
<trkpt lat="46.22586" lon="7.27346"><ele>538.4</ele><time>2021-05-23T16:23:24Z</time></trkpt>
<trkpt lat="46.2259" lon="7.27357"><ele>537.2</ele><time>2021-05-23T16:23:25Z</time></trkpt>
<trkpt lat="46.22595" lon="7.27382"><ele>535</ele><time>2021-05-23T16:23:27Z</time></trkpt>
<trkpt lat="46.22597" lon="7.27407"><ele>533.6</ele><time>2021-05-23T16:23:29Z</time></trkpt>
<trkpt lat="46.22599" lon="7.27419"><ele>533</ele><time>2021-05-23T16:23:30Z</time></trkpt>
<trkpt lat="46.22612" lon="7.27448"><ele>532.6</ele><time>2021-05-23T16:23:33Z</time></trkpt>
<trkpt lat="46.22627" lon="7.27476"><ele>533</ele><time>2021-05-23T16:23:36Z</time></trkpt>
<trkpt lat="46.22637" lon="7.27493"><ele>533.6</ele><time>2021-05-23T16:23:38Z</time></trkpt>
<trkpt lat="46.22652" lon="7.27517"><ele>534.6</ele><time>2021-05-23T16:23:41Z</time></trkpt>
<trkpt lat="46.22661" lon="7.27534"><ele>535.4</ele><time>2021-05-23T16:23:43Z</time></trkpt>
<trkpt lat="46.22665" lon="7.27551"><ele>536.4</ele><time>2021-05-23T16:23:45Z</time></trkpt>
<trkpt lat="46.22668" lon="7.27566"><ele>537.4</ele><time>2021-05-23T16:23:47Z</time></trkpt>
<trkpt lat="46.22678" lon="7.27587"><ele>538.8</ele><time>2021-05-23T16:23:51Z</time></trkpt>
<trkpt lat="46.2269" lon="7.27607"><ele>540.8</ele><time>2021-05-23T16:23:57Z</time></trkpt>
<trkpt lat="46.22696" lon="7.27615"><ele>541.8</ele><time>2021-05-23T16:24:00Z</time></trkpt>
<trkpt lat="46.227" lon="7.2762"><ele>542.2</ele><time>2021-05-23T16:24:02Z</time></trkpt>
<trkpt lat="46.22707" lon="7.27632"><ele>543.4</ele><time>2021-05-23T16:24:06Z</time></trkpt>
<trkpt lat="46.22712" lon="7.27639"><ele>544</ele><time>2021-05-23T16:24:09Z</time></trkpt>
<trkpt lat="46.22722" lon="7.27654"><ele>544.8</ele><time>2021-05-23T16:24:15Z</time></trkpt>
<trkpt lat="46.22726" lon="7.2766"><ele>545.2</ele><time>2021-05-23T16:24:17Z</time></trkpt>
<trkpt lat="46.22735" lon="7.27674"><ele>545.6</ele><time>2021-05-23T16:24:22Z</time></trkpt>
<trkpt lat="46.22749" lon="7.27696"><ele>545.8</ele><time>2021-05-23T16:24:28Z</time></trkpt>
<trkpt lat="46.22762" lon="7.27718"><ele>545.6</ele><time>2021-05-23T16:24:33Z</time></trkpt>
<trkpt lat="46.22767" lon="7.27729"><ele>545.6</ele><time>2021-05-23T16:24:35Z</time></trkpt>
<trkpt lat="46.22769" lon="7.27735"><ele>545.4</ele><time>2021-05-23T16:24:36Z</time></trkpt>
<trkpt lat="46.22771" lon="7.27741"><ele>545.2</ele><time>2021-05-23T16:24:37Z</time></trkpt>
<trkpt lat="46.22772" lon="7.27749"><ele>545.2</ele><time>2021-05-23T16:24:38Z</time></trkpt>
<trkpt lat="46.22772" lon="7.27756"><ele>545</ele><time>2021-05-23T16:24:39Z</time></trkpt>
<trkpt lat="46.22778" lon="7.27785"><ele>543.4</ele><time>2021-05-23T16:24:43Z</time></trkpt>
<trkpt lat="46.2278" lon="7.27791"><ele>542.8</ele><time>2021-05-23T16:24:44Z</time></trkpt>
<trkpt lat="46.2279" lon="7.27816"><ele>539.4</ele><time>2021-05-23T16:24:48Z</time></trkpt>
<trkpt lat="46.22803" lon="7.27844"><ele>535.6</ele><time>2021-05-23T16:24:52Z</time></trkpt>
<trkpt lat="46.22804" lon="7.27852"><ele>534.6</ele><time>2021-05-23T16:24:53Z</time></trkpt>
<trkpt lat="46.22798" lon="7.27878"><ele>531.2</ele><time>2021-05-23T16:24:56Z</time></trkpt>
<trkpt lat="46.22795" lon="7.27886"><ele>530</ele><time>2021-05-23T16:24:57Z</time></trkpt>
<trkpt lat="46.22785" lon="7.27912"><ele>526.4</ele><time>2021-05-23T16:25:00Z</time></trkpt>
<trkpt lat="46.22775" lon="7.27937"><ele>522.8</ele><time>2021-05-23T16:25:03Z</time></trkpt>
<trkpt lat="46.22764" lon="7.27964"><ele>519.6</ele><time>2021-05-23T16:25:07Z</time></trkpt>
<trkpt lat="46.22764" lon="7.27977"><ele>518.2</ele><time>2021-05-23T16:25:09Z</time></trkpt>
<trkpt lat="46.22769" lon="7.27994"><ele>516.8</ele><time>2021-05-23T16:25:11Z</time></trkpt>
<trkpt lat="46.22771" lon="7.28004"><ele>515.8</ele><time>2021-05-23T16:25:12Z</time></trkpt>
<trkpt lat="46.22774" lon="7.28036"><ele>512.4</ele><time>2021-05-23T16:25:15Z</time></trkpt>
<trkpt lat="46.22768" lon="7.28069"><ele>509.4</ele><time>2021-05-23T16:25:18Z</time></trkpt>
<trkpt lat="46.2276" lon="7.28101"><ele>507.6</ele><time>2021-05-23T16:25:21Z</time></trkpt>
<trkpt lat="46.22753" lon="7.28129"><ele>506.6</ele><time>2021-05-23T16:25:24Z</time></trkpt>
<trkpt lat="46.22747" lon="7.28155"><ele>505.8</ele><time>2021-05-23T16:25:28Z</time></trkpt>
<trkpt lat="46.22741" lon="7.28182"><ele>505.4</ele><time>2021-05-23T16:25:33Z</time></trkpt>
<trkpt lat="46.22739" lon="7.282"><ele>505</ele><time>2021-05-23T16:25:37Z</time></trkpt>
<trkpt lat="46.22728" lon="7.28196"><ele>504.4</ele><time>2021-05-23T16:25:40Z</time></trkpt>
<trkpt lat="46.22723" lon="7.28194"><ele>503.8</ele><time>2021-05-23T16:25:41Z</time></trkpt>
<trkpt lat="46.22705" lon="7.28197"><ele>502</ele><time>2021-05-23T16:25:44Z</time></trkpt>
<trkpt lat="46.22699" lon="7.28199"><ele>501.4</ele><time>2021-05-23T16:25:45Z</time></trkpt>
<trkpt lat="46.22687" lon="7.28204"><ele>499</ele><time>2021-05-23T16:25:49Z</time></trkpt>
<trkpt lat="46.22688" lon="7.2823"><ele>496.6</ele><time>2021-05-23T16:25:56Z</time></trkpt>
<trkpt lat="46.2269" lon="7.28248"><ele>496</ele><time>2021-05-23T16:25:59Z</time></trkpt>
<trkpt lat="46.22692" lon="7.28268"><ele>495.2</ele><time>2021-05-23T16:26:02Z</time></trkpt>
<trkpt lat="46.22693" lon="7.28286"><ele>495.2</ele><time>2021-05-23T16:26:05Z</time></trkpt>
<trkpt lat="46.22682" lon="7.28308"><ele>494</ele><time>2021-05-23T16:26:09Z</time></trkpt>
<trkpt lat="46.22677" lon="7.28313"><ele>493.4</ele><time>2021-05-23T16:26:10Z</time></trkpt>
<trkpt lat="46.2266" lon="7.28331"><ele>492.4</ele><time>2021-05-23T16:26:13Z</time></trkpt>
<trkpt lat="46.22653" lon="7.28336"><ele>492.4</ele><time>2021-05-23T16:26:14Z</time></trkpt>
<trkpt lat="46.22639" lon="7.28343"><ele>491.6</ele><time>2021-05-23T16:26:16Z</time></trkpt>
<trkpt lat="46.22631" lon="7.28345"><ele>491.2</ele><time>2021-05-23T16:26:17Z</time></trkpt>
<trkpt lat="46.22608" lon="7.28345"><ele>489.8</ele><time>2021-05-23T16:26:20Z</time></trkpt>
<trkpt lat="46.2259" lon="7.28341"><ele>488.6</ele><time>2021-05-23T16:26:23Z</time></trkpt>
<trkpt lat="46.22574" lon="7.28337"><ele>488.8</ele><time>2021-05-23T16:26:28Z</time></trkpt>
<trkpt lat="46.22572" lon="7.28336"><ele>490</ele><time>2021-05-23T16:26:34Z</time></trkpt>
<trkpt lat="46.22553" lon="7.28326"><ele>489.8</ele><time>2021-05-23T16:26:42Z</time></trkpt>
<trkpt lat="46.22533" lon="7.28331"><ele>488.6</ele><time>2021-05-23T16:26:47Z</time></trkpt>
<trkpt lat="46.22513" lon="7.28344"><ele>487.4</ele><time>2021-05-23T16:26:53Z</time></trkpt>
<trkpt lat="46.22495" lon="7.28354"><ele>486.6</ele><time>2021-05-23T16:26:57Z</time></trkpt>
<trkpt lat="46.22477" lon="7.28364"><ele>485.8</ele><time>2021-05-23T16:27:01Z</time></trkpt>
<trkpt lat="46.22472" lon="7.28366"><ele>485.6</ele><time>2021-05-23T16:27:02Z</time></trkpt>
<trkpt lat="46.2246" lon="7.28356"><ele>484.4</ele><time>2021-05-23T16:27:05Z</time></trkpt>
<trkpt lat="46.22455" lon="7.28342"><ele>483.8</ele><time>2021-05-23T16:27:07Z</time></trkpt>
<trkpt lat="46.22445" lon="7.28313"><ele>483</ele><time>2021-05-23T16:27:11Z</time></trkpt>
<trkpt lat="46.22434" lon="7.28284"><ele>483</ele><time>2021-05-23T16:27:15Z</time></trkpt>
<trkpt lat="46.22427" lon="7.28265"><ele>482.4</ele><time>2021-05-23T16:27:18Z</time></trkpt>
<trkpt lat="46.22406" lon="7.28265"><ele>481</ele><time>2021-05-23T16:27:23Z</time></trkpt>
<trkpt lat="46.22401" lon="7.28267"><ele>480.6</ele><time>2021-05-23T16:27:24Z</time></trkpt>
<trkpt lat="46.22383" lon="7.28275"><ele>479.2</ele><time>2021-05-23T16:27:28Z</time></trkpt>
<trkpt lat="46.22376" lon="7.2828"><ele>478.6</ele><time>2021-05-23T16:27:30Z</time></trkpt>
<trkpt lat="46.22372" lon="7.2829"><ele>478</ele><time>2021-05-23T16:27:37Z</time></trkpt>
<trkpt lat="46.22373" lon="7.2829"><ele>478.6</ele><time>2021-05-23T16:27:47Z</time></trkpt>
<trkpt lat="46.2237" lon="7.28297"><ele>480.2</ele><time>2021-05-23T16:28:06Z</time></trkpt>
<trkpt lat="46.22371" lon="7.28296"><ele>480.6</ele><time>2021-05-23T16:28:11Z</time></trkpt>
<trkpt lat="46.22371" lon="7.28293"><ele>481.2</ele><time>2021-05-23T16:28:31Z</time></trkpt>
</trkseg></trk></gpx>